Provisional Data: Little Juniata River near Tipton, PA


Please select a monitoring station.
Please select start date.
Please select start date.

Toggle Unit: C/F Toggle Unit: C/F
Sample Time Temperature (C) Temperature (F) Specific Conductivity (mS/cm) pH   Turbidity (NTU+) DO (mg/L)
12/23/2022 12:00:00 AM 0.66 33.188 0.305 7.37 68.17 13.63
12/23/2022 12:15:00 AM 0.7 33.26 0.305 7.36 64.68 13.6
12/23/2022 12:30:00 AM 0.74 33.332 0.303 7.36 78.51 13.56
12/23/2022 12:45:00 AM 0.79 33.422 0.299 7.36 62.98 13.54
12/23/2022 1:00:00 AM 0.86 33.548 0.301 7.35 72.1 13.47
12/23/2022 1:15:00 AM 0.95 33.71 0.315 7.36 70.43 13.4
12/23/2022 1:30:00 AM 1.05 33.89 0.342 7.36 61.36 13.34
12/23/2022 1:45:00 AM 1.16 34.088 0.363 7.34 259.78 13.25
12/23/2022 2:00:00 AM 1.17 34.106 0.384 7.33 70.01 13.21
12/23/2022 2:15:00 AM 1.12 34.016 0.436 7.32 67.43 13.22
12/23/2022 2:30:00 AM 1.13 34.034 0.54 7.3 77.2 13.19
12/23/2022 2:45:00 AM 1.2 34.16 0.651 7.29 117.56 13.09
12/23/2022 3:00:00 AM 1.26 34.268 0.732 7.28 85.73 13.04
12/23/2022 3:15:00 AM 1.26 34.268 0.769 7.29 94.89 13.07
12/23/2022 3:30:00 AM 1.23 34.214 0.752 7.3 77.43 13.1
12/23/2022 3:45:00 AM 1.26 34.268 0.727 7.28 103.4 13.09
12/23/2022 4:00:00 AM 1.34 34.412 0.691 7.27 113.63 13.02
12/23/2022 4:15:00 AM 1.43 34.574 0.657 7.27 84.75 12.97
12/23/2022 4:30:00 AM 1.49 34.682 0.628 7.27 89.15 12.96
12/23/2022 4:45:00 AM 1.53 34.754 0.596 7.27 79.33 12.98
12/23/2022 5:00:00 AM 1.56 34.808 0.565 7.26 64.29 13
12/23/2022 5:15:00 AM 1.61 34.898 0.541 7.28 66.29 13.01
12/23/2022 5:30:00 AM 1.65 34.97 0.515 7.28 63.78 13
12/23/2022 5:45:00 AM 1.7 35.06 0.492 7.27 59.51 12.97
12/23/2022 6:00:00 AM 1.74 35.132 0.468 7.28 53.4 12.93
12/23/2022 6:15:00 AM 1.76 35.168 0.441 7.28 55.05 12.91
12/23/2022 6:30:00 AM 1.77 35.186 0.427 7.28 49.56 12.92
12/23/2022 6:45:00 AM 1.78 35.204 0.42 7.28 50.36 12.95
12/23/2022 7:00:00 AM 1.8 35.24 0.419 7.29 41.84 12.94
12/23/2022 7:15:00 AM 1.85 35.33 0.422 7.29 51.78 12.92
12/23/2022 7:30:00 AM 1.9 35.42 0.424 7.29 43.65 12.88
12/23/2022 7:45:00 AM 1.97 35.546 0.422 7.29 50.62 12.83
12/23/2022 8:00:00 AM 1.98 35.564 0.414 7.29 51.32 12.82
12/23/2022 8:15:00 AM 1.95 35.51 0.402 7.29 35.67 12.84
12/23/2022 8:30:00 AM 1.91 35.438 0.386 7.3 34.28 12.9
12/23/2022 8:45:00 AM 1.85 35.33 0.369 7.3 38.99 12.94
12/23/2022 9:00:00 AM 1.77 35.186 0.36 7.31 32 12.98
12/23/2022 9:15:00 AM 1.72 35.096 0.355 7.31 32.07 13
12/23/2022 9:30:00 AM 1.7 35.06 0.354 7.31 31.49 12.99
12/23/2022 9:45:00 AM 1.68 35.024 0.355 7.32 32.88 12.99
12/23/2022 10:00:00 AM 1.65 34.97 0.357 7.32 31.95 13.01
12/23/2022 10:15:00 AM 1.59 34.862 0.36 7.33 30.33 13.07
12/23/2022 10:30:00 AM 1.54 34.772 0.362 7.33 29.96 13.12
12/23/2022 10:45:00 AM 1.55 34.79 0.376 7.34 28.72 13.16
12/23/2022 11:00:00 AM 1.58 34.844 0.395 7.35 27.4 13.16
12/23/2022 11:15:00 AM 1.64 34.952 0.412 7.35 29.62 13.13
12/23/2022 11:30:00 AM 1.64 34.952 0.42 7.36 27.67 13.14
12/23/2022 11:45:00 AM 1.61 34.898 0.433 7.37 24.96 13.19
12/23/2022 12:00:00 PM 1.58 34.844 0.443 7.37 25.82 13.25
12/23/2022 12:15:00 PM 1.52 34.736 0.455 7.38 25.52 13.29
12/23/2022 12:30:00 PM 1.51 34.718 0.47 7.39 24.8 13.32
12/23/2022 12:45:00 PM 1.5 34.7 0.487 7.4 24.55 13.34
12/23/2022 1:00:00 PM 1.51 34.718 0.504 7.4 25.01 13.34
12/23/2022 1:15:00 PM 1.49 34.682 0.528 7.41 24.89 13.35
12/23/2022 1:30:00 PM 1.47 34.646 0.557 7.41 25.54 13.39
12/23/2022 1:45:00 PM 1.41 34.538 0.567 7.42 24.63 13.45
12/23/2022 2:00:00 PM 1.32 34.376 0.568 7.42 24.13 13.5
12/23/2022 2:15:00 PM 1.23 34.214 0.552 7.43 24 13.54
12/23/2022 2:30:00 PM 1.14 34.052 0.534 7.42 22.98 13.55
12/23/2022 2:45:00 PM 1.04 33.872 0.518 7.41 22.86 13.55
12/23/2022 3:00:00 PM 0.99 33.782 0.503 7.41 21.95 13.57
12/23/2022 3:15:00 PM 0.93 33.674 0.491 7.41 22.39 13.6
12/23/2022 3:30:00 PM 0.87 33.566 0.484 7.41 23.07 13.65
12/23/2022 3:45:00 PM 0.78 33.404 0.467 7.42 21.37 13.69
12/23/2022 4:00:00 PM 0.71 33.278 0.462 7.42 20.47 13.72
12/23/2022 4:15:00 PM 0.62 33.116 0.459 7.41 20.56 13.72
12/23/2022 4:30:00 PM 0.53 32.954 0.455 7.41 20.4 13.73
12/23/2022 4:45:00 PM 0.47 32.846 0.454 7.4 20.01 13.71
12/23/2022 5:00:00 PM 0.42 32.756 0.45 7.4 20.27 13.7
12/23/2022 5:15:00 PM 0.37 32.666 0.443 7.39 20.2 13.69
12/23/2022 5:30:00 PM 0.28 32.504 0.436 7.4 20.08 13.72
12/23/2022 5:45:00 PM 0.16 32.288 0.427 7.39 19.76 13.77
12/23/2022 6:00:00 PM 0.07 32.126 0.422 7.39 19.3 13.81
12/23/2022 6:15:00 PM -0.02 31.964 0.417 7.39 18.43 13.84
12/23/2022 6:30:00 PM -0.11 31.802 0.416 7.4 18.99 13.87
12/23/2022 6:45:00 PM -0.1 31.82 0.414 7.4 18.41 13.87
12/23/2022 7:00:00 PM -0.1 31.82 0.416 7.4 19.62 13.85
12/23/2022 7:15:00 PM -0.09 31.838 0.419 7.41 18.4 13.85
12/23/2022 7:30:00 PM -0.09 31.838 0.419 7.42 18.29 13.87
12/23/2022 7:45:00 PM -0.09 31.838 0.418 7.42 18.78 13.89
12/23/2022 8:00:00 PM -0.09 31.838 0.418 7.42 18.28 13.92
12/23/2022 8:15:00 PM -0.09 31.838 0.418 7.42 17.37 13.94
12/23/2022 8:30:00 PM -0.1 31.82 0.419 7.42 17.99 13.96
12/23/2022 8:45:00 PM -0.09 31.838 0.418 7.42 17.45 13.97
12/23/2022 9:00:00 PM -0.09 31.838 0.42 7.43 14.15 13.98
12/23/2022 9:15:00 PM -0.09 31.838 0.422 7.42 13.88 13.98
12/23/2022 9:30:00 PM -0.09 31.838 0.425 7.43 14.2 13.97
12/23/2022 9:45:00 PM -0.09 31.838 0.428 7.43 15.57 13.96
12/23/2022 10:00:00 PM -0.09 31.838 0.432 7.42 15.36 13.95
12/23/2022 10:15:00 PM -0.09 31.838 0.432 7.43 15.75 13.96
12/23/2022 10:30:00 PM -0.09 31.838 0.432 7.43 13.95 13.98
12/23/2022 10:45:00 PM -0.09 31.838 0.431 7.43 14.32 13.99
12/23/2022 11:00:00 PM -0.09 31.838 0.43 7.43 14.51 14.01
12/23/2022 11:15:00 PM -0.09 31.838 0.43 7.43 13.18 14.02
12/23/2022 11:30:00 PM -0.09 31.838 0.43 7.43 13.35 14.03
12/23/2022 11:45:00 PM -0.09 31.838 0.429 7.43 12.8 14.03
12/24/2022 12:00:00 AM -0.09 31.838 0.429 7.43 12.72 14.03
12/24/2022 12:15:00 AM -0.09 31.838 0.431 7.43 12.27 14.03
12/24/2022 12:30:00 AM -0.09 31.838 0.43 7.43 12.33 14.01
12/24/2022 12:45:00 AM -0.09 31.838 0.431 7.43 13.24 13.94
12/24/2022 1:00:00 AM -0.09 31.838 0.43 7.44 12.5 13.92
12/24/2022 1:15:00 AM -0.09 31.838 0.428 7.44 12.64 13.92
12/24/2022 1:30:00 AM -0.09 31.838 0.427 7.44 12.24 13.92
12/24/2022 1:45:00 AM -0.09 31.838 0.426 7.44 12.23 13.92
12/24/2022 2:00:00 AM -0.09 31.838 0.425 7.44 11.64 13.94
12/24/2022 2:15:00 AM -0.09 31.838 0.426 7.44 12.19 13.94
12/24/2022 2:30:00 AM -0.09 31.838 0.425 7.44 11.4 13.96
12/24/2022 2:45:00 AM -0.09 31.838 0.425 7.44 10.82 13.96
12/24/2022 3:00:00 AM -0.09 31.838 0.425 7.44 11.08 14
12/24/2022 3:15:00 AM -0.09 31.838 0.425 7.45 11.4 14.04
12/24/2022 3:30:00 AM -0.09 31.838 0.424 7.45 11.62 14.04
12/24/2022 3:45:00 AM -0.09 31.838 0.424 7.45 11.5 14.05
12/24/2022 4:00:00 AM -0.09 31.838 0.424 7.45 11.67 14.06
12/24/2022 4:15:00 AM -0.09 31.838 0.425 7.45 11.29 14.06
12/24/2022 4:30:00 AM -0.09 31.838 0.426 7.45 11.08 14.06
12/24/2022 4:45:00 AM -0.09 31.838 0.427 7.45 10.72 14.05
12/24/2022 5:00:00 AM -0.09 31.838 0.427 7.45 10.35 14.05
12/24/2022 5:15:00 AM -0.09 31.838 0.425 7.45 9.97 14.05
12/24/2022 5:30:00 AM -0.09 31.838 0.423 7.45 9.95 14.05
12/24/2022 5:45:00 AM -0.09 31.838 0.419 7.45 9.86 14.06
12/24/2022 6:00:00 AM -0.09 31.838 0.417 7.45 9.65 14.06
12/24/2022 6:15:00 AM -0.09 31.838 0.416 7.45 9.49 14.07
12/24/2022 6:30:00 AM -0.09 31.838 0.416 7.45 9.45 14.07
12/24/2022 6:45:00 AM -0.09 31.838 0.414 7.45 9.62 14.07
12/24/2022 7:00:00 AM -0.09 31.838 0.413 7.45 9.33 14.08
12/24/2022 7:15:00 AM -0.09 31.838 0.411 7.45 9.22 14.07
12/24/2022 7:30:00 AM -0.09 31.838 0.409 7.45 9.17 14.07
12/24/2022 7:45:00 AM -0.09 31.838 0.407 7.45 9.1 14.07
12/24/2022 8:00:00 AM -0.09 31.838 0.407 7.45 9.19 14.07
12/24/2022 8:15:00 AM -0.09 31.838 0.408 7.46 8.87 14.09
12/24/2022 8:30:00 AM -0.09 31.838 0.408 7.46 8.81 14.11
12/24/2022 8:45:00 AM -0.09 31.838 0.409 7.47 8.98 14.16
12/24/2022 9:00:00 AM -0.09 31.838 0.407 7.48 8.93 14.22
12/24/2022 9:15:00 AM -0.09 31.838 0.405 7.49 9.05 14.29
12/24/2022 9:30:00 AM -0.09 31.838 0.403 7.5 8.89 14.35
12/24/2022 9:45:00 AM -0.09 31.838 0.4 7.51 8.86 14.39
12/24/2022 10:00:00 AM -0.09 31.838 0.399 7.52 8.83 14.43
12/24/2022 10:15:00 AM -0.09 31.838 0.399 7.54 8.74 14.47
12/24/2022 10:30:00 AM -0.09 31.838 0.397 7.54 9.25 14.53
12/24/2022 10:45:00 AM -0.09 31.838 0.394 7.56 9.56 14.58
12/24/2022 11:00:00 AM -0.09 31.838 0.389 7.57 10.05 14.67
12/24/2022 11:15:00 AM -0.09 31.838 0.386 7.58 9.87 14.71
12/24/2022 11:30:00 AM -0.09 31.838 0.382 7.59 9.65 14.76
12/24/2022 11:45:00 AM -0.09 31.838 0.379 7.61 9.73 14.8
12/24/2022 12:00:00 PM -0.09 31.838 0.378 7.63 9.54 14.84
12/24/2022 12:15:00 PM -0.09 31.838 0.376 7.63 9.13 14.86
12/24/2022 12:30:00 PM -0.09 31.838 0.374 7.64 9.98 14.89
12/24/2022 12:45:00 PM -0.09 31.838 0.371 7.65 9.69 14.91
12/24/2022 1:00:00 PM -0.09 31.838 0.368 7.66 10.11 14.92
12/24/2022 1:15:00 PM -0.09 31.838 0.366 7.66 10.31 14.92
12/24/2022 1:30:00 PM -0.09 31.838 0.366 7.67 9.92 14.92
12/24/2022 1:45:00 PM -0.09 31.838 0.366 7.67 9.65 14.92
12/24/2022 2:00:00 PM -0.09 31.838 0.365 7.68 9.62 14.92
12/24/2022 2:15:00 PM -0.09 31.838 0.364 7.68 10.13 14.92
12/24/2022 2:30:00 PM -0.09 31.838 0.361 7.69 10.08 14.92
12/24/2022 2:45:00 PM -0.09 31.838 0.356 7.69 9.82 14.92
12/24/2022 3:00:00 PM -0.09 31.838 0.354 7.69 9.85 14.91
12/24/2022 3:15:00 PM -0.09 31.838 0.353 7.69 9.93 14.89
12/24/2022 3:30:00 PM -0.09 31.838 0.353 7.69 9.89 14.86
12/24/2022 3:45:00 PM -0.09 31.838 0.355 7.68 10.31 14.82
12/24/2022 4:00:00 PM -0.09 31.838 0.353 7.68 10.43 14.78
12/24/2022 4:15:00 PM -0.09 31.838 0.35 7.66 10.32 14.73
12/24/2022 4:30:00 PM -0.09 31.838 0.349 7.65 9.55 14.68
12/24/2022 4:45:00 PM -0.09 31.838 0.346 7.63 9.34 14.62
12/24/2022 5:00:00 PM -0.09 31.838 0.344 7.62 9.18 14.57
12/24/2022 5:15:00 PM -0.09 31.838 0.343 7.6 9.51 14.53
12/24/2022 5:30:00 PM -0.09 31.838 0.342 7.6 9.45 14.48
12/24/2022 5:45:00 PM -0.09 31.838 0.342 7.59 9.59 14.43
12/24/2022 6:00:00 PM -0.09 31.838 0.342 7.57 9.87 14.39
12/24/2022 6:15:00 PM -0.09 31.838 0.344 7.56 9.87 14.35
12/24/2022 6:30:00 PM -0.09 31.838 0.346 7.55 9.96 14.3
12/24/2022 6:45:00 PM -0.09 31.838 0.348 7.54 9.87 14.25
12/24/2022 7:00:00 PM -0.09 31.838 0.351 7.52 9.82 14.2
12/24/2022 7:15:00 PM -0.09 31.838 0.352 7.52 9.86 14.17
12/24/2022 7:30:00 PM -0.09 31.838 0.351 7.51 9.59 14.14
12/24/2022 7:45:00 PM -0.09 31.838 0.349 7.5 8.78 14.13
12/24/2022 8:00:00 PM -0.09 31.838 0.347 7.49 8.73 14.12
12/24/2022 8:15:00 PM -0.09 31.838 0.344 7.49 8.8 14.1
12/24/2022 8:30:00 PM -0.09 31.838 0.341 7.49 8.53 14.08
12/24/2022 8:45:00 PM -0.09 31.838 0.34 7.49 8.39 14.05
12/24/2022 9:00:00 PM -0.09 31.838 0.341 7.48 8.39 14.05
12/24/2022 9:15:00 PM -0.09 31.838 0.341 7.48 8.43 14.02
12/24/2022 9:30:00 PM -0.09 31.838 0.34 7.48 8.36 14.02
12/24/2022 9:45:00 PM -0.09 31.838 0.338 7.47 8.45 14.02
12/24/2022 10:00:00 PM -0.09 31.838 0.335 7.47 8.7 14.04
12/24/2022 10:15:00 PM -0.09 31.838 0.333 7.47 8.42 14.04
12/24/2022 10:30:00 PM -0.09 31.838 0.331 7.46 8.35 14.05
12/24/2022 10:45:00 PM -0.09 31.838 0.329 7.46 8.72 14.06
12/24/2022 11:00:00 PM -0.09 31.838 0.327 7.46 8.22 14.06
12/24/2022 11:15:00 PM -0.09 31.838 0.326 7.46 8.38 14.06
12/24/2022 11:30:00 PM -0.09 31.838 0.324 7.46 8.36 14.06
12/24/2022 11:45:00 PM -0.09 31.838 0.323 7.45 8.49 14.05
12/25/2022 12:00:00 AM -0.09 31.838 0.321 7.45 8.33 14.06
12/25/2022 12:15:00 AM -0.09 31.838 0.32 7.45 8.54 14.05
12/25/2022 12:30:00 AM -0.09 31.838 0.32 7.45 8.88 14.05
12/25/2022 12:45:00 AM -0.09 31.838 0.32 7.45 9.18 14.04
12/25/2022 1:00:00 AM -0.09 31.838 0.32 7.45 8.75 14.03
12/25/2022 1:15:00 AM -0.09 31.838 0.319 7.45 9.08 14.02
12/25/2022 1:30:00 AM -0.09 31.838 0.318 7.45 9.23 14.02
12/25/2022 1:45:00 AM -0.09 31.838 0.314 7.45 8.58 14.02
12/25/2022 2:00:00 AM -0.09 31.838 0.311 7.45 8.24 14.02
12/25/2022 2:15:00 AM -0.09 31.838 0.307 7.45 8.36 14.03
12/25/2022 2:30:00 AM -0.09 31.838 0.303 7.45 8.16 14.04
12/25/2022 2:45:00 AM -0.09 31.838 0.299 7.45 8.49 14.05
12/25/2022 3:00:00 AM -0.09 31.838 0.297 7.45 8.37 14.05
12/25/2022 3:15:00 AM -0.09 31.838 0.296 7.44 8.52 14.04
12/25/2022 3:30:00 AM -0.09 31.838 0.296 7.45 8.44 14.02
12/25/2022 3:45:00 AM -0.09 31.838 0.296 7.45 8.45 14.02
12/25/2022 4:00:00 AM -0.09 31.838 0.296 7.44 8.47 14.02
12/25/2022 4:15:00 AM -0.09 31.838 0.295 7.45 8.39 14.02
12/25/2022 4:30:00 AM -0.09 31.838 0.294 7.45 8.18 14.03
12/25/2022 4:45:00 AM -0.09 31.838 0.292 7.45 8.24 14.03
12/25/2022 5:00:00 AM -0.09 31.838 0.29 7.45 8.32 14.04
12/25/2022 5:15:00 AM -0.09 31.838 0.288 7.44 8.14 14.04
12/25/2022 5:30:00 AM -0.09 31.838 0.287 7.45 8.21 14.04
12/25/2022 5:45:00 AM -0.09 31.838 0.287 7.45 8.13 14.04
12/25/2022 6:00:00 AM -0.09 31.838 0.288 7.44 8.09 14.03
12/25/2022 6:15:00 AM -0.09 31.838 0.289 7.45 8.03 14.02
12/25/2022 6:30:00 AM -0.09 31.838 0.29 7.45 8.1 14.01
12/25/2022 6:45:00 AM -0.09 31.838 0.291 7.45 7.79 14
12/25/2022 7:00:00 AM -0.09 31.838 0.29 7.45 8.01 13.99
12/25/2022 7:15:00 AM -0.09 31.838 0.29 7.45 7.83 14.01
12/25/2022 7:30:00 AM -0.09 31.838 0.289 7.45 7.94 14
12/25/2022 7:45:00 AM -0.09 31.838 0.288 7.45 7.51 14.01
12/25/2022 8:00:00 AM -0.09 31.838 0.286 7.46 7.75 14.02
12/25/2022 8:15:00 AM -0.09 31.838 0.285 7.45 7.5 14.05
12/25/2022 8:30:00 AM -0.09 31.838 0.284 7.47 7.91 14.13
12/25/2022 8:45:00 AM -0.09 31.838 0.284 7.47 7.57 14.18
12/25/2022 9:00:00 AM -0.09 31.838 0.286 7.48 7.74 14.22
12/25/2022 9:15:00 AM -0.09 31.838 0.286 7.5 7.78 14.27
12/25/2022 9:30:00 AM -0.09 31.838 0.286 7.52 7.7 14.33
12/25/2022 9:45:00 AM -0.09 31.838 0.285 7.53 7.72 14.4
12/25/2022 10:00:00 AM -0.09 31.838 0.283 7.54 8.03 14.48
12/25/2022 10:15:00 AM -0.09 31.838 0.281 7.57 8.31 14.55
12/25/2022 10:30:00 AM -0.09 31.838 0.28 7.59 8.05 14.62
12/25/2022 10:45:00 AM -0.09 31.838 0.277 7.61 9.05 14.69
12/25/2022 11:00:00 AM -0.09 31.838 0.276 7.63 8.63 14.77
12/25/2022 11:15:00 AM -0.09 31.838 0.276 7.65 8.72 14.83
12/25/2022 11:30:00 AM -0.09 31.838 0.276 7.67 9 14.87
12/25/2022 11:45:00 AM -0.09 31.838 0.277 7.69 8.74 14.92
12/25/2022 12:00:00 PM -0.09 31.838 0.277 7.71 8.67 14.96
12/25/2022 12:15:00 PM -0.09 31.838 0.276 7.73 8.38 15
12/25/2022 12:30:00 PM -0.09 31.838 0.275 7.75 9 15.04
12/25/2022 12:45:00 PM -0.09 31.838 0.273 7.77 8.21 15.1
12/25/2022 1:00:00 PM -0.09 31.838 0.27 7.79 8.89 15.13
12/25/2022 1:15:00 PM -0.09 31.838 0.268 7.8 8.82 15.16
12/25/2022 1:30:00 PM -0.09 31.838 0.266 7.82 8.89 15.19
12/25/2022 1:45:00 PM -0.09 31.838 0.264 7.83 8.5 15.2
12/25/2022 2:00:00 PM -0.09 31.838 0.264 7.85 8.89 15.21
12/25/2022 2:15:00 PM -0.09 31.838 0.265 7.86 8.53 15.22
12/25/2022 2:30:00 PM -0.09 31.838 0.265 7.87 9.42 15.21
12/25/2022 2:45:00 PM -0.09 31.838 0.266 7.87 9.56 15.18
12/25/2022 3:00:00 PM -0.09 31.838 0.265 7.87 8.83 15.15
12/25/2022 3:15:00 PM -0.09 31.838 0.263 7.87 9.79 15.12
12/25/2022 3:30:00 PM -0.09 31.838 0.261 7.86 9.77 15.11
12/25/2022 3:45:00 PM -0.09 31.838 0.259 7.85 9.69 15.07
12/25/2022 4:00:00 PM -0.09 31.838 0.259 7.84 9.42 15.01
12/25/2022 4:15:00 PM -0.09 31.838 0.26 7.82 9.14 14.94
12/25/2022 4:30:00 PM -0.09 31.838 0.261 7.79 8.63 14.85
12/25/2022 4:45:00 PM -0.09 31.838 0.263 7.76 8.4 14.76
12/25/2022 5:00:00 PM -0.09 31.838 0.264 7.73 8.65 14.66
12/25/2022 5:15:00 PM -0.09 31.838 0.265 7.7 8.83 14.57
12/25/2022 5:30:00 PM -0.08 31.856 0.265 7.67 11.4 14.49
12/25/2022 5:45:00 PM -0.08 31.856 0.264 7.65 12.09 14.43
12/25/2022 6:00:00 PM -0.08 31.856 0.263 7.63 10.59 14.39
12/25/2022 6:15:00 PM -0.07 31.874 0.263 7.62 9.78 14.34
12/25/2022 6:30:00 PM -0.07 31.874 0.261 7.6 8 14.3
12/25/2022 6:45:00 PM -0.06 31.892 0.261 7.57 7.62 14.27
12/25/2022 7:00:00 PM -0.05 31.91 0.262 7.58 8.23 14.22
12/25/2022 7:15:00 PM -0.04 31.928 0.265 7.57 8.69 14.17
12/25/2022 7:30:00 PM -0.04 31.928 0.269 7.56 8.23 14.13
12/25/2022 7:45:00 PM -0.03 31.946 0.272 7.55 12.08 14.11
12/25/2022 8:00:00 PM -0.05 31.91 0.275 7.55 7.77 14.1
12/25/2022 8:15:00 PM -0.02 31.964 0.277 7.54 7.67 14.08
12/25/2022 8:30:00 PM -0.01 31.982 0.277 7.53 7.23 14.06
12/25/2022 8:45:00 PM 0 32 0.277 7.53 7.37 14.06
12/25/2022 9:00:00 PM 0 32 0.275 7.52 7.2 14.06
12/25/2022 9:15:00 PM -0.01 31.982 0.275 7.52 7.19 14.06
12/25/2022 9:30:00 PM -0.01 31.982 0.274 7.51 7.15 14.06
12/25/2022 9:45:00 PM -0.01 31.982 0.275 7.5 6.97 14.06
12/25/2022 10:00:00 PM 0 32 0.276 7.49 7.11 14.05
12/25/2022 10:15:00 PM 0 32 0.279 7.49 6.98 14.04
12/25/2022 10:30:00 PM 0 32 0.281 7.49 7.05 14.04
12/25/2022 10:45:00 PM 0 32 0.282 7.49 7.1 14.02
12/25/2022 11:00:00 PM 0 32 0.282 7.49 7.08 14.03
12/25/2022 11:15:00 PM -0.01 31.982 0.282 7.49 6.99 14.04
12/25/2022 11:30:00 PM -0.03 31.946 0.281 7.48 6.87 14.05
12/25/2022 11:45:00 PM -0.04 31.928 0.28 7.48 6.97 14.06
12/26/2022 12:00:00 AM -0.06 31.892 0.278 7.48 7.13 14.07
12/26/2022 12:15:00 AM -0.08 31.856 0.277 7.48 6.89 14.08
12/26/2022 12:30:00 AM -0.09 31.838 0.276 7.47 6.82 14.09
12/26/2022 12:45:00 AM -0.09 31.838 0.277 7.47 6.9 14.09
12/26/2022 1:00:00 AM -0.09 31.838 0.278 7.47 6.96 14.08
12/26/2022 1:15:00 AM -0.09 31.838 0.28 7.48 6.88 14.08
12/26/2022 1:30:00 AM -0.09 31.838 0.281 7.48 6.97 14.07
12/26/2022 1:45:00 AM -0.09 31.838 0.282 7.48 7 14.07
12/26/2022 2:00:00 AM -0.1 31.82 0.281 7.48 6.86 14.08
12/26/2022 2:15:00 AM -0.1 31.82 0.28 7.48 6.57 14.08
12/26/2022 2:30:00 AM -0.1 31.82 0.279 7.49 6.72 14.1
12/26/2022 2:45:00 AM -0.09 31.838 0.276 7.5 6.76 14.11
12/26/2022 3:00:00 AM -0.09 31.838 0.275 7.5 6.62 14.1
12/26/2022 3:15:00 AM -0.09 31.838 0.273 7.49 6.93 14.12
12/26/2022 3:30:00 AM -0.09 31.838 0.273 7.5 7.31 14.12
12/26/2022 3:45:00 AM -0.09 31.838 0.274 7.5 7.13 14.12
12/26/2022 4:00:00 AM -0.09 31.838 0.276 7.5 6.61 14.12
12/26/2022 4:15:00 AM -0.09 31.838 0.278 7.5 6.55 14.12
12/26/2022 4:30:00 AM -0.09 31.838 0.28 7.5 6.23 14.12
12/26/2022 4:45:00 AM -0.09 31.838 0.28 7.5 6.06 14.12
12/26/2022 5:00:00 AM -0.09 31.838 0.279 7.51 6.09 14.13
12/26/2022 5:15:00 AM -0.09 31.838 0.278 7.51 6.43 14.14
12/26/2022 5:30:00 AM -0.09 31.838 0.276 7.51 6.29 14.15
12/26/2022 5:45:00 AM -0.09 31.838 0.274 7.51 6.32 14.16
12/26/2022 6:00:00 AM -0.09 31.838 0.272 7.5 6.25 14.17
12/26/2022 6:15:00 AM -0.09 31.838 0.271 7.5 6.39 14.15
12/26/2022 6:30:00 AM -0.09 31.838 0.271 7.5 6.15 14.17
12/26/2022 6:45:00 AM -0.09 31.838 0.272 7.51 6.14 14.17
12/26/2022 7:00:00 AM -0.09 31.838 0.273 7.51 6.12 14.18
12/26/2022 7:15:00 AM -0.09 31.838 0.274 7.51 6.3 14.18
12/26/2022 7:30:00 AM -0.09 31.838 0.275 7.51 6.12 14.18
12/26/2022 7:45:00 AM -0.09 31.838 0.275 7.51 6.66 14.18
12/26/2022 8:00:00 AM -0.09 31.838 0.274 7.52 6.56 14.21
12/26/2022 8:15:00 AM -0.09 31.838 0.272 7.52 6.35 14.24
12/26/2022 8:30:00 AM -0.09 31.838 0.271 7.53 6.39 14.3
12/26/2022 8:45:00 AM -0.09 31.838 0.27 7.54 6.39 14.37
12/26/2022 9:00:00 AM -0.09 31.838 0.269 7.56 6.56 14.45
12/26/2022 9:15:00 AM -0.09 31.838 0.269 7.57 6.42 14.52
12/26/2022 9:30:00 AM -0.09 31.838 0.27 7.59 6.46 14.61
12/26/2022 9:45:00 AM -0.09 31.838 0.271 7.61 6.23 14.68
12/26/2022 10:00:00 AM -0.09 31.838 0.272 7.63 5.86 14.73
12/26/2022 10:15:00 AM -0.09 31.838 0.273 7.65 5.93 14.79
12/26/2022 10:30:00 AM -0.09 31.838 0.274 7.68 5.88 14.89
12/26/2022 10:45:00 AM -0.09 31.838 0.273 7.7 5.93 14.95
12/26/2022 11:00:00 AM -0.09 31.838 0.271 7.73 6.08 15.03
12/26/2022 11:15:00 AM -0.08 31.856 0.268 7.75 6.11 15.12
12/26/2022 11:30:00 AM -0.08 31.856 0.267 7.79 5.91 15.18
12/26/2022 11:45:00 AM -0.09 31.838 0.265 7.82 6.02 15.23
12/26/2022 12:00:00 PM -0.09 31.838 0.264 7.84 6.13 15.3
12/26/2022 12:15:00 PM -0.09 31.838 0.264 7.86 6.27 15.33
12/26/2022 12:30:00 PM -0.08 31.856 0.265 7.89 6.18 15.39
12/26/2022 12:45:00 PM -0.08 31.856 0.266 7.91 5.89 15.42
12/26/2022 1:00:00 PM -0.03 31.946 0.266 7.94 6.15 15.43
12/26/2022 1:15:00 PM 0 32 0.264 7.96 6.11 15.48
12/26/2022 1:30:00 PM 0.02 32.036 0.262 7.99 6.19 15.5
12/26/2022 1:45:00 PM 0.05 32.09 0.26 8.01 5.92 15.51
12/26/2022 2:00:00 PM 0.09 32.162 0.259 8.03 6 15.5
12/26/2022 2:15:00 PM 0.13 32.234 0.257 8.02 6.14 15.48
12/26/2022 2:30:00 PM 0.17 32.306 0.257 8.03 6.11 15.44
12/26/2022 2:45:00 PM 0.19 32.342 0.257 8.02 5.83 15.4
12/26/2022 3:00:00 PM 0.22 32.396 0.259 8.01 6 15.35
12/26/2022 3:15:00 PM 0.24 32.432 0.26 8 5.95 15.3
12/26/2022 3:30:00 PM 0.25 32.45 0.26 7.98 6.07 15.25
12/26/2022 3:45:00 PM 0.27 32.486 0.261 7.98 5.96 15.21
12/26/2022 4:00:00 PM 0.28 32.504 0.26 7.95 6.1 15.13
12/26/2022 4:15:00 PM 0.28 32.504 0.258 7.91 6.17 15.04
12/26/2022 4:30:00 PM 0.28 32.504 0.257 7.87 6.04 14.97
12/26/2022 4:45:00 PM 0.28 32.504 0.256 7.84 6.18 14.86
12/26/2022 5:00:00 PM 0.28 32.504 0.256 7.8 6.13 14.76
12/26/2022 5:15:00 PM 0.28 32.504 0.255 7.76 5.94 14.66
12/26/2022 5:30:00 PM 0.29 32.522 0.257 7.73 5.97 14.58
12/26/2022 5:45:00 PM 0.3 32.54 0.259 7.74 5.85 14.5
12/26/2022 6:00:00 PM 0.31 32.558 0.261 7.69 6.02 14.43
12/26/2022 6:15:00 PM 0.31 32.558 0.261 7.68 6.03 14.38
12/26/2022 6:30:00 PM 0.31 32.558 0.261 7.67 5.94 14.33
12/26/2022 6:45:00 PM 0.31 32.558 0.26 7.65 6.21 14.29
12/26/2022 7:00:00 PM 0.29 32.522 0.259 7.63 5.84 14.25
12/26/2022 7:15:00 PM 0.29 32.522 0.258 7.61 6.03 14.23
12/26/2022 7:30:00 PM 0.29 32.522 0.257 7.61 6.02 14.19
12/26/2022 7:45:00 PM 0.29 32.522 0.258 7.59 6.03 14.16
12/26/2022 8:00:00 PM 0.29 32.522 0.26 7.59 5.98 14.14
12/26/2022 8:15:00 PM 0.29 32.522 0.261 7.58 6.15 14.11
12/26/2022 8:30:00 PM 0.29 32.522 0.264 7.57 6.1 14.09
12/26/2022 8:45:00 PM 0.29 32.522 0.266 7.57 6.12 14.07
12/26/2022 9:00:00 PM 0.28 32.504 0.266 7.57 5.97 14.06
12/26/2022 9:15:00 PM 0.29 32.522 0.266 7.57 6.07 14.05
12/26/2022 9:30:00 PM 0.29 32.522 0.265 7.56 6.03 14.04
12/26/2022 9:45:00 PM 0.29 32.522 0.264 7.55 6.25 14.05
12/26/2022 10:00:00 PM 0.28 32.504 0.263 7.55 6.18 14.05
12/26/2022 10:15:00 PM 0.29 32.522 0.263 7.54 6.01 14.05
12/26/2022 10:30:00 PM 0.29 32.522 0.263 7.54 6.19 14.04
12/26/2022 10:45:00 PM 0.29 32.522 0.264 7.54 6.13 14.03
12/26/2022 11:00:00 PM 0.29 32.522 0.266 7.53 6.11 14.02
12/26/2022 11:15:00 PM 0.3 32.54 0.269 7.54 6.15 14.01
12/26/2022 11:30:00 PM 0.31 32.558 0.27 7.53 5.97 14
12/26/2022 11:45:00 PM 0.32 32.576 0.271 7.53 5.95 13.99
12/27/2022 12:00:00 AM 0.31 32.558 0.271 7.54 5.99 13.99
12/27/2022 12:15:00 AM 0.32 32.576 0.269 7.53 6.1 13.99
12/27/2022 12:30:00 AM 0.31 32.558 0.267 7.53 6.01 14
12/27/2022 12:45:00 AM 0.3 32.54 0.265 7.52 6 14
12/27/2022 1:00:00 AM 0.31 32.558 0.264 7.53 6.09 14
12/27/2022 1:15:00 AM 0.3 32.54 0.263 7.52 5.93 14
12/27/2022 1:30:00 AM 0.3 32.54 0.264 7.52 5.98 14
12/27/2022 1:45:00 AM 0.31 32.558 0.265 7.52 5.99 13.99
12/27/2022 2:00:00 AM 0.32 32.576 0.267 7.52 6.01 13.98
12/27/2022 2:15:00 AM 0.32 32.576 0.268 7.53 5.95 13.98
12/27/2022 2:30:00 AM 0.32 32.576 0.268 7.53 6.02 13.97
12/27/2022 2:45:00 AM 0.33 32.594 0.268 7.52 6.04 13.97
12/27/2022 3:00:00 AM 0.33 32.594 0.266 7.52 6.12 13.98
12/27/2022 3:15:00 AM 0.32 32.576 0.264 7.52 6.1 13.98
12/27/2022 3:30:00 AM 0.32 32.576 0.262 7.52 6.18 13.99
12/27/2022 3:45:00 AM 0.31 32.558 0.261 7.52 6.08 13.99
12/27/2022 4:00:00 AM 0.31 32.558 0.26 7.52 5.91 13.99
12/27/2022 4:15:00 AM 0.31 32.558 0.261 7.51 6.03 13.99
12/27/2022 4:30:00 AM 0.32 32.576 0.262 7.52 6.18 13.98
12/27/2022 4:45:00 AM 0.32 32.576 0.264 7.51 5.89 13.97
12/27/2022 5:00:00 AM 0.34 32.612 0.266 7.52 6.02 13.97
12/27/2022 5:15:00 AM 0.34 32.612 0.267 7.52 5.91 13.96
12/27/2022 5:30:00 AM 0.35 32.63 0.266 7.52 6.11 13.96
12/27/2022 5:45:00 AM 0.35 32.63 0.265 7.52 6.19 13.97
12/27/2022 6:00:00 AM 0.35 32.63 0.263 7.52 6.05 13.97
12/27/2022 6:15:00 AM 0.35 32.63 0.261 7.52 6.22 13.97
12/27/2022 6:30:00 AM 0.35 32.63 0.261 7.53 6.14 13.97
12/27/2022 6:45:00 AM 0.35 32.63 0.26 7.52 6.18 13.97
12/27/2022 7:00:00 AM 0.36 32.648 0.26 7.51 6.11 13.97
12/27/2022 7:15:00 AM 0.37 32.666 0.261 7.51 6.15 13.97
12/27/2022 7:30:00 AM 0.38 32.684 0.263 7.51 6.23 13.96
12/27/2022 7:45:00 AM 0.39 32.702 0.264 7.52 6.01 13.95
12/27/2022 8:00:00 AM 0.41 32.738 0.264 7.52 6.18 13.96
12/27/2022 8:15:00 AM 0.42 32.756 0.263 7.53 6.13 13.98
12/27/2022 8:30:00 AM 0.43 32.774 0.262 7.54 5.97 14.01
12/27/2022 8:45:00 AM 0.44 32.792 0.26 7.55 6.19 14.06
12/27/2022 9:00:00 AM 0.45 32.81 0.259 7.56 6.26 14.14
12/27/2022 9:15:00 AM 0.47 32.846 0.258 7.58 6.06 14.21
12/27/2022 9:30:00 AM 0.48 32.864 0.258 7.6 6.13 14.28
12/27/2022 9:45:00 AM 0.5 32.9 0.258 7.62 6.12 14.36
12/27/2022 10:00:00 AM 0.53 32.954 0.258 7.64 5.95 14.44
12/27/2022 10:15:00 AM 0.56 33.008 0.26 7.67 6.02 14.54
12/27/2022 10:30:00 AM 0.59 33.062 0.261 7.7 5.86 14.61
12/27/2022 10:45:00 AM 0.62 33.116 0.26 7.73 5.82 14.68
12/27/2022 11:00:00 AM 0.65 33.17 0.26 7.75 5.87 14.73
12/27/2022 11:15:00 AM 0.66 33.188 0.258 7.77 5.77 14.77
12/27/2022 11:30:00 AM 0.68 33.224 0.256 7.78 5.87 14.79
12/27/2022 11:45:00 AM 0.7 33.26 0.255 7.8 5.82 14.83
12/27/2022 12:00:00 PM 0.72 33.296 0.254 7.82 5.9 14.88
12/27/2022 12:15:00 PM 0.73 33.314 0.254 7.84 5.89 14.94
12/27/2022 12:30:00 PM 0.75 33.35 0.254 7.87 5.83 14.97
12/27/2022 12:45:00 PM 0.79 33.422 0.255 7.89 5.72 14.99
12/27/2022 1:00:00 PM 0.79 33.422 0.256 7.9 5.73 14.99
12/27/2022 1:15:00 PM 0.81 33.458 0.257 7.91 5.79 15
12/27/2022 1:30:00 PM 0.83 33.494 0.256 7.92 5.75 14.98
12/27/2022 1:45:00 PM 0.85 33.53 0.255 7.92 5.86 14.98
12/27/2022 2:00:00 PM 0.86 33.548 0.254 7.92 5.78 14.97
12/27/2022 2:15:00 PM 0.88 33.584 0.252 7.93 5.92 14.95
12/27/2022 2:30:00 PM 0.88 33.584 0.251 7.92 5.86 14.94
12/27/2022 2:45:00 PM 0.89 33.602 0.251 7.91 5.98 14.9
12/27/2022 3:00:00 PM 0.9 33.62 0.25 7.91 5.99 14.87
12/27/2022 3:15:00 PM 0.9 33.62 0.251 7.89 6.07 14.83
12/27/2022 3:30:00 PM 0.91 33.638 0.252 7.89 5.98 14.81
12/27/2022 3:45:00 PM 0.92 33.656 0.254 7.88 6.12 14.76
12/27/2022 4:00:00 PM 0.92 33.656 0.254 7.85 6 14.68
12/27/2022 4:15:00 PM 0.93 33.674 0.254 7.83 6.2 14.61
12/27/2022 4:30:00 PM 0.95 33.71 0.254 7.8 6.18 14.54
12/27/2022 4:45:00 PM 0.96 33.728 0.252 7.77 6.25 14.47
12/27/2022 5:00:00 PM 0.96 33.728 0.251 7.74 6.2 14.38
12/27/2022 5:15:00 PM 0.96 33.728 0.249 7.72 6.31 14.31
12/27/2022 5:30:00 PM 0.95 33.71 0.248 7.7 6.18 14.25
12/27/2022 5:45:00 PM 0.96 33.728 0.249 7.68 6.36 14.19
12/27/2022 6:00:00 PM 0.97 33.746 0.251 7.67 6.34 14.14
12/27/2022 6:15:00 PM 0.98 33.764 0.252 7.65 6.4 14.09
12/27/2022 6:30:00 PM 0.98 33.764 0.254 7.65 6.24 14.05
12/27/2022 6:45:00 PM 0.99 33.782 0.256 7.64 6.21 14.01
12/27/2022 7:00:00 PM 0.99 33.782 0.256 7.63 6.27 13.98
12/27/2022 7:15:00 PM 1 33.8 0.254 7.61 6.48 13.95
12/27/2022 7:30:00 PM 1.01 33.818 0.253 7.6 6.29 13.93
12/27/2022 7:45:00 PM 1.01 33.818 0.252 7.6 6.36 13.9
12/27/2022 8:00:00 PM 1.01 33.818 0.252 7.58 6.38 13.88
12/27/2022 8:15:00 PM 1.02 33.836 0.252 7.58 6.37 13.86
12/27/2022 8:30:00 PM 1.02 33.836 0.252 7.57 6.59 13.84
12/27/2022 8:45:00 PM 1.03 33.854 0.253 7.57 6.48 13.82
12/27/2022 9:00:00 PM 1.04 33.872 0.255 7.57 6.67 13.8
12/27/2022 9:15:00 PM 1.04 33.872 0.258 7.56 6.41 13.78
12/27/2022 9:30:00 PM 1.05 33.89 0.259 7.56 6.56 13.77
12/27/2022 9:45:00 PM 1.06 33.908 0.259 7.56 6.62 13.76
12/27/2022 10:00:00 PM 1.07 33.926 0.258 7.56 6.68 13.75
12/27/2022 10:15:00 PM 1.08 33.944 0.257 7.55 6.64 13.75
12/27/2022 10:30:00 PM 1.08 33.944 0.256 7.55 6.65 13.75
12/27/2022 10:45:00 PM 1.08 33.944 0.255 7.55 6.82 13.74
12/27/2022 11:00:00 PM 1.09 33.962 0.254 7.54 6.46 13.73
12/27/2022 11:15:00 PM 1.09 33.962 0.255 7.54 6.64 13.73
12/27/2022 11:30:00 PM 1.1 33.98 0.256 7.54 6.63 13.72
12/27/2022 11:45:00 PM 1.11 33.998 0.258 7.54 6.44 13.71
12/28/2022 12:00:00 AM 1.11 33.998 0.26 7.54 6.56 13.7
12/28/2022 12:15:00 AM 1.12 34.016 0.261 7.54 6.54 13.69
12/28/2022 12:30:00 AM 1.13 34.034 0.261 7.54 6.51 13.68
12/28/2022 12:45:00 AM 1.14 34.052 0.26 7.53 6.71 13.68
12/28/2022 1:00:00 AM 1.14 34.052 0.259 7.53 6.69 13.68
12/28/2022 1:15:00 AM 1.14 34.052 0.257 7.53 6.75 13.67
12/28/2022 1:30:00 AM 1.13 34.034 0.257 7.53 6.63 13.68
12/28/2022 1:45:00 AM 1.11 33.998 0.256 7.53 6.7 13.68
12/28/2022 2:00:00 AM 1.08 33.944 0.257 7.52 6.57 13.67
12/28/2022 2:15:00 AM 1.06 33.908 0.258 7.52 7.11 13.68
12/28/2022 2:30:00 AM 1.04 33.872 0.26 7.52 6.67 13.68
12/28/2022 2:45:00 AM 1.01 33.818 0.262 7.52 6.76 13.68
12/28/2022 3:00:00 AM 0.99 33.782 0.263 7.52 6.64 13.68
12/28/2022 3:15:00 AM 0.97 33.746 0.262 7.52 6.59 13.68
12/28/2022 3:30:00 AM 0.95 33.71 0.261 7.52 6.78 13.7
12/28/2022 3:45:00 AM 0.91 33.638 0.26 7.51 7.14 13.7
12/28/2022 4:00:00 AM 0.88 33.584 0.258 7.51 6.79 13.72
12/28/2022 4:15:00 AM 0.84 33.512 0.258 7.51 7.15 13.72
12/28/2022 4:30:00 AM 0.81 33.458 0.258 7.51 6.73 13.73
12/28/2022 4:45:00 AM 0.77 33.386 0.259 7.5 7.18 13.74
12/28/2022 5:00:00 AM 0.75 33.35 0.261 7.51 6.89 13.76
12/28/2022 5:15:00 AM 0.72 33.296 0.263 7.5 7.06 13.76
12/28/2022 5:30:00 AM 0.7 33.26 0.265 7.51 6.85 13.77
12/28/2022 5:45:00 AM 0.69 33.242 0.266 7.51 6.81 13.77
12/28/2022 6:00:00 AM 0.67 33.206 0.265 7.51 6.64 13.78
12/28/2022 6:15:00 AM 0.65 33.17 0.264 7.51 7 13.81
12/28/2022 6:30:00 AM 0.62 33.116 0.263 7.51 7.08 13.81
12/28/2022 6:45:00 AM 0.58 33.044 0.262 7.5 6.76 13.82
12/28/2022 7:00:00 AM 0.55 32.99 0.262 7.5 7.04 13.84
12/28/2022 7:15:00 AM 0.52 32.936 0.261 7.5 6.74 13.84
12/28/2022 7:30:00 AM 0.5 32.9 0.262 7.5 6.9 13.86
12/28/2022 7:45:00 AM 0.49 32.882 0.264 7.51 6.95 13.88
12/28/2022 8:00:00 AM 0.48 32.864 0.266 7.52 6.77 13.94
12/28/2022 8:15:00 AM 0.48 32.864 0.267 7.54 6.91 14.02
12/28/2022 8:30:00 AM 0.47 32.846 0.268 7.56 7.18 14.11
12/28/2022 8:45:00 AM 0.47 32.846 0.267 7.58 7.15 14.21
12/28/2022 9:00:00 AM 0.49 32.882 0.267 7.61 7.04 14.36
12/28/2022 9:15:00 AM 0.52 32.936 0.265 7.64 7.15 14.49
12/28/2022 9:30:00 AM 0.57 33.026 0.265 7.68 6.89 14.64
12/28/2022 9:45:00 AM 0.58 33.044 0.264 7.71 6.54 14.74
12/28/2022 10:00:00 AM 0.64 33.152 0.265 7.74 6.85 14.83
12/28/2022 10:15:00 AM 0.7 33.26 0.267 7.78 6.92 14.91
12/28/2022 10:30:00 AM 0.77 33.386 0.268 7.81 6.59 14.97
12/28/2022 10:45:00 AM 0.85 33.53 0.271 7.85 6.58 15.04
12/28/2022 11:00:00 AM 0.96 33.728 0.272 7.89 6.65 15.12
12/28/2022 11:15:00 AM 1.06 33.908 0.272 7.94 6.58 15.2
12/28/2022 11:30:00 AM 1.15 34.07 0.272 7.99 6.74 15.28
12/28/2022 11:45:00 AM 1.23 34.214 0.271 8.04 6.38 15.32
12/28/2022 12:00:00 PM 1.3 34.34 0.27 8.08 6.69 15.37
12/28/2022 12:15:00 PM 1.39 34.502 0.269 8.13 6.5 15.4
12/28/2022 12:30:00 PM 1.45 34.61 0.268 8.16 6.6 15.41
12/28/2022 12:45:00 PM 1.51 34.718 0.268 8.19 6.49 15.42
12/28/2022 1:00:00 PM 1.59 34.862 0.268 8.22 6.17 15.41
12/28/2022 1:15:00 PM 1.66 34.988 0.269 8.25 6.53 15.39
12/28/2022 1:30:00 PM 1.72 35.096 0.27 8.26 6.44 15.36
12/28/2022 1:45:00 PM 1.8 35.24 0.27 8.29 6.66 15.33
12/28/2022 2:00:00 PM 1.84 35.312 0.269 8.3 6.47 15.31
12/28/2022 2:15:00 PM 1.9 35.42 0.268 8.31 6.69 15.3
12/28/2022 2:30:00 PM 1.94 35.492 0.267 8.32 6.46 15.27
12/28/2022 2:45:00 PM 1.98 35.564 0.266 8.32 6.49 15.23
12/28/2022 3:00:00 PM 2 35.6 0.266 8.32 6.73 15.19
12/28/2022 3:15:00 PM 2.01 35.618 0.265 8.32 6.65 15.15
12/28/2022 3:30:00 PM 2.02 35.636 0.265 8.31 6.45 15.1
12/28/2022 3:45:00 PM 2.02 35.636 0.266 8.3 6.75 15.05
12/28/2022 4:00:00 PM 2 35.6 0.267 8.27 7.32 14.96
12/28/2022 4:15:00 PM 1.98 35.564 0.268 8.23 6.49 14.86
12/28/2022 4:30:00 PM 1.96 35.528 0.268 8.17 6.68 14.74
12/28/2022 4:45:00 PM 1.93 35.474 0.268 8.1 6.72 14.6
12/28/2022 5:00:00 PM 1.89 35.402 0.266 8.03 6.42 14.46
12/28/2022 5:15:00 PM 1.85 35.33 0.265 7.96 6.87 14.34
12/28/2022 5:30:00 PM 1.78 35.204 0.263 7.91 6.65 14.23
12/28/2022 5:45:00 PM 1.72 35.096 0.262 7.86 7.07 14.16
12/28/2022 6:00:00 PM 1.67 35.006 0.261 7.82 6.95 14.09
12/28/2022 6:15:00 PM 1.62 34.916 0.262 7.79 7.05 14.04
12/28/2022 6:30:00 PM 1.56 34.808 0.263 7.76 7.4 13.99
12/28/2022 6:45:00 PM 1.53 34.754 0.265 7.73 7.58 13.94
12/28/2022 7:00:00 PM 1.52 34.736 0.267 7.71 7.53 13.89
12/28/2022 7:15:00 PM 1.5 34.7 0.268 7.69 7.59 13.84
12/28/2022 7:30:00 PM 1.49 34.682 0.269 7.66 7.73 13.8
12/28/2022 7:45:00 PM 1.49 34.682 0.269 7.65 7.62 13.76
12/28/2022 8:00:00 PM 1.48 34.664 0.27 7.65 7.52 13.72
12/28/2022 8:15:00 PM 1.48 34.664 0.271 7.62 7.74 13.69
12/28/2022 8:30:00 PM 1.49 34.682 0.273 7.61 7.32 13.66
12/28/2022 8:45:00 PM 1.49 34.682 0.275 7.61 7.57 13.63
12/28/2022 9:00:00 PM 1.5 34.7 0.278 7.6 7.62 13.6
12/28/2022 9:15:00 PM 1.51 34.718 0.281 7.6 7.49 13.57
12/28/2022 9:30:00 PM 1.52 34.736 0.281 7.6 7.69 13.55
12/28/2022 9:45:00 PM 1.54 34.772 0.28 7.59 7.34 13.54
12/28/2022 10:00:00 PM 1.54 34.772 0.278 7.58 7.87 13.53
12/28/2022 10:15:00 PM 1.53 34.754 0.276 7.58 7.84 13.53
12/28/2022 10:30:00 PM 1.51 34.718 0.273 7.57 7.91 13.53
12/28/2022 10:45:00 PM 1.49 34.682 0.271 7.57 7.59 13.52
12/28/2022 11:00:00 PM 1.47 34.646 0.27 7.56 7.97 13.52
12/28/2022 11:15:00 PM 1.45 34.61 0.27 7.56 8.01 13.52
12/28/2022 11:30:00 PM 1.42 34.556 0.271 7.55 8.06 13.53
12/28/2022 11:45:00 PM 1.41 34.538 0.273 7.55 8.17 13.52
12/29/2022 12:00:00 AM 1.39 34.502 0.277 7.55 8.36 13.52
12/29/2022 12:15:00 AM 1.36 34.448 0.28 7.54 8.59 13.52
12/29/2022 12:30:00 AM 1.34 34.412 0.282 7.54 8.09 13.52
12/29/2022 12:45:00 AM 1.31 34.358 0.285 7.54 8.18 13.53
12/29/2022 1:00:00 AM 1.28 34.304 0.288 7.53 8.17 13.54
12/29/2022 1:15:00 AM 1.25 34.25 0.292 7.52 8.35 13.54
12/29/2022 1:30:00 AM 1.22 34.196 0.295 7.52 8.27 13.54
12/29/2022 1:45:00 AM 1.2 34.16 0.299 7.52 8.15 13.54
12/29/2022 2:00:00 AM 1.18 34.124 0.303 7.52 8.28 13.55
12/29/2022 2:15:00 AM 1.16 34.088 0.307 7.52 8.16 13.54
12/29/2022 2:30:00 AM 1.15 34.07 0.311 7.52 7.94 13.53
12/29/2022 2:45:00 AM 1.15 34.07 0.314 7.53 7.83 13.53
12/29/2022 3:00:00 AM 1.15 34.07 0.316 7.52 7.95 13.52
12/29/2022 3:15:00 AM 1.14 34.052 0.317 7.52 7.85 13.52
12/29/2022 3:30:00 AM 1.13 34.034 0.316 7.52 7.61 13.53
12/29/2022 3:45:00 AM 1.11 33.998 0.315 7.52 7.43 13.53
12/29/2022 4:00:00 AM 1.09 33.962 0.314 7.52 6.9 13.54
12/29/2022 4:15:00 AM 1.07 33.926 0.313 7.52 6.93 13.55
12/29/2022 4:30:00 AM 1.04 33.872 0.313 7.52 7.17 13.56
12/29/2022 4:45:00 AM 1.03 33.854 0.314 7.51 6.7 13.56
12/29/2022 5:00:00 AM 1 33.8 0.315 7.51 6.65 13.57
12/29/2022 5:15:00 AM 0.99 33.782 0.317 7.51 7.02 13.57
12/29/2022 5:30:00 AM 0.98 33.764 0.319 7.52 6.62 13.58
12/29/2022 5:45:00 AM 0.97 33.746 0.321 7.52 6.41 13.58
12/29/2022 6:00:00 AM 0.95 33.71 0.321 7.52 6.6 13.6
12/29/2022 6:15:00 AM 0.93 33.674 0.321 7.52 6.64 13.6
12/29/2022 6:30:00 AM 0.9 33.62 0.32 7.51 6.63 13.61
12/29/2022 6:45:00 AM 0.88 33.584 0.32 7.51 6.57 13.63
12/29/2022 7:00:00 AM 0.85 33.53 0.32 7.51 6.52 13.64
12/29/2022 7:15:00 AM 0.83 33.494 0.32 7.51 32.08 13.65
12/29/2022 7:30:00 AM 0.8 33.44 0.321 7.51 6.44 13.66
12/29/2022 7:45:00 AM 0.78 33.404 0.323 7.51 6.63 13.69
12/29/2022 8:00:00 AM 0.76 33.368 0.325 7.52 9.6 13.72
12/29/2022 8:15:00 AM 0.75 33.35 0.327 7.53 6.38 13.79
12/29/2022 8:30:00 AM 0.75 33.35 0.329 7.55 6.68 13.85
12/29/2022 8:45:00 AM 0.74 33.332 0.33 7.56 7.31 13.93
12/29/2022 9:00:00 AM 0.75 33.35 0.331 7.58 5.76 14.05
12/29/2022 9:15:00 AM 0.76 33.368 0.332 7.61 5.99 14.18
12/29/2022 9:30:00 AM 0.79 33.422 0.332 7.63 6.38 14.29
12/29/2022 9:45:00 AM 0.83 33.494 0.332 7.67 5.82 14.43
12/29/2022 10:00:00 AM 0.9 33.62 0.334 7.71 5.77 14.57
12/29/2022 10:15:00 AM 0.98 33.764 0.336 7.75 5.6 14.69
12/29/2022 10:30:00 AM 1.06 33.908 0.337 7.79 5.8 14.8
12/29/2022 10:45:00 AM 1.16 34.088 0.341 7.83 5.68 14.9
12/29/2022 11:00:00 AM 1.25 34.25 0.343 7.87 5.74 14.96
12/29/2022 11:15:00 AM 1.35 34.43 0.346 7.91 8.39 15.03
12/29/2022 11:30:00 AM 1.45 34.61 0.347 7.95 7.52 15.09
12/29/2022 11:45:00 AM 1.53 34.754 0.347 7.99 7.66 15.14
12/29/2022 12:00:00 PM 1.61 34.898 0.347 8.03 7.61 15.18
12/29/2022 12:15:00 PM 1.69 35.042 0.346 8.07 7.51 15.22
12/29/2022 12:30:00 PM 1.79 35.222 0.347 8.12 7.58 15.25
12/29/2022 12:45:00 PM 1.88 35.384 0.346 8.14 7.4 15.28
12/29/2022 1:00:00 PM 1.96 35.528 0.345 8.17 7.74 15.28
12/29/2022 1:15:00 PM 2.05 35.69 0.345 8.21 7.79 15.3
12/29/2022 1:30:00 PM 2.15 35.87 0.346 8.24 7.3 15.3
12/29/2022 1:45:00 PM 2.23 36.014 0.345 8.27 7.6 15.28
12/29/2022 2:00:00 PM 2.31 36.158 0.345 8.29 7.36 15.27
12/29/2022 2:15:00 PM 2.39 36.302 0.344 8.32 7.44 15.25
12/29/2022 2:30:00 PM 2.45 36.41 0.342 8.33 7.39 15.21
12/29/2022 2:45:00 PM 2.5 36.5 0.34 8.34 7.42 15.18
12/29/2022 3:00:00 PM 2.52 36.536 0.338 8.34 7.23 15.1
12/29/2022 3:15:00 PM 2.54 36.572 0.336 8.32 7.27 15.03
12/29/2022 3:30:00 PM 2.54 36.572 0.334 8.3 7.03 14.94
12/29/2022 3:45:00 PM 2.55 36.59 0.333 8.28 7.68 14.85
12/29/2022 4:00:00 PM 2.57 36.626 0.332 8.24 7.32 14.76
12/29/2022 4:15:00 PM 2.58 36.644 0.331 8.21 7.44 14.67
12/29/2022 4:30:00 PM 2.59 36.662 0.331 8.17 7.38 14.55
12/29/2022 4:45:00 PM 2.58 36.644 0.33 8.1 7.63 14.4
12/29/2022 5:00:00 PM 2.57 36.626 0.328 8.04 7.63 14.25
12/29/2022 5:15:00 PM 2.56 36.608 0.327 7.97 7.8 14.1
12/29/2022 5:30:00 PM 2.53 36.554 0.325 7.92 7.64 13.97
12/29/2022 5:45:00 PM 2.51 36.518 0.324 7.87 8.14 13.87
12/29/2022 6:00:00 PM 2.49 36.482 0.323 7.83 7.95 13.78
12/29/2022 6:15:00 PM 2.46 36.428 0.322 7.8 8.03 13.71
12/29/2022 6:30:00 PM 2.45 36.41 0.322 7.77 8.39 13.64
12/29/2022 6:45:00 PM 2.45 36.41 0.323 7.75 7.84 13.58
12/29/2022 7:00:00 PM 2.45 36.41 0.323 7.75 8.03 13.52
12/29/2022 7:15:00 PM 2.48 36.464 0.324 7.7 8.41 13.46
12/29/2022 7:30:00 PM 2.5 36.5 0.324 7.69 7.96 13.41
12/29/2022 7:45:00 PM 2.51 36.518 0.322 7.67 8.06 13.36
12/29/2022 8:00:00 PM 2.51 36.518 0.321 7.66 8.4 13.31
12/29/2022 8:15:00 PM 2.51 36.518 0.32 7.64 7.98 13.27
12/29/2022 8:30:00 PM 2.51 36.518 0.319 7.62 8.39 13.24
12/29/2022 8:45:00 PM 2.53 36.554 0.319 7.62 8.49 13.2
12/29/2022 9:00:00 PM 2.56 36.608 0.32 7.61 8.29 13.17
12/29/2022 9:15:00 PM 2.6 36.68 0.322 7.6 8.34 13.13
12/29/2022 9:30:00 PM 2.64 36.752 0.323 7.6 8.31 13.1
12/29/2022 9:45:00 PM 2.71 36.878 0.323 7.59 8.48 13.07
12/29/2022 10:00:00 PM 2.77 36.986 0.323 7.6 8.23 13.05
12/29/2022 10:15:00 PM 2.8 37.04 0.322 7.58 8.57 13.03
12/29/2022 10:30:00 PM 2.84 37.112 0.321 7.58 8.49 13.01
12/29/2022 10:45:00 PM 2.87 37.166 0.321 7.58 8.54 13
12/29/2022 11:00:00 PM 2.9 37.22 0.322 7.57 8.63 12.97
12/29/2022 11:15:00 PM 2.93 37.274 0.323 7.57 8.61 12.95
12/29/2022 11:30:00 PM 2.95 37.31 0.325 7.57 8.63 12.94
12/29/2022 11:45:00 PM 2.98 37.364 0.327 7.57 8.62 12.93
12/30/2022 12:00:00 AM 2.98 37.364 0.328 7.56 9.24 12.92
12/30/2022 12:15:00 AM 2.99 37.382 0.327 7.55 8.05 12.91
12/30/2022 12:30:00 AM 3 37.4 0.327 7.55 9.29 12.9
12/30/2022 12:45:00 AM 3 37.4 0.326 7.54 9.11 12.9
12/30/2022 1:00:00 AM 2.99 37.382 0.326 7.54 8.94 12.9
12/30/2022 1:15:00 AM 2.99 37.382 0.327 7.53 9.14 12.9
12/30/2022 1:30:00 AM 2.99 37.382 0.33 7.53 9.47 12.88
12/30/2022 1:45:00 AM 3 37.4 0.332 7.53 9.13 12.88
12/30/2022 2:00:00 AM 3 37.4 0.334 7.52 9.53 12.87
12/30/2022 2:15:00 AM 3 37.4 0.336 7.52 9.48 12.86
12/30/2022 2:30:00 AM 3.02 37.436 0.337 7.52 9.41 12.85
12/30/2022 2:45:00 AM 3.02 37.436 0.337 7.52 9.93 12.85
12/30/2022 3:00:00 AM 3.01 37.418 0.336 7.51 9.57 12.85
12/30/2022 3:15:00 AM 3.02 37.436 0.334 7.51 9.85 12.86
12/30/2022 3:30:00 AM 3 37.4 0.331 7.51 10.16 12.87
12/30/2022 3:45:00 AM 2.99 37.382 0.329 7.5 9.97 12.86
12/30/2022 4:00:00 AM 2.98 37.364 0.327 7.5 10.79 12.87
12/30/2022 4:15:00 AM 2.97 37.346 0.325 7.49 9.84 12.87
12/30/2022 4:30:00 AM 2.96 37.328 0.325 7.5 9.96 12.87
12/30/2022 4:45:00 AM 2.96 37.328 0.325 7.49 10.3 12.88
12/30/2022 5:00:00 AM 2.96 37.328 0.324 7.49 10.08 12.87
12/30/2022 5:15:00 AM 2.96 37.328 0.324 7.49 10.54 12.86
12/30/2022 5:30:00 AM 2.95 37.31 0.322 7.49 10.03 12.87
12/30/2022 5:45:00 AM 2.95 37.31 0.321 7.48 10.56 12.87
12/30/2022 6:00:00 AM 2.94 37.292 0.317 7.48 10.21 12.87
12/30/2022 6:15:00 AM 2.94 37.292 0.315 7.48 10.09 12.88
12/30/2022 6:30:00 AM 2.93 37.274 0.313 7.47 10.34 12.89
12/30/2022 6:45:00 AM 2.91 37.238 0.311 7.47 10.54 12.9
12/30/2022 7:00:00 AM 2.91 37.238 0.31 7.47 10.71 12.9
12/30/2022 7:15:00 AM 2.91 37.238 0.311 7.47 10.68 12.89
12/30/2022 7:30:00 AM 2.9 37.22 0.312 7.47 9 12.89
12/30/2022 7:45:00 AM 2.91 37.238 0.314 7.47 10.69 12.9
12/30/2022 8:00:00 AM 2.9 37.22 0.314 7.47 9.88 12.91
12/30/2022 8:15:00 AM 2.91 37.238 0.315 7.48 10.55 12.96
12/30/2022 8:30:00 AM 2.93 37.274 0.313 7.49 10.28 13.02
12/30/2022 8:45:00 AM 2.95 37.31 0.312 7.51 11.05 13.1
12/30/2022 9:00:00 AM 2.95 37.31 0.311 7.52 10.39 13.17
12/30/2022 9:15:00 AM 2.96 37.328 0.31 7.53 10.88 13.22
12/30/2022 9:30:00 AM 2.97 37.346 0.31 7.54 11.11 13.26
12/30/2022 9:45:00 AM 2.97 37.346 0.309 7.56 10.49 13.34
12/30/2022 10:00:00 AM 3 37.4 0.31 7.58 18.32 13.43
12/30/2022 10:15:00 AM 3.04 37.472 0.311 7.62 10.46 13.57
12/30/2022 10:30:00 AM 3.06 37.508 0.311 7.66 11.01 13.72
12/30/2022 10:45:00 AM 3.1 37.58 0.31 7.71 10.24 13.85
12/30/2022 11:00:00 AM 3.16 37.688 0.308 7.75 10.26 13.99
12/30/2022 11:15:00 AM 3.22 37.796 0.305 7.81 10.83 14.12
12/30/2022 11:30:00 AM 3.26 37.868 0.303 7.87 10.78 14.27
12/30/2022 11:45:00 AM 3.28 37.904 0.301 7.92 12.29 14.36
12/30/2022 12:00:00 PM 3.3 37.94 0.298 7.97 12.14 14.44
12/30/2022 12:15:00 PM 3.31 37.958 0.296 8.02 12.42 14.51
12/30/2022 12:30:00 PM 3.32 37.976 0.295 8.06 12.67 14.56
12/30/2022 12:45:00 PM 3.32 37.976 0.292 8.09 13.06 14.6
12/30/2022 1:00:00 PM 3.35 38.03 0.291 8.12 10.25 14.63
12/30/2022 1:15:00 PM 3.29 37.922 0.285 8.13 9.96 14.63
12/30/2022 1:30:00 PM 3.19 37.742 0.28 8.11 12.56 14.6
12/30/2022 1:45:00 PM 3.14 37.652 0.275 8.11 13.1 14.61
12/30/2022 2:00:00 PM 3.09 37.562 0.272 8.11 15.24 14.61
12/30/2022 2:15:00 PM 3.01 37.418 0.268 8.09 17.37 14.58
12/30/2022 2:30:00 PM 2.91 37.238 0.265 8.06 20.05 14.55
12/30/2022 2:45:00 PM 2.87 37.166 0.263 8.01 21.48 14.49
12/30/2022 3:00:00 PM 2.87 37.166 0.264 7.99 22.71 14.43
12/30/2022 3:15:00 PM 2.8 37.04 0.263 7.94 24.74 14.35
12/30/2022 3:30:00 PM 2.74 36.932 0.261 7.89 27.12 14.29
12/30/2022 3:45:00 PM 2.74 36.932 0.26 7.86 26.88 14.2
12/30/2022 4:00:00 PM 2.71 36.878 0.259 7.81 23.74 14.1
12/30/2022 4:15:00 PM 2.68 36.824 0.259 7.74 25.94 14.01
12/30/2022 4:30:00 PM 2.7 36.86 0.259 7.71 23.53 13.89
12/30/2022 4:45:00 PM 2.71 36.878 0.26 7.67 23.58 13.78
12/30/2022 5:00:00 PM 2.74 36.932 0.262 7.63 22.76 13.67
12/30/2022 5:15:00 PM 2.81 37.058 0.266 7.61 21.79 13.56
12/30/2022 5:30:00 PM 2.84 37.112 0.267 7.58 24.96 13.48
12/30/2022 5:45:00 PM 2.88 37.184 0.269 7.56 26.13 13.39
12/30/2022 6:00:00 PM 2.91 37.238 0.271 7.54 31.32 13.33
12/30/2022 6:15:00 PM 2.96 37.328 0.275 7.53 21.8 13.26
12/30/2022 6:30:00 PM 3.01 37.418 0.278 7.51 17.88 13.2
12/30/2022 6:45:00 PM 3.01 37.418 0.279 7.5 23.23 13.15
12/30/2022 7:00:00 PM 3.03 37.454 0.281 7.49 23.92 13.12
12/30/2022 7:15:00 PM 3.03 37.454 0.282 7.48 23.99 13.09
12/30/2022 7:30:00 PM 3.02 37.436 0.284 7.47 24.06 13.07
12/30/2022 7:45:00 PM 3.02 37.436 0.286 7.46 26.19 13.06
12/30/2022 8:00:00 PM 3.02 37.436 0.288 7.45 25.01 13.03
12/30/2022 8:15:00 PM 3.02 37.436 0.292 7.44 24.7 12.99
12/30/2022 8:30:00 PM 3.01 37.418 0.293 7.42 24.22 12.97
12/30/2022 8:45:00 PM 3 37.4 0.293 7.42 24.99 12.95
12/30/2022 9:00:00 PM 2.96 37.328 0.29 7.41 24.08 12.95
12/30/2022 9:15:00 PM 2.91 37.238 0.289 7.4 22.91 12.96
12/30/2022 9:30:00 PM 2.87 37.166 0.287 7.39 25.2 12.96
12/30/2022 9:45:00 PM 2.82 37.076 0.287 7.37 23.63 12.97
12/30/2022 10:00:00 PM 2.78 37.004 0.289 7.37 22.17 12.97
12/30/2022 10:15:00 PM 2.76 36.968 0.291 7.36 26.03 12.97
12/30/2022 10:30:00 PM 2.74 36.932 0.293 7.35 24.65 12.96
12/30/2022 10:45:00 PM 2.73 36.914 0.296 7.34 25.87 12.95
12/30/2022 11:00:00 PM 2.72 36.896 0.297 7.34 23.45 12.94
12/30/2022 11:15:00 PM 2.72 36.896 0.297 7.34 23.16 12.93
12/30/2022 11:30:00 PM 2.71 36.878 0.297 7.34 22.82 12.94
12/30/2022 11:45:00 PM 2.68 36.824 0.294 7.33 23.18 12.95
12/31/2022 12:00:00 AM 2.66 36.788 0.294 7.34 26.82 12.96
12/31/2022 12:15:00 AM 2.64 36.752 0.293 7.33 22.95 12.97
12/31/2022 12:30:00 AM 2.62 36.716 0.292 7.33 22.3 12.98
12/31/2022 12:45:00 AM 2.61 36.698 0.29 7.33 22.31 12.99
12/31/2022 1:00:00 AM 2.61 36.698 0.288 7.33 22.93 12.98
12/31/2022 1:15:00 AM 2.61 36.698 0.286 7.33 23.16 12.98
12/31/2022 1:30:00 AM 2.62 36.716 0.285 7.33 20.81 12.97
12/31/2022 1:45:00 AM 2.64 36.752 0.284 7.33 19.95 12.96
12/31/2022 2:00:00 AM 2.66 36.788 0.283 7.33 20.54 12.95
12/31/2022 2:15:00 AM 2.67 36.806 0.28 7.33 20.29 12.95
12/31/2022 2:30:00 AM 2.66 36.788 0.277 7.33 19.73 12.96
12/31/2022 2:45:00 AM 2.66 36.788 0.274 7.33 19.84 12.97
12/31/2022 3:00:00 AM 2.64 36.752 0.271 7.34 19.67 12.98
12/31/2022 3:15:00 AM 2.63 36.734 0.271 7.33 20.17 12.98
12/31/2022 3:30:00 AM 2.64 36.752 0.271 7.33 19.34 12.98
12/31/2022 3:45:00 AM 2.64 36.752 0.271 7.33 23.02 12.97
12/31/2022 4:00:00 AM 2.66 36.788 0.271 7.33 18.86 12.97
12/31/2022 4:15:00 AM 2.68 36.824 0.27 7.34 18.13 12.96
12/31/2022 4:30:00 AM 2.7 36.86 0.27 7.34 17.8 12.95
12/31/2022 4:45:00 AM 2.73 36.914 0.271 7.34 17.32 12.93
12/31/2022 5:00:00 AM 2.76 36.968 0.273 7.34 17.06 12.91
12/31/2022 5:15:00 AM 2.79 37.022 0.274 7.35 17.18 12.9
12/31/2022 5:30:00 AM 2.8 37.04 0.272 7.34 16.48 12.89
12/31/2022 5:45:00 AM 2.81 37.058 0.272 7.35 16.72 12.89
12/31/2022 6:00:00 AM 2.82 37.076 0.271 7.35 16.41 12.89
12/31/2022 6:15:00 AM 2.83 37.094 0.271 7.35 16.26 12.88
12/31/2022 6:30:00 AM 2.83 37.094 0.27 7.35 15.87 12.89
12/31/2022 6:45:00 AM 2.86 37.148 0.27 7.35 15.5 12.88
12/31/2022 7:00:00 AM 2.88 37.184 0.27 7.35 15.3 12.87
12/31/2022 7:15:00 AM 2.91 37.238 0.271 7.35 15.55 12.86
12/31/2022 7:30:00 AM 2.95 37.31 0.272 7.35 15.51 12.83
12/31/2022 7:45:00 AM 2.98 37.364 0.272 7.35 15.23 12.83
12/31/2022 8:00:00 AM 3 37.4 0.27 7.36 14.78 12.83
12/31/2022 8:15:00 AM 3.01 37.418 0.267 7.36 14.51 12.85
12/31/2022 8:30:00 AM 3.02 37.436 0.264 7.37 14.13 12.89
12/31/2022 8:45:00 AM 3.04 37.472 0.263 7.38 14.1 12.93
12/31/2022 9:00:00 AM 3.06 37.508 0.263 7.39 14.59 12.97
12/31/2022 9:15:00 AM 3.08 37.544 0.261 7.4 13.49 13.02
12/31/2022 9:30:00 AM 3.11 37.598 0.26 7.42 15.18 13.08
12/31/2022 9:45:00 AM 3.15 37.67 0.26 7.44 18.73 13.11
12/31/2022 10:00:00 AM 3.19 37.742 0.258 7.43 28.19 13.09
12/31/2022 10:15:00 AM 3.24 37.832 0.259 7.43 28.09 13.05
12/31/2022 10:30:00 AM 3.29 37.922 0.259 7.42 61.6 13
12/31/2022 10:45:00 AM 3.34 38.012 0.259 7.42 40.58 12.98
12/31/2022 11:00:00 AM 3.39 38.102 0.258 7.43 49.97 12.98
12/31/2022 11:15:00 AM 3.44 38.192 0.256 7.44 38.57 13.01
12/31/2022 11:30:00 AM 3.49 38.282 0.255 7.46 29.51 13.08
12/31/2022 11:45:00 AM 3.52 38.336 0.253 7.48 34.39 13.12
12/31/2022 12:00:00 PM 3.55 38.39 0.251 7.49 31.13 13.12
12/31/2022 12:15:00 PM 3.59 38.462 0.25 7.49 30.44 13.13
12/31/2022 12:30:00 PM 3.62 38.516 0.248 7.49 27.38 13.12
12/31/2022 12:45:00 PM 3.65 38.57 0.246 7.5 38.68 13.1
12/31/2022 1:00:00 PM 3.69 38.642 0.247 7.5 29.44 13.08
12/31/2022 1:15:00 PM 3.75 38.75 0.249 7.5 34.99 13.1
12/31/2022 1:30:00 PM 3.81 38.858 0.247 7.52 24.45 13.14
12/31/2022 1:45:00 PM 3.85 38.93 0.246 7.54 59.24 13.16
12/31/2022 2:00:00 PM 3.87 38.966 0.244 7.54 25.84 13.16
12/31/2022 2:15:00 PM 3.9 39.02 0.241 7.55 26.04 13.16
12/31/2022 2:30:00 PM 3.91 39.038 0.239 7.54 23.55 13.14
12/31/2022 2:45:00 PM 3.93 39.074 0.237 7.54 22 13.14
12/31/2022 3:00:00 PM 3.94 39.092 0.236 7.54 25.39 13.11
12/31/2022 3:15:00 PM 3.95 39.11 0.234 7.52 22.24 13.05
12/31/2022 3:30:00 PM 3.97 39.146 0.236 7.5 23.27 12.98
12/31/2022 3:45:00 PM 3.99 39.182 0.236 7.49 22.5 12.92
12/31/2022 4:00:00 PM 4 39.2 0.236 7.48 22.26 12.88
12/31/2022 4:15:00 PM 4.01 39.218 0.235 7.49 22.97 12.84
12/31/2022 4:30:00 PM 4.01 39.218 0.234 7.45 25.45 12.81
12/31/2022 4:45:00 PM 4.01 39.218 0.233 7.43 23.11 12.78
12/31/2022 5:00:00 PM 4.01 39.218 0.232 7.44 23.55 12.75
12/31/2022 5:15:00 PM 4.01 39.218 0.234 7.41 22.87 12.73
12/31/2022 5:30:00 PM 4 39.2 0.23 7.4 25.04 12.69
12/31/2022 5:45:00 PM 4 39.2 0.232 7.39 25.68 12.67
12/31/2022 6:00:00 PM 4.01 39.218 0.235 7.38 25.79 12.63
12/31/2022 6:15:00 PM 4 39.2 0.233 7.37 25.96 12.62
12/31/2022 6:30:00 PM 3.99 39.182 0.233 7.37 24.69 12.61
12/31/2022 6:45:00 PM 3.99 39.182 0.232 7.35 26.76 12.6
12/31/2022 7:00:00 PM 3.97 39.146 0.23 7.35 37.85 12.59
12/31/2022 7:15:00 PM 3.97 39.146 0.23 7.34 28.62 12.59
12/31/2022 7:30:00 PM 3.99 39.182 0.23 7.34 28.89 12.57
12/31/2022 7:45:00 PM 3.98 39.164 0.23 7.33 28.23 12.56
12/31/2022 8:00:00 PM 4.01 39.218 0.233 7.32 28.59 12.53
12/31/2022 8:15:00 PM 4.04 39.272 0.238 7.33 27.1 12.5
12/31/2022 8:30:00 PM 4.07 39.326 0.241 7.32 26.62 12.47
12/31/2022 8:45:00 PM 4.08 39.344 0.239 7.32 28.25 12.46
12/31/2022 9:00:00 PM 4.07 39.326 0.235 7.31 29.15 12.46
12/31/2022 9:15:00 PM 4.07 39.326 0.235 7.31 29.02 12.45
12/31/2022 9:30:00 PM 4.07 39.326 0.233 7.3 39.24 12.45
12/31/2022 9:45:00 PM 4.06 39.308 0.232 7.31 50.18 12.44
12/31/2022 10:00:00 PM 4.05 39.29 0.23 7.27 92.01 12.44
12/31/2022 10:15:00 PM 4.04 39.272 0.228 7.28 97.34 12.42
12/31/2022 10:30:00 PM 3.99 39.182 0.223 7.25 120.74 12.44
12/31/2022 10:45:00 PM 3.91 39.038 0.218 7.25 124.94 12.48
12/31/2022 11:00:00 PM 3.84 38.912 0.216 7.23 120.87 12.51
12/31/2022 11:15:00 PM 3.8 38.84 0.216 7.22 112.77 12.52
12/31/2022 11:30:00 PM 3.77 38.786 0.216 7.23 114.92 12.54
12/31/2022 11:45:00 PM 3.76 38.768 0.217 7.22 93.48 12.55
1/1/2023 12:00:00 AM 3.78 38.804 0.219 7.25 101.49 12.54
1/1/2023 12:15:00 AM 3.8 38.84 0.221 7.23 82.57 12.53
1/1/2023 12:30:00 AM 3.84 38.912 0.221 7.24 65.57 12.52
1/1/2023 12:45:00 AM 3.89 39.002 0.222 7.25 66.89 12.51
1/1/2023 1:00:00 AM 3.95 39.11 0.224 7.25 64.35 12.48
1/1/2023 1:15:00 AM 3.99 39.182 0.213 7.25 54.13 12.46
1/1/2023 1:30:00 AM 4.01 39.218 0.224 7.26 44.91 12.45
1/1/2023 1:45:00 AM 4 39.2 0.222 7.26 40.53 12.46
1/1/2023 2:00:00 AM 3.99 39.182 0.223 7.25 47.01 12.48
1/1/2023 2:15:00 AM 3.98 39.164 0.223 7.26 34.35 12.48
1/1/2023 2:30:00 AM 3.99 39.182 0.225 7.25 42.75 12.48
1/1/2023 2:45:00 AM 4 39.2 0.227 7.26 42.54 12.47
1/1/2023 3:00:00 AM 4.02 39.236 0.229 7.25 39.22 12.45
1/1/2023 3:15:00 AM 4.04 39.272 0.23 7.25 46.9 12.44
1/1/2023 3:30:00 AM 4.03 39.254 0.229 7.25 41.11 12.45
1/1/2023 3:45:00 AM 4.03 39.254 0.228 7.26 38.67 12.46
1/1/2023 4:00:00 AM 4.03 39.254 0.227 7.26 34.72 12.48
1/1/2023 4:15:00 AM 4.02 39.236 0.227 7.25 39.16 12.48
1/1/2023 4:30:00 AM 4.03 39.254 0.228 7.25 39.94 12.48
1/1/2023 4:45:00 AM 4.03 39.254 0.228 7.25 41.36 12.48
1/1/2023 5:00:00 AM 4.04 39.272 0.23 7.24 55.44 12.47
1/1/2023 5:15:00 AM 4.06 39.308 0.231 7.25 40.47 12.46
1/1/2023 5:30:00 AM 4.08 39.344 0.232 7.25 43.47 12.45
1/1/2023 5:45:00 AM 4.09 39.362 0.232 7.24 41.81 12.44
1/1/2023 6:00:00 AM 4.12 39.416 0.233 7.24 41.86 12.43
1/1/2023 6:15:00 AM 4.15 39.47 0.235 7.24 33.88 12.4
1/1/2023 6:30:00 AM 4.17 39.506 0.235 7.24 35.93 12.4
1/1/2023 6:45:00 AM 4.17 39.506 0.232 7.24 39 12.41
1/1/2023 7:00:00 AM 4.17 39.506 0.231 7.23 35.51 12.42
1/1/2023 7:15:00 AM 4.18 39.524 0.23 7.24 37.09 12.43
1/1/2023 7:30:00 AM 4.19 39.542 0.229 7.24 42.52 12.42
1/1/2023 7:45:00 AM 4.2 39.56 0.23 7.23 33.04 12.42
1/1/2023 8:00:00 AM 4.23 39.614 0.232 7.23 35.3 12.39
1/1/2023 8:15:00 AM 4.25 39.65 0.231 7.23 34.05 12.39
1/1/2023 8:30:00 AM 4.25 39.65 0.228 7.24 32.63 12.41
1/1/2023 8:45:00 AM 4.25 39.65 0.223 7.25 33.81 12.44
1/1/2023 9:00:00 AM 4.26 39.668 0.219 7.25 31.44 12.47
1/1/2023 9:15:00 AM 4.28 39.704 0.219 7.26 32.03 12.49
1/1/2023 9:30:00 AM 4.32 39.776 0.22 7.26 28.78 12.49
1/1/2023 9:45:00 AM 4.37 39.866 0.219 7.27 28.49 12.52
1/1/2023 10:00:00 AM 4.41 39.938 0.217 7.29 29.91 12.56
1/1/2023 10:15:00 AM 4.42 39.956 0.213 7.29 27.31 12.6
1/1/2023 10:30:00 AM 4.44 39.992 0.21 7.3 26.65 12.64
1/1/2023 10:45:00 AM 4.48 40.064 0.208 7.31 25.86 12.68
1/1/2023 11:00:00 AM 4.54 40.172 0.207 7.32 24.71 12.71
1/1/2023 11:15:00 AM 4.59 40.262 0.206 7.34 24.5 12.74
1/1/2023 11:30:00 AM 4.61 40.298 0.205 7.34 25.58 12.75
1/1/2023 11:45:00 AM 4.63 40.334 0.204 7.35 24.68 12.78
1/1/2023 12:00:00 PM 4.64 40.352 0.202 7.36 24.66 12.81
1/1/2023 12:15:00 PM 4.66 40.388 0.201 7.37 24.83 12.84
1/1/2023 12:30:00 PM 4.69 40.442 0.201 7.37 27.52 12.86
1/1/2023 12:45:00 PM 4.74 40.532 0.2 7.38 26.48 12.88
1/1/2023 1:00:00 PM 4.77 40.586 0.201 7.39 28.46 12.87
1/1/2023 1:15:00 PM 4.81 40.658 0.202 7.38 27.99 12.84
1/1/2023 1:30:00 PM 4.88 40.784 0.203 7.39 26.82 12.86
1/1/2023 1:45:00 PM 4.95 40.91 0.204 7.4 27.66 12.85
1/1/2023 2:00:00 PM 4.97 40.946 0.202 7.4 27.89 12.83
1/1/2023 2:15:00 PM 5 41 0.2 7.39 28.85 12.81
1/1/2023 2:30:00 PM 5.03 41.054 0.197 7.4 28.81 12.8
1/1/2023 2:45:00 PM 5.05 41.09 0.196 7.39 30 12.76
1/1/2023 3:00:00 PM 5.06 41.108 0.195 7.37 27.97 12.71
1/1/2023 3:15:00 PM 5.06 41.108 0.196 7.37 29.91 12.67
1/1/2023 3:30:00 PM 5.06 41.108 0.196 7.35 28.1 12.62
1/1/2023 3:45:00 PM 5.08 41.144 0.197 7.34 28.73 12.57
1/1/2023 4:00:00 PM 5.1 41.18 0.2 7.33 31.4 12.52
1/1/2023 4:15:00 PM 5.14 41.252 0.203 7.32 29.66 12.46
1/1/2023 4:30:00 PM 5.18 41.324 0.203 7.31 29.32 12.42
1/1/2023 4:45:00 PM 5.2 41.36 0.202 7.3 31.16 12.4
1/1/2023 5:00:00 PM 5.21 41.378 0.2 7.3 32.31 12.38
1/1/2023 5:15:00 PM 5.22 41.396 0.2 7.3 32.47 12.36
1/1/2023 5:30:00 PM 5.24 41.432 0.201 7.29 29.64 12.34
1/1/2023 5:45:00 PM 5.24 41.432 0.201 7.28 31.12 12.31
1/1/2023 6:00:00 PM 5.25 41.45 0.204 7.28 29.41 12.27
1/1/2023 6:15:00 PM 5.28 41.504 0.206 7.27 29.92 12.23
1/1/2023 6:30:00 PM 5.29 41.522 0.206 7.26 23.79 12.21
1/1/2023 6:45:00 PM 5.29 41.522 0.204 7.26 29.11 12.2
1/1/2023 7:00:00 PM 5.29 41.522 0.202 7.25 28.66 12.21
1/1/2023 7:15:00 PM 5.29 41.522 0.202 7.25 29.22 12.19
1/1/2023 7:30:00 PM 5.29 41.522 0.203 7.24 28.31 12.18
1/1/2023 7:45:00 PM 5.29 41.522 0.205 7.24 28.26 12.15
1/1/2023 8:00:00 PM 5.3 41.54 0.206 7.24 28.62 12.13
1/1/2023 8:15:00 PM 5.29 41.522 0.204 7.23 27.21 12.12
1/1/2023 8:30:00 PM 5.28 41.504 0.202 7.23 23.07 12.14
1/1/2023 8:45:00 PM 5.27 41.486 0.2 7.22 27.03 12.14
1/1/2023 9:00:00 PM 5.26 41.468 0.198 7.22 26.01 12.14
1/1/2023 9:15:00 PM 5.25 41.45 0.198 7.21 25.37 12.15
1/1/2023 9:30:00 PM 5.25 41.45 0.198 7.22 25.34 12.15
1/1/2023 9:45:00 PM 5.26 41.468 0.199 7.21 25.26 12.14
1/1/2023 10:00:00 PM 5.26 41.468 0.2 7.21 24.74 12.13
1/1/2023 10:15:00 PM 5.29 41.522 0.202 7.21 25.23 12.1
1/1/2023 10:30:00 PM 5.31 41.558 0.205 7.2 26.1 12.07
1/1/2023 10:45:00 PM 5.33 41.594 0.205 7.21 30.71 12.06
1/1/2023 11:00:00 PM 5.33 41.594 0.203 7.21 23.17 12.07
1/1/2023 11:15:00 PM 5.32 41.576 0.2 7.21 23.68 12.09
1/1/2023 11:30:00 PM 5.32 41.576 0.199 7.21 23.5 12.1
1/1/2023 11:45:00 PM 5.3 41.54 0.198 7.21 24.05 12.11
1/2/2023 12:00:00 AM 5.31 41.558 0.198 7.2 21.62 12.11
1/2/2023 12:15:00 AM 5.31 41.558 0.199 7.2 22.08 12.1
1/2/2023 12:30:00 AM 5.33 41.594 0.201 7.2 23.3 12.08
1/2/2023 12:45:00 AM 5.35 41.63 0.204 7.21 23.84 12.05
1/2/2023 1:00:00 AM 5.36 41.648 0.204 7.19 23.38 12.04
1/2/2023 1:15:00 AM 5.36 41.648 0.202 7.19 23.29 12.05
1/2/2023 1:30:00 AM 5.35 41.63 0.199 7.2 22.52 12.08
1/2/2023 1:45:00 AM 5.33 41.594 0.197 7.2 22.7 12.09
1/2/2023 2:00:00 AM 5.33 41.594 0.196 7.19 46.79 12.1
1/2/2023 2:15:00 AM 5.33 41.594 0.196 7.19 22.27 12.1
1/2/2023 2:30:00 AM 5.32 41.576 0.196 7.2 22.23 12.1
1/2/2023 2:45:00 AM 5.33 41.594 0.196 7.19 24 12.1
1/2/2023 3:00:00 AM 5.35 41.63 0.199 7.19 23.17 12.09
1/2/2023 3:15:00 AM 5.36 41.648 0.201 7.19 22.25 12.07
1/2/2023 3:30:00 AM 5.38 41.684 0.203 7.19 23.7 12.04
1/2/2023 3:45:00 AM 5.38 41.684 0.202 7.19 22.63 12.04
1/2/2023 4:00:00 AM 5.38 41.684 0.199 7.21 21.76 12.06
1/2/2023 4:15:00 AM 5.38 41.684 0.197 7.19 21.69 12.08
1/2/2023 4:30:00 AM 5.37 41.666 0.195 7.19 21.92 12.09
1/2/2023 4:45:00 AM 5.36 41.648 0.194 7.19 21.24 12.1
1/2/2023 5:00:00 AM 5.36 41.648 0.195 7.2 20.65 12.1
1/2/2023 5:15:00 AM 5.36 41.648 0.195 7.19 20.81 12.1
1/2/2023 5:30:00 AM 5.36 41.648 0.195 7.19 21 12.1
1/2/2023 5:45:00 AM 5.38 41.684 0.198 7.19 19.73 12.08
1/2/2023 6:00:00 AM 5.4 41.72 0.201 7.19 20.93 12.05
1/2/2023 6:15:00 AM 5.42 41.756 0.201 7.19 21.98 12.05
1/2/2023 6:30:00 AM 5.41 41.738 0.199 7.19 22.53 12.06
1/2/2023 6:45:00 AM 5.4 41.72 0.196 7.19 24.47 12.08
1/2/2023 7:00:00 AM 5.4 41.72 0.195 7.19 20.75 12.09
1/2/2023 7:15:00 AM 5.41 41.738 0.197 7.19 25.34 12.09
1/2/2023 7:30:00 AM 5.42 41.756 0.198 7.19 28.15 12.09
1/2/2023 7:45:00 AM 5.42 41.756 0.199 7.19 33.13 12.09
1/2/2023 8:00:00 AM 5.44 41.792 0.201 7.2 32.1 12.09
1/2/2023 8:15:00 AM 5.45 41.81 0.201 7.19 37.85 12.09
1/2/2023 8:30:00 AM 5.46 41.828 0.203 7.2 65.75 12.09
1/2/2023 8:45:00 AM 5.47 41.846 0.204 7.2 59.22 12.1
1/2/2023 9:00:00 AM 5.48 41.864 0.204 7.2 51.1 12.1
1/2/2023 9:15:00 AM 5.49 41.882 0.204 7.23 52.95 12.1
1/2/2023 9:30:00 AM 5.52 41.936 0.207 7.2 44.5 12.09
1/2/2023 9:45:00 AM 5.55 41.99 0.209 7.23 48.34 12.07
1/2/2023 10:00:00 AM 5.57 42.026 0.21 7.23 43.56 12.07
1/2/2023 10:15:00 AM 5.59 42.062 0.209 7.21 39.43 12.09
1/2/2023 10:30:00 AM 5.6 42.08 0.206 7.21 40.49 12.11
1/2/2023 10:45:00 AM 5.61 42.098 0.203 7.22 28.5 12.13
1/2/2023 11:00:00 AM 5.62 42.116 0.201 7.22 38.09 12.13
1/2/2023 11:15:00 AM 5.62 42.116 0.199 7.22 38.06 12.14
1/2/2023 11:30:00 AM 5.64 42.152 0.197 7.21 31.41 12.14
1/2/2023 11:45:00 AM 5.64 42.152 0.195 7.21 40.85 12.13
1/2/2023 12:00:00 PM 5.65 42.17 0.194 7.22 34.74 12.14
1/2/2023 12:15:00 PM 5.66 42.188 0.193 7.21 36.18 12.13
1/2/2023 12:30:00 PM 5.68 42.224 0.195 7.22 29.19 12.13
1/2/2023 12:45:00 PM 5.72 42.296 0.198 7.22 33.81 12.11
1/2/2023 1:00:00 PM 5.75 42.35 0.2 7.23 28.36 12.11
1/2/2023 1:15:00 PM 5.76 42.368 0.198 7.24 31.09 12.11
1/2/2023 1:30:00 PM 5.77 42.386 0.195 7.24 28.95 12.12
1/2/2023 1:45:00 PM 5.77 42.386 0.193 7.23 30.51 12.12
1/2/2023 2:00:00 PM 5.78 42.404 0.193 7.23 26.93 12.13
1/2/2023 2:15:00 PM 5.79 42.422 0.192 7.26 34.82 12.13
1/2/2023 2:30:00 PM 5.8 42.44 0.193 7.22 28.07 12.12
1/2/2023 2:45:00 PM 5.81 42.458 0.194 7.23 26.82 12.1
1/2/2023 3:00:00 PM 5.84 42.512 0.198 7.23 28.59 12.08
1/2/2023 3:15:00 PM 5.86 42.548 0.201 7.22 29.74 12.06
1/2/2023 3:30:00 PM 5.88 42.584 0.2 7.23 26.58 12.05
1/2/2023 3:45:00 PM 5.89 42.602 0.198 7.23 24.19 12.05
1/2/2023 4:00:00 PM 5.89 42.602 0.196 7.23 26.25 12.05
1/2/2023 4:15:00 PM 5.89 42.602 0.194 7.23 28.79 12.05
1/2/2023 4:30:00 PM 5.9 42.62 0.194 7.24 31.37 12.04
1/2/2023 4:45:00 PM 5.9 42.62 0.194 7.22 30.11 12.03
1/2/2023 5:00:00 PM 5.91 42.638 0.194 7.22 28.62 12.02
1/2/2023 5:15:00 PM 5.91 42.638 0.195 7.22 31.85 12.01
1/2/2023 5:30:00 PM 5.92 42.656 0.196 7.21 31.74 12
1/2/2023 5:45:00 PM 5.93 42.674 0.196 7.22 28.98 11.99
1/2/2023 6:00:00 PM 5.95 42.71 0.2 7.21 34.65 11.96
1/2/2023 6:15:00 PM 5.97 42.746 0.203 7.24 34.25 11.94
1/2/2023 6:30:00 PM 5.97 42.746 0.202 7.2 42.02 11.93
1/2/2023 6:45:00 PM 5.97 42.746 0.2 7.22 39.57 11.93
1/2/2023 7:00:00 PM 5.96 42.728 0.198 7.2 39.25 11.94
1/2/2023 7:15:00 PM 5.95 42.71 0.198 7.2 38.65 11.94
1/2/2023 7:30:00 PM 5.95 42.71 0.201 7.2 33.01 11.94
1/2/2023 7:45:00 PM 5.95 42.71 0.205 7.21 36.11 11.93
1/2/2023 8:00:00 PM 5.95 42.71 0.206 7.21 34.48 11.93
1/2/2023 8:15:00 PM 5.96 42.728 0.208 7.21 37.4 11.91
1/2/2023 8:30:00 PM 5.97 42.746 0.211 7.21 40.59 11.89
1/2/2023 8:45:00 PM 5.99 42.782 0.212 7.2 73.42 11.88
1/2/2023 9:00:00 PM 5.98 42.764 0.21 7.19 119.68 11.87
1/2/2023 9:15:00 PM 5.98 42.764 0.208 7.19 129.07 11.88
1/2/2023 9:30:00 PM 5.96 42.728 0.204 7.2 136.34 11.89
1/2/2023 9:45:00 PM 5.95 42.71 0.203 7.18 107.43 11.9
1/2/2023 10:00:00 PM 5.94 42.692 0.202 7.18 99.74 11.91
1/2/2023 10:15:00 PM 5.93 42.674 0.201 7.18 85.65 11.91
1/2/2023 10:30:00 PM 5.92 42.656 0.202 7.18 81.71 11.91
1/2/2023 10:45:00 PM 5.92 42.656 0.203 7.19 63.92 11.91
1/2/2023 11:00:00 PM 5.92 42.656 0.203 7.18 73.61 11.91
1/2/2023 11:15:00 PM 5.93 42.674 0.204 7.19 69.2 11.91
1/2/2023 11:30:00 PM 5.94 42.692 0.207 7.19 78.45 11.88
1/2/2023 11:45:00 PM 5.96 42.728 0.21 7.19 57.02 11.87
1/3/2023 12:00:00 AM 5.98 42.764 0.209 7.19 55.03 11.86
1/3/2023 12:15:00 AM 5.97 42.746 0.206 7.19 43.89 11.87
1/3/2023 12:30:00 AM 5.97 42.746 0.204 7.19 50.92 11.88
1/3/2023 12:45:00 AM 5.96 42.728 0.203 7.19 41.56 11.89
1/3/2023 1:00:00 AM 5.97 42.746 0.203 7.21 43.68 11.89
1/3/2023 1:15:00 AM 5.96 42.728 0.202 7.19 36.48 11.88
1/3/2023 1:30:00 AM 5.98 42.764 0.202 7.19 39.48 11.88
1/3/2023 1:45:00 AM 5.98 42.764 0.203 7.2 31.55 11.88
1/3/2023 2:00:00 AM 6 42.8 0.207 7.2 32.85 11.86
1/3/2023 2:15:00 AM 6.02 42.836 0.208 7.21 42.65 11.84
1/3/2023 2:30:00 AM 6.03 42.854 0.207 7.21 35.06 11.84
1/3/2023 2:45:00 AM 6.02 42.836 0.205 7.2 33.22 11.85
1/3/2023 3:00:00 AM 6.02 42.836 0.203 7.21 33 11.87
1/3/2023 3:15:00 AM 6.02 42.836 0.201 7.2 32.57 11.87
1/3/2023 3:30:00 AM 6.01 42.818 0.2 7.2 31.64 11.87
1/3/2023 3:45:00 AM 6.01 42.818 0.2 7.21 30.7 11.87
1/3/2023 4:00:00 AM 6.01 42.818 0.2 7.2 30.18 11.87
1/3/2023 4:15:00 AM 6.01 42.818 0.2 7.21 27.67 11.87
1/3/2023 4:30:00 AM 6.01 42.818 0.199 7.21 28.19 11.87
1/3/2023 4:45:00 AM 6.02 42.836 0.2 7.23 29.26 11.86
1/3/2023 5:00:00 AM 6.03 42.854 0.202 7.2 27.6 11.84
1/3/2023 5:15:00 AM 6.05 42.89 0.204 7.2 26.99 11.83
1/3/2023 5:30:00 AM 6.05 42.89 0.203 7.2 26.58 11.83
1/3/2023 5:45:00 AM 6.05 42.89 0.2 7.2 25.84 11.83
1/3/2023 6:00:00 AM 6.04 42.872 0.198 7.24 24.31 11.84
1/3/2023 6:15:00 AM 6.03 42.854 0.196 7.2 26.17 11.85
1/3/2023 6:30:00 AM 6.03 42.854 0.196 7.2 22.86 11.85
1/3/2023 6:45:00 AM 6.03 42.854 0.196 7.2 24.32 11.85
1/3/2023 7:00:00 AM 6.03 42.854 0.195 7.19 24.31 11.85
1/3/2023 7:15:00 AM 6.03 42.854 0.194 7.18 23.72 11.86
1/3/2023 7:30:00 AM 6 42.8 0.193 7.18 24.43 11.86
1/3/2023 7:45:00 AM 5.89 42.602 0.193 7.16 30.8 11.88
1/3/2023 8:00:00 AM 5.63 42.134 0.184 7.13 94.18 11.98
1/3/2023 8:15:00 AM 5.16 41.288 0.179 7.06 265.18 12.13
1/3/2023 8:30:00 AM 4.92 40.856 0.167 7.02 342.28 12.22
1/3/2023 8:45:00 AM 4.86 40.748 0.163 7.02 303.92 12.27
1/3/2023 9:00:00 AM 4.88 40.784 0.163 7.03 222.39 12.28
1/3/2023 9:15:00 AM 4.9 40.82 0.162 7.05 210.25 12.27
1/3/2023 9:30:00 AM 4.93 40.874 0.16 7.07 192.16 12.27
1/3/2023 9:45:00 AM 5.02 41.036 0.159 7.07 176.07 12.23
1/3/2023 10:00:00 AM 5.15 41.27 0.161 7.09 154.14 12.19
1/3/2023 10:15:00 AM 5.26 41.468 0.162 7.1 146.46 12.13
1/3/2023 10:30:00 AM 5.34 41.612 0.164 7.09 182.3 12.11
1/3/2023 10:45:00 AM 5.38 41.684 0.166 7.09 179.68 12.08
1/3/2023 11:00:00 AM 5.43 41.774 0.171 7.11 215.07 12.04
1/3/2023 11:15:00 AM 5.46 41.828 0.184 7.11 222.78 11.98
1/3/2023 11:30:00 AM 5.51 41.918 0.198 7.13 201.51 11.93
1/3/2023 11:45:00 AM 5.49 41.882 0.2 7.16 221.49 11.93
1/3/2023 12:00:00 PM 5.46 41.828 0.197 7.17 227.56 11.94
1/3/2023 12:15:00 PM 5.46 41.828 0.19 7.17 245.98 11.92
1/3/2023 12:30:00 PM 5.49 41.882 0.186 7.16 231.7 11.93
1/3/2023 12:45:00 PM 5.5 41.9 0.181 7.16 207.5 11.93
1/3/2023 1:00:00 PM 5.53 41.954 0.18 7.16 220.65 11.92
1/3/2023 1:15:00 PM 5.57 42.026 0.182 7.15 182.79 11.89
1/3/2023 1:30:00 PM 5.61 42.098 0.182 7.13 176.45 11.86
1/3/2023 1:45:00 PM 5.65 42.17 0.182 7.12 174.93 11.83
1/3/2023 2:00:00 PM 5.69 42.242 0.184 7.14 161.8 11.82
1/3/2023 2:15:00 PM 5.73 42.314 0.184 7.11 140.33 11.81
1/3/2023 2:30:00 PM 5.74 42.332 0.181 7.11 129.4 11.81
1/3/2023 2:45:00 PM 5.77 42.386 0.179 7.11 117.22 11.82
1/3/2023 3:00:00 PM 5.8 42.44 0.179 7.11 115.87 11.82
1/3/2023 3:15:00 PM 5.85 42.53 0.181 7.11 111.91 11.79
1/3/2023 3:30:00 PM 5.91 42.638 0.185 7.11 105.33 11.75
1/3/2023 3:45:00 PM 5.97 42.746 0.187 7.1 97.44 11.72
1/3/2023 4:00:00 PM 6.02 42.836 0.189 7.11 98.29 11.69
1/3/2023 4:15:00 PM 6.07 42.926 0.189 7.12 88.69 11.67
1/3/2023 4:30:00 PM 6.12 43.016 0.19 7.12 90.77 11.65
1/3/2023 4:45:00 PM 6.16 43.088 0.187 7.12 85.68 11.65
1/3/2023 5:00:00 PM 6.18 43.124 0.182 7.13 78.27 11.67
1/3/2023 5:15:00 PM 6.2 43.16 0.178 7.13 77.82 11.68
1/3/2023 5:30:00 PM 6.25 43.25 0.179 7.14 73.65 11.67
1/3/2023 5:45:00 PM 6.3 43.34 0.182 7.15 73.61 11.63
1/3/2023 6:00:00 PM 6.34 43.412 0.184 7.14 75.88 11.61
1/3/2023 6:15:00 PM 6.37 43.466 0.185 7.14 72.64 11.62
1/3/2023 6:30:00 PM 6.41 43.538 0.188 7.14 71.43 11.6
1/3/2023 6:45:00 PM 6.45 43.61 0.192 7.15 71.48 11.57
1/3/2023 7:00:00 PM 6.49 43.682 0.193 7.14 67.7 11.54
1/3/2023 7:15:00 PM 6.52 43.736 0.188 7.14 63.15 11.54
1/3/2023 7:30:00 PM 6.54 43.772 0.184 7.13 65.2 11.55
1/3/2023 7:45:00 PM 6.55 43.79 0.183 7.12 58.17 11.55
1/3/2023 8:00:00 PM 6.58 43.844 0.185 7.13 61.09 11.53
1/3/2023 8:15:00 PM 6.6 43.88 0.185 7.11 59.02 11.51
1/3/2023 8:30:00 PM 6.61 43.898 0.184 7.12 64.35 11.52
1/3/2023 8:45:00 PM 6.62 43.916 0.184 7.11 57.2 11.53
1/3/2023 9:00:00 PM 6.64 43.952 0.186 7.11 56.72 11.51
1/3/2023 9:15:00 PM 6.66 43.988 0.188 7.11 54.98 11.49
1/3/2023 9:30:00 PM 6.68 44.024 0.187 7.11 52.41 11.49
1/3/2023 9:45:00 PM 6.69 44.042 0.186 7.11 52.19 11.5
1/3/2023 10:00:00 PM 6.7 44.06 0.184 7.11 48.33 11.51
1/3/2023 10:15:00 PM 6.72 44.096 0.185 7.1 49.31 11.51
1/3/2023 10:30:00 PM 6.75 44.15 0.187 7.1 47.14 11.49
1/3/2023 10:45:00 PM 6.77 44.186 0.186 7.09 45.55 11.47
1/3/2023 11:00:00 PM 6.78 44.204 0.184 7.09 47.81 11.48
1/3/2023 11:15:00 PM 6.79 44.222 0.182 7.1 45.37 11.5
1/3/2023 11:30:00 PM 6.8 44.24 0.18 7.1 43.68 11.5
1/3/2023 11:45:00 PM 6.81 44.258 0.181 7.11 44.22 11.49
1/4/2023 12:00:00 AM 6.83 44.294 0.183 7.11 43.33 11.46
1/4/2023 12:15:00 AM 6.84 44.312 0.182 7.12 43.94 11.46
1/4/2023 12:30:00 AM 6.87 44.366 0.18 7.11 41.83 11.47
1/4/2023 12:45:00 AM 6.9 44.42 0.178 7.12 41.67 11.49
1/4/2023 1:00:00 AM 6.93 44.474 0.177 7.12 41.96 11.49
1/4/2023 1:15:00 AM 6.96 44.528 0.178 7.12 40.95 11.47
1/4/2023 1:30:00 AM 7 44.6 0.18 7.12 38.11 11.44
1/4/2023 1:45:00 AM 7.04 44.672 0.181 7.12 38.16 11.42
1/4/2023 2:00:00 AM 7.07 44.726 0.179 7.13 40.91 11.43
1/4/2023 2:15:00 AM 7.1 44.78 0.179 7.13 45.33 11.44
1/4/2023 2:30:00 AM 7.12 44.816 0.178 7.14 39.24 11.44
1/4/2023 2:45:00 AM 7.15 44.87 0.18 7.14 39.58 11.42
1/4/2023 3:00:00 AM 7.17 44.906 0.181 7.14 38.33 11.39
1/4/2023 3:15:00 AM 7.2 44.96 0.184 7.14 38.39 11.37
1/4/2023 3:30:00 AM 7.22 44.996 0.188 7.14 38.37 11.37
1/4/2023 3:45:00 AM 7.25 45.05 0.189 7.15 37.73 11.37
1/4/2023 4:00:00 AM 7.28 45.104 0.185 7.17 36.18 11.37
1/4/2023 4:15:00 AM 7.3 45.14 0.18 7.14 35.5 11.38
1/4/2023 4:30:00 AM 7.32 45.176 0.177 7.14 35.51 11.37
1/4/2023 4:45:00 AM 7.33 45.194 0.177 7.14 34.34 11.35
1/4/2023 5:00:00 AM 7.34 45.212 0.177 7.14 33.61 11.34
1/4/2023 5:15:00 AM 7.33 45.194 0.174 7.13 33.98 11.35
1/4/2023 5:30:00 AM 7.32 45.176 0.172 7.13 34.36 11.37
1/4/2023 5:45:00 AM 7.31 45.158 0.171 7.14 33.58 11.38
1/4/2023 6:00:00 AM 7.31 45.158 0.171 7.13 32.58 11.39
1/4/2023 6:15:00 AM 7.3 45.14 0.172 7.13 32.64 11.39
1/4/2023 6:30:00 AM 7.29 45.122 0.175 7.13 32.26 11.37
1/4/2023 6:45:00 AM 7.28 45.104 0.176 7.13 31.69 11.36
1/4/2023 7:00:00 AM 7.26 45.068 0.173 7.13 31.25 11.38
1/4/2023 7:15:00 AM 7.25 45.05 0.171 7.13 31.01 11.4
1/4/2023 7:30:00 AM 7.24 45.032 0.171 7.12 30.73 11.42
1/4/2023 7:45:00 AM 7.22 44.996 0.171 7.12 30.62 11.43
1/4/2023 8:00:00 AM 7.21 44.978 0.172 7.12 29.17 11.43
1/4/2023 8:15:00 AM 7.2 44.96 0.173 7.12 29.81 11.43
1/4/2023 8:30:00 AM 7.2 44.96 0.175 7.12 28.54 11.41
1/4/2023 8:45:00 AM 7.21 44.978 0.176 7.12 29.35 11.41
1/4/2023 9:00:00 AM 7.21 44.978 0.175 7.12 29.08 11.43
1/4/2023 9:15:00 AM 7.21 44.978 0.171 7.12 28.38 11.46
1/4/2023 9:30:00 AM 7.21 44.978 0.169 7.12 28.08 11.48
1/4/2023 9:45:00 AM 7.22 44.996 0.169 7.12 26.77 11.5
1/4/2023 10:00:00 AM 7.23 45.014 0.168 7.12 27.03 11.51
1/4/2023 10:15:00 AM 7.25 45.05 0.169 7.13 26.33 11.51
1/4/2023 10:30:00 AM 7.28 45.104 0.172 7.14 25.65 11.49
1/4/2023 10:45:00 AM 7.31 45.158 0.173 7.14 24.97 11.48
1/4/2023 11:00:00 AM 7.33 45.194 0.171 7.14 24.76 11.5
1/4/2023 11:15:00 AM 7.35 45.23 0.169 7.14 24.13 11.52
1/4/2023 11:30:00 AM 7.38 45.284 0.167 7.14 23.68 11.53
1/4/2023 11:45:00 AM 7.43 45.374 0.167 7.16 22.86 11.54
1/4/2023 12:00:00 PM 7.47 45.446 0.166 7.16 22.87 11.55
1/4/2023 12:15:00 PM 7.51 45.518 0.167 7.17 23.55 11.55
1/4/2023 12:30:00 PM 7.56 45.608 0.169 7.16 24.69 11.53
1/4/2023 12:45:00 PM 7.6 45.68 0.172 7.17 25.46 11.49
1/4/2023 1:00:00 PM 7.64 45.752 0.174 7.17 24.99 11.46
1/4/2023 1:15:00 PM 7.66 45.788 0.171 7.17 23.62 11.46
1/4/2023 1:30:00 PM 7.68 45.824 0.169 7.17 23.03 11.47
1/4/2023 1:45:00 PM 7.71 45.878 0.167 7.17 22.63 11.48
1/4/2023 2:00:00 PM 7.74 45.932 0.167 7.16 20.68 11.46
1/4/2023 2:15:00 PM 7.77 45.986 0.168 7.17 22.11 11.45
1/4/2023 2:30:00 PM 7.8 46.04 0.169 7.17 23.7 11.43
1/4/2023 2:45:00 PM 7.84 46.112 0.173 7.17 22.65 11.39
1/4/2023 3:00:00 PM 7.88 46.184 0.176 7.17 24.33 11.35
1/4/2023 3:15:00 PM 7.91 46.238 0.174 7.17 29.08 11.35
1/4/2023 3:30:00 PM 7.93 46.274 0.172 7.17 24.42 11.35
1/4/2023 3:45:00 PM 7.95 46.31 0.17 7.16 26.15 11.35
1/4/2023 4:00:00 PM 7.97 46.346 0.17 7.16 26 11.33
1/4/2023 4:15:00 PM 7.99 46.382 0.17 7.16 25.3 11.33
1/4/2023 4:30:00 PM 8.01 46.418 0.17 7.17 23.47 11.31
1/4/2023 4:45:00 PM 8.02 46.436 0.17 7.16 23.72 11.29
1/4/2023 5:00:00 PM 8.04 46.472 0.173 7.16 23.24 11.26
1/4/2023 5:15:00 PM 8.05 46.49 0.176 7.15 26.02 11.21
1/4/2023 5:30:00 PM 8.06 46.508 0.176 7.15 26.06 11.19
1/4/2023 5:45:00 PM 8.07 46.526 0.174 7.15 23.27 11.2
1/4/2023 6:00:00 PM 8.07 46.526 0.171 7.14 23.2 11.2
1/4/2023 6:15:00 PM 8.07 46.526 0.171 7.14 23.1 11.2
1/4/2023 6:30:00 PM 8.08 46.544 0.17 7.13 22.9 11.2
1/4/2023 6:45:00 PM 8.08 46.544 0.17 7.12 22.59 11.19
1/4/2023 7:00:00 PM 8.08 46.544 0.17 7.12 23.44 11.19
1/4/2023 7:15:00 PM 8.09 46.562 0.172 7.11 22.48 11.18
1/4/2023 7:30:00 PM 8.1 46.58 0.175 7.12 22.26 11.15
1/4/2023 7:45:00 PM 8.1 46.58 0.176 7.12 22.36 11.13
1/4/2023 8:00:00 PM 8.11 46.598 0.173 7.11 22.07 11.13
1/4/2023 8:15:00 PM 8.11 46.598 0.17 7.1 22.01 11.14
1/4/2023 8:30:00 PM 8.1 46.58 0.169 7.11 21.64 11.16
1/4/2023 8:45:00 PM 8.1 46.58 0.168 7.11 22.08 11.16
1/4/2023 9:00:00 PM 8.1 46.58 0.167 7.1 23.34 11.17
1/4/2023 9:15:00 PM 8.1 46.58 0.167 7.1 23.95 11.16
1/4/2023 9:30:00 PM 8.1 46.58 0.168 7.11 23.47 11.16
1/4/2023 9:45:00 PM 8.09 46.562 0.169 7.11 23.2 11.17
1/4/2023 10:00:00 PM 8.08 46.544 0.17 7.11 23.62 11.16
1/4/2023 10:15:00 PM 8.09 46.562 0.173 7.12 23.47 11.13
1/4/2023 10:30:00 PM 8.08 46.544 0.173 7.12 22.74 11.12
1/4/2023 10:45:00 PM 8.07 46.526 0.17 7.12 22.63 11.12
1/4/2023 11:00:00 PM 8.05 46.49 0.167 7.13 22.05 11.15
1/4/2023 11:15:00 PM 8.04 46.472 0.165 7.13 21.91 11.17
1/4/2023 11:30:00 PM 8.03 46.454 0.164 7.13 21.5 11.19
1/4/2023 11:45:00 PM 8.01 46.418 0.164 7.13 22.73 11.2
1/5/2023 12:00:00 AM 8.01 46.418 0.164 7.13 22.61 11.2
1/5/2023 12:15:00 AM 7.99 46.382 0.165 7.13 24.9 11.21
1/5/2023 12:30:00 AM 7.98 46.364 0.167 7.13 38.55 11.19
1/5/2023 12:45:00 AM 7.97 46.346 0.17 7.13 22.14 11.17
1/5/2023 1:00:00 AM 7.96 46.328 0.17 7.13 22.25 11.17
1/5/2023 1:15:00 AM 7.93 46.274 0.167 7.14 22.29 11.19
1/5/2023 1:30:00 AM 7.9 46.22 0.165 7.14 21.89 11.22
1/5/2023 1:45:00 AM 7.87 46.166 0.164 7.14 21.32 11.24
1/5/2023 2:00:00 AM 7.84 46.112 0.164 7.14 21.56 11.26
1/5/2023 2:15:00 AM 7.81 46.058 0.164 7.14 19.55 11.27
1/5/2023 2:30:00 AM 7.79 46.022 0.164 7.14 21.33 11.28
1/5/2023 2:45:00 AM 7.76 45.968 0.164 7.14 20.81 11.29
1/5/2023 3:00:00 AM 7.73 45.914 0.164 7.14 20.19 11.3
1/5/2023 3:15:00 AM 7.71 45.878 0.164 7.15 20.25 11.31
1/5/2023 3:30:00 AM 7.68 45.824 0.164 7.14 19.58 11.32
1/5/2023 3:45:00 AM 7.66 45.788 0.165 7.14 19.83 11.33
1/5/2023 4:00:00 AM 7.63 45.734 0.164 7.15 19.91 11.34
1/5/2023 4:15:00 AM 7.61 45.698 0.166 7.14 20.27 11.33
1/5/2023 4:30:00 AM 7.6 45.68 0.169 7.14 20.19 11.31
1/5/2023 4:45:00 AM 7.57 45.626 0.17 7.13 19.74 11.3
1/5/2023 5:00:00 AM 7.54 45.572 0.168 7.14 19.41 11.32
1/5/2023 5:15:00 AM 7.5 45.5 0.165 7.13 19.62 11.35
1/5/2023 5:30:00 AM 7.47 45.446 0.163 7.14 20.3 11.37
1/5/2023 5:45:00 AM 7.44 45.392 0.162 7.14 19.43 11.39
1/5/2023 6:00:00 AM 7.41 45.338 0.162 7.13 20.08 11.41
1/5/2023 6:15:00 AM 7.37 45.266 0.161 7.13 18.55 11.42
1/5/2023 6:30:00 AM 7.34 45.212 0.161 7.13 15.91 11.43
1/5/2023 6:45:00 AM 7.3 45.14 0.161 7.12 18.84 11.44
1/5/2023 7:00:00 AM 7.26 45.068 0.16 7.13 18.24 11.45
1/5/2023 7:15:00 AM 7.22 44.996 0.159 7.13 17.7 11.46
1/5/2023 7:30:00 AM 7.2 44.96 0.161 7.13 17.8 11.45
1/5/2023 7:45:00 AM 7.18 44.924 0.163 7.12 17.74 11.44
1/5/2023 8:00:00 AM 7.15 44.87 0.162 7.13 18.02 11.45
1/5/2023 8:15:00 AM 7.13 44.834 0.16 7.14 17.29 11.49
1/5/2023 8:30:00 AM 7.11 44.798 0.16 7.14 16.98 11.53
1/5/2023 8:45:00 AM 7.11 44.798 0.16 7.15 16.75 11.58
1/5/2023 9:00:00 AM 7.1 44.78 0.161 7.15 16.46 11.61
1/5/2023 9:15:00 AM 7.1 44.78 0.162 7.15 15.83 11.63
1/5/2023 9:30:00 AM 7.1 44.78 0.163 7.17 16 11.67
1/5/2023 9:45:00 AM 7.11 44.798 0.163 7.17 15.77 11.71
1/5/2023 10:00:00 AM 7.14 44.852 0.165 7.18 15.31 11.74
1/5/2023 10:15:00 AM 7.18 44.924 0.168 7.2 15.44 11.75
1/5/2023 10:30:00 AM 7.2 44.96 0.168 7.21 15.36 11.77
1/5/2023 10:45:00 AM 7.22 44.996 0.166 7.22 15.08 11.8
1/5/2023 11:00:00 AM 7.21 44.978 0.163 7.22 14.9 11.81
1/5/2023 11:15:00 AM 7.23 45.014 0.162 7.23 15.01 11.83
1/5/2023 11:30:00 AM 7.27 45.086 0.161 7.24 14.56 11.87
1/5/2023 11:45:00 AM 7.3 45.14 0.16 7.25 14.35 11.88
1/5/2023 12:00:00 PM 7.37 45.266 0.16 7.27 14.31 11.9
1/5/2023 12:15:00 PM 7.45 45.41 0.161 7.29 14.55 11.95
1/5/2023 12:30:00 PM 7.51 45.518 0.161 7.3 14.62 11.97
1/5/2023 12:45:00 PM 7.54 45.572 0.163 7.31 14.54 11.96
1/5/2023 1:00:00 PM 7.59 45.662 0.166 7.32 14.24 11.95
1/5/2023 1:15:00 PM 7.62 45.716 0.168 7.32 14.52 11.92
1/5/2023 1:30:00 PM 7.69 45.842 0.167 7.33 14.03 11.93
1/5/2023 1:45:00 PM 7.74 45.932 0.165 7.35 14.2 11.95
1/5/2023 2:00:00 PM 7.78 46.004 0.163 7.35 14.07 11.95
1/5/2023 2:15:00 PM 7.84 46.112 0.162 7.36 13.95 11.95
1/5/2023 2:30:00 PM 7.89 46.202 0.162 7.36 13.94 11.92
1/5/2023 2:45:00 PM 7.91 46.238 0.163 7.37 14.19 11.91
1/5/2023 3:00:00 PM 7.89 46.202 0.162 7.36 14.19 11.86
1/5/2023 3:15:00 PM 7.88 46.184 0.163 7.35 14.28 11.84
1/5/2023 3:30:00 PM 7.89 46.202 0.166 7.34 14.24 11.81
1/5/2023 3:45:00 PM 7.9 46.22 0.168 7.33 14.06 11.73
1/5/2023 4:00:00 PM 7.91 46.238 0.167 7.31 14.78 11.69
1/5/2023 4:15:00 PM 7.91 46.238 0.165 7.3 15.76 11.66
1/5/2023 4:30:00 PM 7.89 46.202 0.162 7.29 15.51 11.63
1/5/2023 4:45:00 PM 7.87 46.166 0.16 7.28 15.4 11.6
1/5/2023 5:00:00 PM 7.85 46.13 0.159 7.28 14.79 11.58
1/5/2023 5:15:00 PM 7.82 46.076 0.157 7.26 15 11.56
1/5/2023 5:30:00 PM 7.79 46.022 0.156 7.25 14.85 11.54
1/5/2023 5:45:00 PM 7.76 45.968 0.156 7.25 14.93 11.52
1/5/2023 6:00:00 PM 7.71 45.878 0.156 7.24 14.94 11.5
1/5/2023 6:15:00 PM 7.67 45.806 0.157 7.23 14.91 11.48
1/5/2023 6:30:00 PM 7.63 45.734 0.16 7.22 14.99 11.46
1/5/2023 6:45:00 PM 7.59 45.662 0.161 7.22 14.77 11.44
1/5/2023 7:00:00 PM 7.56 45.608 0.161 7.21 14.63 11.44
1/5/2023 7:15:00 PM 7.51 45.518 0.159 7.21 15.02 11.45
1/5/2023 7:30:00 PM 7.47 45.446 0.158 7.2 14.97 11.46
1/5/2023 7:45:00 PM 7.43 45.374 0.158 7.19 14.81 11.47
1/5/2023 8:00:00 PM 7.39 45.302 0.158 7.18 14.8 11.47
1/5/2023 8:15:00 PM 7.34 45.212 0.159 7.17 14.73 11.48
1/5/2023 8:30:00 PM 7.29 45.122 0.159 7.17 15.05 11.48
1/5/2023 8:45:00 PM 7.23 45.014 0.16 7.16 15.11 11.49
1/5/2023 9:00:00 PM 7.19 44.942 0.162 7.16 14.92 11.49
1/5/2023 9:15:00 PM 7.14 44.852 0.164 7.16 15.07 11.48
1/5/2023 9:30:00 PM 7.09 44.762 0.163 7.16 14.94 11.5
1/5/2023 9:45:00 PM 7.03 44.654 0.161 7.15 15.29 11.52
1/5/2023 10:00:00 PM 6.97 44.546 0.159 7.15 15.77 11.54
1/5/2023 10:15:00 PM 6.92 44.456 0.158 7.15 16.44 11.56
1/5/2023 10:30:00 PM 6.86 44.348 0.158 7.14 16.17 11.57
1/5/2023 10:45:00 PM 6.8 44.24 0.158 7.14 15.34 11.59
1/5/2023 11:00:00 PM 6.74 44.132 0.158 7.14 15.28 11.6
1/5/2023 11:15:00 PM 6.7 44.06 0.158 7.14 14.9 11.62
1/5/2023 11:30:00 PM 6.65 43.97 0.158 7.14 14.75 11.63
1/5/2023 11:45:00 PM 6.62 43.916 0.16 7.13 14.7 11.63
1/6/2023 12:00:00 AM 6.59 43.862 0.162 7.14 14.87 11.63
1/6/2023 12:15:00 AM 6.56 43.808 0.163 7.14 14.73 11.64
1/6/2023 12:30:00 AM 6.53 43.754 0.162 7.14 14.54 11.65
1/6/2023 12:45:00 AM 6.49 43.682 0.16 7.15 14.36 11.68
1/6/2023 1:00:00 AM 6.46 43.628 0.159 7.14 14.14 11.69
1/6/2023 1:15:00 AM 6.42 43.556 0.158 7.14 13.88 11.7
1/6/2023 1:30:00 AM 6.39 43.502 0.158 7.15 14.17 11.72
1/6/2023 1:45:00 AM 6.37 43.466 0.158 7.14 14.02 11.73
1/6/2023 2:00:00 AM 6.35 43.43 0.158 7.14 14.05 11.74
1/6/2023 2:15:00 AM 6.33 43.394 0.158 7.15 14.15 11.74
1/6/2023 2:30:00 AM 6.32 43.376 0.16 7.15 13.99 11.74
1/6/2023 2:45:00 AM 6.31 43.358 0.162 7.15 13.76 11.73
1/6/2023 3:00:00 AM 6.31 43.358 0.163 7.16 13.91 11.73
1/6/2023 3:15:00 AM 6.3 43.34 0.161 7.16 13.82 11.74
1/6/2023 3:30:00 AM 6.27 43.286 0.159 7.16 13.81 11.76
1/6/2023 3:45:00 AM 6.26 43.268 0.157 7.16 13.66 11.77
1/6/2023 4:00:00 AM 6.24 43.232 0.157 7.16 13.51 11.77
1/6/2023 4:15:00 AM 6.23 43.214 0.157 7.16 13.68 11.78
1/6/2023 4:30:00 AM 6.22 43.196 0.157 7.16 13.6 11.79
1/6/2023 4:45:00 AM 6.21 43.178 0.157 7.16 13.37 11.79
1/6/2023 5:00:00 AM 6.21 43.178 0.157 7.16 13.28 11.79
1/6/2023 5:15:00 AM 6.22 43.196 0.158 7.17 13.43 11.78
1/6/2023 5:30:00 AM 6.23 43.214 0.16 7.16 13.6 11.77
1/6/2023 5:45:00 AM 6.24 43.232 0.16 7.17 12.81 11.77
1/6/2023 6:00:00 AM 6.24 43.232 0.159 7.19 13.12 11.78
1/6/2023 6:15:00 AM 6.23 43.214 0.157 7.17 13.2 11.79
1/6/2023 6:30:00 AM 6.21 43.178 0.155 7.18 12.88 11.8
1/6/2023 6:45:00 AM 6.21 43.178 0.155 7.18 13.02 11.81
1/6/2023 7:00:00 AM 6.2 43.16 0.155 7.18 12.89 11.81
1/6/2023 7:15:00 AM 6.19 43.142 0.155 7.19 12.89 11.82
1/6/2023 7:30:00 AM 6.19 43.142 0.154 7.19 12.51 11.82
1/6/2023 7:45:00 AM 6.19 43.142 0.154 7.2 12.64 11.83
1/6/2023 8:00:00 AM 6.19 43.142 0.156 7.2 12.6 11.83
1/6/2023 8:15:00 AM 6.21 43.178 0.158 7.2 12.4 11.84
1/6/2023 8:30:00 AM 6.21 43.178 0.157 7.21 12.09 11.86
1/6/2023 8:45:00 AM 6.21 43.178 0.156 7.23 12.11 11.92
1/6/2023 9:00:00 AM 6.22 43.196 0.154 7.24 11.76 11.99
1/6/2023 9:15:00 AM 6.24 43.232 0.153 7.26 11.68 12.07
1/6/2023 9:30:00 AM 6.25 43.25 0.153 7.27 11.32 12.12
1/6/2023 9:45:00 AM 6.25 43.25 0.153 7.28 11.16 12.16
1/6/2023 10:00:00 AM 6.26 43.268 0.153 7.29 11.36 12.2
1/6/2023 10:15:00 AM 6.28 43.304 0.153 7.31 11.36 12.24
1/6/2023 10:30:00 AM 6.3 43.34 0.153 7.33 11.28 12.25
1/6/2023 10:45:00 AM 6.33 43.394 0.155 7.33 10.86 12.26
1/6/2023 11:00:00 AM 6.35 43.43 0.157 7.35 10.65 12.27
1/6/2023 11:15:00 AM 6.36 43.448 0.157 7.35 10.55 12.26
1/6/2023 11:30:00 AM 6.37 43.466 0.155 7.36 10.42 12.27
1/6/2023 11:45:00 AM 6.36 43.448 0.154 7.35 10.43 12.27
1/6/2023 12:00:00 PM 6.36 43.448 0.153 7.34 10.63 12.25
1/6/2023 12:15:00 PM 6.37 43.466 0.153 7.36 10.64 12.28
1/6/2023 12:30:00 PM 6.38 43.484 0.153 7.37 10.84 12.31
1/6/2023 12:45:00 PM 6.4 43.52 0.153 7.38 10.82 12.33
1/6/2023 1:00:00 PM 6.41 43.538 0.153 7.37 10.92 12.35
1/6/2023 1:15:00 PM 6.4 43.52 0.154 7.37 10.93 12.33
1/6/2023 1:30:00 PM 6.41 43.538 0.156 7.38 10.85 12.31
1/6/2023 1:45:00 PM 6.42 43.556 0.158 7.38 10.71 12.29
1/6/2023 2:00:00 PM 6.4 43.52 0.157 7.37 10.51 12.28
1/6/2023 2:15:00 PM 6.39 43.502 0.155 7.37 10.55 12.28
1/6/2023 2:30:00 PM 6.38 43.484 0.154 7.37 10.33 12.31
1/6/2023 2:45:00 PM 6.37 43.466 0.153 7.38 10.25 12.31
1/6/2023 3:00:00 PM 6.35 43.43 0.153 7.37 10.24 12.29
1/6/2023 3:15:00 PM 6.33 43.394 0.153 7.35 10.81 12.24
1/6/2023 3:30:00 PM 6.32 43.376 0.153 7.34 10.61 12.2
1/6/2023 3:45:00 PM 6.31 43.358 0.153 7.33 10.84 12.18
1/6/2023 4:00:00 PM 6.3 43.34 0.155 7.32 11.05 12.16
1/6/2023 4:15:00 PM 6.29 43.322 0.157 7.31 11.32 12.14
1/6/2023 4:30:00 PM 6.29 43.322 0.159 7.3 11.34 12.09
1/6/2023 4:45:00 PM 6.27 43.286 0.158 7.29 10.98 12.06
1/6/2023 5:00:00 PM 6.25 43.25 0.156 7.28 11.33 12.06
1/6/2023 5:15:00 PM 6.22 43.196 0.154 7.27 10.8 12.04
1/6/2023 5:30:00 PM 6.19 43.142 0.154 7.26 11.16 12.03
1/6/2023 5:45:00 PM 6.16 43.088 0.154 7.26 11.07 12.03
1/6/2023 6:00:00 PM 6.14 43.052 0.154 7.25 11.04 12.02
1/6/2023 6:15:00 PM 6.12 43.016 0.154 7.25 11.44 12.01
1/6/2023 6:30:00 PM 6.1 42.98 0.154 7.24 11.15 12.01
1/6/2023 6:45:00 PM 6.09 42.962 0.155 7.24 11.44 12
1/6/2023 7:00:00 PM 6.08 42.944 0.157 7.23 11.21 11.98
1/6/2023 7:15:00 PM 6.07 42.926 0.159 7.23 11.65 11.97
1/6/2023 7:30:00 PM 6.05 42.89 0.158 7.23 11.34 11.97
1/6/2023 7:45:00 PM 6.03 42.854 0.156 7.23 11.34 11.99
1/6/2023 8:00:00 PM 6 42.8 0.155 7.22 11.36 12
1/6/2023 8:15:00 PM 5.98 42.764 0.154 7.22 11.1 12
1/6/2023 8:30:00 PM 5.96 42.728 0.154 7.21 11.29 12
1/6/2023 8:45:00 PM 5.94 42.692 0.155 7.21 11.34 12.01
1/6/2023 9:00:00 PM 5.93 42.674 0.154 7.21 11.77 12.01
1/6/2023 9:15:00 PM 5.91 42.638 0.154 7.22 12.33 12.02
1/6/2023 9:30:00 PM 5.9 42.62 0.156 7.22 12.65 12.01
1/6/2023 9:45:00 PM 5.9 42.62 0.158 7.21 12.85 12
1/6/2023 10:00:00 PM 5.89 42.602 0.159 7.22 12.66 12
1/6/2023 10:15:00 PM 5.89 42.602 0.158 7.22 12.36 12.01
1/6/2023 10:30:00 PM 5.87 42.566 0.156 7.22 11.88 12.02
1/6/2023 10:45:00 PM 5.85 42.53 0.155 7.21 12.38 12.03
1/6/2023 11:00:00 PM 5.84 42.512 0.155 7.21 12.07 12.03
1/6/2023 11:15:00 PM 5.82 42.476 0.155 7.21 11.9 12.04
1/6/2023 11:30:00 PM 5.82 42.476 0.155 7.2 12.08 12.04
1/6/2023 11:45:00 PM 5.79 42.422 0.154 7.21 11.82 12.04
1/7/2023 12:00:00 AM 5.78 42.404 0.155 7.21 11.78 12.04
1/7/2023 12:15:00 AM 5.78 42.404 0.156 7.2 11.47 12.04
1/7/2023 12:30:00 AM 5.78 42.404 0.158 7.21 11.48 12.03
1/7/2023 12:45:00 AM 5.78 42.404 0.158 7.21 11.44 12.03
1/7/2023 1:00:00 AM 5.77 42.386 0.157 7.21 11.55 12.04
1/7/2023 1:15:00 AM 5.75 42.35 0.156 7.22 11.23 12.05
1/7/2023 1:30:00 AM 5.73 42.314 0.155 7.2 11.46 12.06
1/7/2023 1:45:00 AM 5.72 42.296 0.154 7.21 11.38 12.06
1/7/2023 2:00:00 AM 5.71 42.278 0.155 7.21 11.07 12.07
1/7/2023 2:15:00 AM 5.69 42.242 0.154 7.21 11.17 12.07
1/7/2023 2:30:00 AM 5.68 42.224 0.154 7.2 11.08 12.07
1/7/2023 2:45:00 AM 5.67 42.206 0.154 7.21 11.22 12.07
1/7/2023 3:00:00 AM 5.68 42.224 0.156 7.21 11.07 12.07
1/7/2023 3:15:00 AM 5.67 42.206 0.157 7.22 11.69 12.06
1/7/2023 3:30:00 AM 5.67 42.206 0.157 7.21 11.63 12.06
1/7/2023 3:45:00 AM 5.65 42.17 0.155 7.21 11.79 12.07
1/7/2023 4:00:00 AM 5.63 42.134 0.154 7.21 11.59 12.09
1/7/2023 4:15:00 AM 5.61 42.098 0.153 7.21 11.89 12.09
1/7/2023 4:30:00 AM 5.6 42.08 0.153 7.21 11.36 12.09
1/7/2023 4:45:00 AM 5.59 42.062 0.153 7.21 11.33 12.1
1/7/2023 5:00:00 AM 5.58 42.044 0.152 7.21 10.88 12.1
1/7/2023 5:15:00 AM 5.58 42.044 0.152 7.21 11.01 12.11
1/7/2023 5:30:00 AM 5.57 42.026 0.152 7.21 11.1 12.11
1/7/2023 5:45:00 AM 5.57 42.026 0.154 7.21 10.71 12.1
1/7/2023 6:00:00 AM 5.58 42.044 0.155 7.22 10.79 12.1
1/7/2023 6:15:00 AM 5.58 42.044 0.155 7.22 10.68 12.1
1/7/2023 6:30:00 AM 5.58 42.044 0.154 7.22 10.64 12.1
1/7/2023 6:45:00 AM 5.56 42.008 0.152 7.21 10.53 12.11
1/7/2023 7:00:00 AM 5.55 41.99 0.152 7.21 10.58 12.12
1/7/2023 7:15:00 AM 5.54 41.972 0.151 7.21 10.73 12.12
1/7/2023 7:30:00 AM 5.54 41.972 0.151 7.21 10.65 12.13
1/7/2023 7:45:00 AM 5.53 41.954 0.151 7.22 10.7 12.13
1/7/2023 8:00:00 AM 5.53 41.954 0.15 7.21 10.98 12.14
1/7/2023 8:15:00 AM 5.52 41.936 0.151 7.22 10.7 12.15
1/7/2023 8:30:00 AM 5.51 41.918 0.153 7.23 10.34 12.16
1/7/2023 8:45:00 AM 5.51 41.918 0.154 7.23 10.3 12.18
1/7/2023 9:00:00 AM 5.49 41.882 0.153 7.24 9.96 12.21
1/7/2023 9:15:00 AM 5.47 41.846 0.152 7.25 9.81 12.24
1/7/2023 9:30:00 AM 5.46 41.828 0.15 7.24 9.67 12.29
1/7/2023 9:45:00 AM 5.45 41.81 0.15 7.26 9.43 12.32
1/7/2023 10:00:00 AM 5.43 41.774 0.149 7.27 9.4 12.38
1/7/2023 10:15:00 AM 5.43 41.774 0.149 7.28 9.18 12.44
1/7/2023 10:30:00 AM 5.46 41.828 0.149 7.31 9.61 12.53
1/7/2023 10:45:00 AM 5.49 41.882 0.148 7.33 9.16 12.61
1/7/2023 11:00:00 AM 5.52 41.936 0.149 7.35 9.13 12.66
1/7/2023 11:15:00 AM 5.56 42.008 0.151 7.37 9.01 12.7
1/7/2023 11:30:00 AM 5.6 42.08 0.152 7.4 8.91 12.74
1/7/2023 11:45:00 AM 5.63 42.134 0.151 7.41 8.81 12.77
1/7/2023 12:00:00 PM 5.65 42.17 0.15 7.43 8.76 12.81
1/7/2023 12:15:00 PM 5.68 42.224 0.149 7.45 8.86 12.84
1/7/2023 12:30:00 PM 5.7 42.26 0.149 7.47 8.81 12.87
1/7/2023 12:45:00 PM 5.74 42.332 0.149 7.49 8.83 12.9
1/7/2023 1:00:00 PM 5.78 42.404 0.148 7.51 8.79 12.93
1/7/2023 1:15:00 PM 5.81 42.458 0.148 7.51 8.62 12.93
1/7/2023 1:30:00 PM 5.85 42.53 0.148 7.53 8.95 12.93
1/7/2023 1:45:00 PM 5.87 42.566 0.15 7.54 8.7 12.91
1/7/2023 2:00:00 PM 5.92 42.656 0.152 7.54 8.82 12.9
1/7/2023 2:15:00 PM 5.95 42.71 0.153 7.55 9 12.89
1/7/2023 2:30:00 PM 5.97 42.746 0.152 7.54 9.78 12.87
1/7/2023 2:45:00 PM 5.99 42.782 0.151 7.54 11.55 12.84
1/7/2023 3:00:00 PM 5.99 42.782 0.15 7.53 13.49 12.8
1/7/2023 3:15:00 PM 6 42.8 0.15 7.52 13.37 12.78
1/7/2023 3:30:00 PM 5.99 42.782 0.15 7.51 13.73 12.72
1/7/2023 3:45:00 PM 5.99 42.782 0.15 7.48 13.52 12.66
1/7/2023 4:00:00 PM 5.99 42.782 0.15 7.46 14.8 12.6
1/7/2023 4:15:00 PM 5.98 42.764 0.15 7.44 15.44 12.56
1/7/2023 4:30:00 PM 5.97 42.746 0.152 7.44 15.21 12.54
1/7/2023 4:45:00 PM 5.97 42.746 0.154 7.42 14.21 12.49
1/7/2023 5:00:00 PM 5.97 42.746 0.154 7.4 13.1 12.44
1/7/2023 5:15:00 PM 5.95 42.71 0.154 7.38 11.8 12.41
1/7/2023 5:30:00 PM 5.93 42.674 0.153 7.37 11.26 12.37
1/7/2023 5:45:00 PM 5.91 42.638 0.152 7.35 10.95 12.34
1/7/2023 6:00:00 PM 5.89 42.602 0.152 7.34 10.63 12.31
1/7/2023 6:15:00 PM 5.87 42.566 0.152 7.33 10.87 12.29
1/7/2023 6:30:00 PM 5.84 42.512 0.152 7.32 10.8 12.27
1/7/2023 6:45:00 PM 5.81 42.458 0.152 7.31 10.7 12.25
1/7/2023 7:00:00 PM 5.78 42.404 0.152 7.3 11.56 12.24
1/7/2023 7:15:00 PM 5.75 42.35 0.154 7.29 14.54 12.22
1/7/2023 7:30:00 PM 5.74 42.332 0.157 7.29 16.04 12.2
1/7/2023 7:45:00 PM 5.72 42.296 0.157 7.28 14.44 12.2
1/7/2023 8:00:00 PM 5.71 42.278 0.156 7.28 12.89 12.2
1/7/2023 8:15:00 PM 5.68 42.224 0.154 7.27 12.25 12.2
1/7/2023 8:30:00 PM 5.66 42.188 0.153 7.26 14.04 12.21
1/7/2023 8:45:00 PM 5.64 42.152 0.153 7.26 20.16 12.2
1/7/2023 9:00:00 PM 5.62 42.116 0.153 7.26 24.62 12.21
1/7/2023 9:15:00 PM 5.6 42.08 0.152 7.25 24.15 12.21
1/7/2023 9:30:00 PM 5.58 42.044 0.152 7.25 27.11 12.21
1/7/2023 9:45:00 PM 5.57 42.026 0.152 7.25 16.09 12.21
1/7/2023 10:00:00 PM 5.56 42.008 0.154 7.25 14.28 12.2
1/7/2023 10:15:00 PM 5.55 41.99 0.155 7.25 13.77 12.19
1/7/2023 10:30:00 PM 5.54 41.972 0.156 7.25 12.82 12.19
1/7/2023 10:45:00 PM 5.53 41.954 0.155 7.25 12.85 12.19
1/7/2023 11:00:00 PM 5.5 41.9 0.154 7.25 12.09 12.2
1/7/2023 11:15:00 PM 5.48 41.864 0.153 7.23 11.61 12.21
1/7/2023 11:30:00 PM 5.45 41.81 0.153 7.23 11.27 12.22
1/7/2023 11:45:00 PM 5.42 41.756 0.153 7.24 10.89 12.22
1/8/2023 12:00:00 AM 5.4 41.72 0.152 7.23 10.59 12.23
1/8/2023 12:15:00 AM 5.38 41.684 0.152 7.24 10.62 12.24
1/8/2023 12:30:00 AM 5.37 41.666 0.152 7.23 10.33 12.24
1/8/2023 12:45:00 AM 5.36 41.648 0.154 7.24 10.11 12.24
1/8/2023 1:00:00 AM 5.36 41.648 0.156 7.23 10.15 12.23
1/8/2023 1:15:00 AM 5.34 41.612 0.156 7.24 10.23 12.23
1/8/2023 1:30:00 AM 5.32 41.576 0.155 7.24 9.91 12.24
1/8/2023 1:45:00 AM 5.3 41.54 0.154 7.23 9.86 12.25
1/8/2023 2:00:00 AM 5.27 41.486 0.153 7.23 10 12.26
1/8/2023 2:15:00 AM 5.25 41.45 0.153 7.23 10.17 12.26
1/8/2023 2:30:00 AM 5.24 41.432 0.152 7.23 9.93 12.28
1/8/2023 2:45:00 AM 5.22 41.396 0.152 7.22 10.1 12.28
1/8/2023 3:00:00 AM 5.21 41.378 0.152 7.22 10.05 12.29
1/8/2023 3:15:00 AM 5.2 41.36 0.152 7.24 10.16 12.29
1/8/2023 3:30:00 AM 5.18 41.324 0.154 7.22 10.02 12.29
1/8/2023 3:45:00 AM 5.18 41.324 0.155 7.22 9.91 12.29
1/8/2023 4:00:00 AM 5.16 41.288 0.155 7.24 9.94 12.29
1/8/2023 4:15:00 AM 5.15 41.27 0.154 7.23 10.08 12.3
1/8/2023 4:30:00 AM 5.13 41.234 0.154 7.23 10.38 12.3
1/8/2023 4:45:00 AM 5.11 41.198 0.153 7.23 10.46 12.31
1/8/2023 5:00:00 AM 5.09 41.162 0.153 7.23 10.14 12.32
1/8/2023 5:15:00 AM 5.07 41.126 0.152 7.23 9.92 12.33
1/8/2023 5:30:00 AM 5.05 41.09 0.152 7.23 9.91 12.33
1/8/2023 5:45:00 AM 5.04 41.072 0.151 7.23 9.82 12.34
1/8/2023 6:00:00 AM 5.03 41.054 0.152 7.23 9.96 12.34
1/8/2023 6:15:00 AM 5.02 41.036 0.154 7.24 9.87 12.34
1/8/2023 6:30:00 AM 5.02 41.036 0.155 7.24 9.96 12.33
1/8/2023 6:45:00 AM 5.02 41.036 0.155 7.24 10.07 12.34
1/8/2023 7:00:00 AM 5 41 0.154 7.25 9.74 12.35
1/8/2023 7:15:00 AM 4.98 40.964 0.153 7.25 9.9 12.35
1/8/2023 7:30:00 AM 4.96 40.928 0.152 7.25 9.67 12.36
1/8/2023 7:45:00 AM 4.95 40.91 0.152 7.25 9.6 12.36
1/8/2023 8:00:00 AM 4.94 40.892 0.151 7.26 9.69 12.39
1/8/2023 8:15:00 AM 4.93 40.874 0.151 7.26 9.19 12.42
1/8/2023 8:30:00 AM 4.92 40.856 0.151 7.26 9.14 12.45
1/8/2023 8:45:00 AM 4.92 40.856 0.152 7.28 8.99 12.5
1/8/2023 9:00:00 AM 4.93 40.874 0.153 7.3 8.68 12.54
1/8/2023 9:15:00 AM 4.94 40.892 0.154 7.3 8.72 12.6
1/8/2023 9:30:00 AM 4.94 40.892 0.154 7.33 8.54 12.66
1/8/2023 9:45:00 AM 4.95 40.91 0.153 7.35 8.61 12.73
1/8/2023 10:00:00 AM 4.96 40.928 0.152 7.37 8.55 12.82
1/8/2023 10:15:00 AM 4.97 40.946 0.152 7.4 8.19 12.88
1/8/2023 10:30:00 AM 4.98 40.964 0.151 7.41 8.49 12.93
1/8/2023 10:45:00 AM 4.98 40.964 0.15 7.43 8.25 12.98
1/8/2023 11:00:00 AM 5.01 41.018 0.15 7.46 8.32 13.04
1/8/2023 11:15:00 AM 5.02 41.036 0.15 7.48 8.25 13.1
1/8/2023 11:30:00 AM 5.05 41.09 0.151 7.49 8.32 13.11
1/8/2023 11:45:00 AM 5.07 41.126 0.153 7.51 8.41 13.11
1/8/2023 12:00:00 PM 5.1 41.18 0.154 7.52 8.21 13.14
1/8/2023 12:15:00 PM 5.14 41.252 0.153 7.54 8.29 13.19
1/8/2023 12:30:00 PM 5.19 41.342 0.152 7.59 8.31 13.24
1/8/2023 12:45:00 PM 5.24 41.432 0.152 7.62 8.07 13.28
1/8/2023 1:00:00 PM 5.29 41.522 0.151 7.63 8.04 13.3
1/8/2023 1:15:00 PM 5.31 41.558 0.151 7.65 8.3 13.32
1/8/2023 1:30:00 PM 5.35 41.63 0.15 7.66 8.34 13.31
1/8/2023 1:45:00 PM 5.38 41.684 0.149 7.66 8.98 13.29
1/8/2023 2:00:00 PM 5.42 41.756 0.15 7.66 9.83 13.26
1/8/2023 2:15:00 PM 5.47 41.846 0.151 7.64 10.78 13.22
1/8/2023 2:30:00 PM 5.5 41.9 0.147 7.62 11.65 13.17
1/8/2023 2:45:00 PM 5.5 41.9 0.141 7.57 13.16 13.07
1/8/2023 3:00:00 PM 5.49 41.882 0.137 7.5 19.12 12.91
1/8/2023 3:15:00 PM 5.49 41.882 0.136 7.42 29.63 12.73
1/8/2023 3:30:00 PM 5.48 41.864 0.135 7.38 31.31 12.63
1/8/2023 3:45:00 PM 5.46 41.828 0.134 7.36 34.65 12.6
1/8/2023 4:00:00 PM 5.43 41.774 0.133 7.33 33.76 12.57
1/8/2023 4:15:00 PM 5.41 41.738 0.133 7.33 33.17 12.56
1/8/2023 4:30:00 PM 5.4 41.72 0.134 7.32 33.9 12.53
1/8/2023 4:45:00 PM 5.39 41.702 0.136 7.31 33.4 12.5
1/8/2023 5:00:00 PM 5.38 41.684 0.138 7.31 31.88 12.48
1/8/2023 5:15:00 PM 5.37 41.666 0.139 7.3 29.96 12.46
1/8/2023 5:30:00 PM 5.35 41.63 0.138 7.3 28.94 12.44
1/8/2023 5:45:00 PM 5.33 41.594 0.138 7.29 27.26 12.43
1/8/2023 6:00:00 PM 5.32 41.576 0.139 7.28 26.28 12.42
1/8/2023 6:15:00 PM 5.3 41.54 0.139 7.28 25.33 12.4
1/8/2023 6:30:00 PM 5.27 41.486 0.139 7.27 23.75 12.39
1/8/2023 6:45:00 PM 5.25 41.45 0.139 7.27 23.22 12.38
1/8/2023 7:00:00 PM 5.22 41.396 0.14 7.26 22.32 12.37
1/8/2023 7:15:00 PM 5.18 41.324 0.142 7.25 22.03 12.36
1/8/2023 7:30:00 PM 5.16 41.288 0.144 7.25 21.22 12.34
1/8/2023 7:45:00 PM 5.12 41.216 0.148 7.26 20.4 12.33
1/8/2023 8:00:00 PM 5.09 41.162 0.152 7.26 17.56 12.31
1/8/2023 8:15:00 PM 5.06 41.108 0.157 7.27 19.07 12.31
1/8/2023 8:30:00 PM 5.03 41.054 0.162 7.28 19.01 12.3
1/8/2023 8:45:00 PM 5 41 0.167 7.29 19.1 12.29
1/8/2023 9:00:00 PM 4.97 40.946 0.172 7.3 18.33 12.29
1/8/2023 9:15:00 PM 4.93 40.874 0.175 7.31 18.4 12.3
1/8/2023 9:30:00 PM 4.9 40.82 0.178 7.32 19.19 12.3
1/8/2023 9:45:00 PM 4.87 40.766 0.179 7.32 21.49 12.3
1/8/2023 10:00:00 PM 4.83 40.694 0.18 7.31 23.29 12.3
1/8/2023 10:15:00 PM 4.81 40.658 0.18 7.32 24.48 12.31
1/8/2023 10:30:00 PM 4.78 40.604 0.181 7.32 23.12 12.31
1/8/2023 10:45:00 PM 4.76 40.568 0.182 7.32 20.82 12.31
1/8/2023 11:00:00 PM 4.74 40.532 0.183 7.32 18.85 12.31
1/8/2023 11:15:00 PM 4.72 40.496 0.183 7.32 17.16 12.31
1/8/2023 11:30:00 PM 4.71 40.478 0.182 7.33 15.97 12.32
1/8/2023 11:45:00 PM 4.68 40.424 0.181 7.35 14.29 12.33
1/9/2023 12:00:00 AM 4.59 40.262 0.179 7.32 13.77 12.34
1/9/2023 12:15:00 AM 4.54 40.172 0.179 7.32 13.03 12.34
1/9/2023 12:30:00 AM 4.51 40.118 0.178 7.31 12.34 12.35
1/9/2023 12:45:00 AM 4.47 40.046 0.177 7.31 11.91 12.36
1/9/2023 1:00:00 AM 4.46 40.028 0.178 7.31 11.74 12.36
1/9/2023 1:15:00 AM 4.46 40.028 0.18 7.33 11.45 12.37
1/9/2023 1:30:00 AM 4.45 40.01 0.182 7.33 11.19 12.36
1/9/2023 1:45:00 AM 4.44 39.992 0.184 7.32 10.91 12.37
1/9/2023 2:00:00 AM 4.43 39.974 0.183 7.33 11 12.37
1/9/2023 2:15:00 AM 4.41 39.938 0.183 7.33 10.61 12.38
1/9/2023 2:30:00 AM 4.38 39.884 0.182 7.33 10.12 12.39
1/9/2023 2:45:00 AM 4.35 39.83 0.182 7.33 9.98 12.4
1/9/2023 3:00:00 AM 4.33 39.794 0.182 7.32 9.82 12.41
1/9/2023 3:15:00 AM 4.3 39.74 0.182 7.32 9.91 12.42
1/9/2023 3:30:00 AM 4.28 39.704 0.184 7.33 9.82 12.42
1/9/2023 3:45:00 AM 4.27 39.686 0.187 7.32 9.61 12.42
1/9/2023 4:00:00 AM 4.26 39.668 0.191 7.33 9.45 12.41
1/9/2023 4:15:00 AM 4.26 39.668 0.195 7.33 9.5 12.4
1/9/2023 4:30:00 AM 4.27 39.686 0.197 7.34 9.45 12.4
1/9/2023 4:45:00 AM 4.27 39.686 0.197 7.34 9.35 12.4
1/9/2023 5:00:00 AM 4.27 39.686 0.197 7.34 9.29 12.4
1/9/2023 5:15:00 AM 4.27 39.686 0.197 7.35 9.07 12.4
1/9/2023 5:30:00 AM 4.26 39.668 0.196 7.34 9.05 12.41
1/9/2023 5:45:00 AM 4.26 39.668 0.196 7.34 9.15 12.42
1/9/2023 6:00:00 AM 4.25 39.65 0.196 7.35 9.08 12.42
1/9/2023 6:15:00 AM 4.24 39.632 0.195 7.35 8.93 12.43
1/9/2023 6:30:00 AM 4.22 39.596 0.196 7.34 8.99 12.43
1/9/2023 6:45:00 AM 4.22 39.596 0.197 7.34 8.97 12.42
1/9/2023 7:00:00 AM 4.22 39.596 0.198 7.35 8.93 12.42
1/9/2023 7:15:00 AM 4.23 39.614 0.198 7.36 8.92 12.42
1/9/2023 7:30:00 AM 4.22 39.596 0.197 7.35 9.01 12.43
1/9/2023 7:45:00 AM 4.21 39.578 0.196 7.35 8.58 12.45
1/9/2023 8:00:00 AM 4.21 39.578 0.195 7.35 8.87 12.46
1/9/2023 8:15:00 AM 4.2 39.56 0.194 7.37 8.42 12.5
1/9/2023 8:30:00 AM 4.19 39.542 0.193 7.37 8.42 12.54
1/9/2023 8:45:00 AM 4.16 39.488 0.192 7.38 8.59 12.61
1/9/2023 9:00:00 AM 4.15 39.47 0.191 7.4 8.15 12.68
1/9/2023 9:15:00 AM 4.14 39.452 0.191 7.41 8.1 12.76
1/9/2023 9:30:00 AM 4.14 39.452 0.191 7.44 7.69 12.85
1/9/2023 9:45:00 AM 4.16 39.488 0.192 7.46 7.6 12.94
1/9/2023 10:00:00 AM 4.18 39.524 0.192 7.49 7.72 13.05
1/9/2023 10:15:00 AM 4.21 39.578 0.191 7.52 7.4 13.16
1/9/2023 10:30:00 AM 4.27 39.686 0.189 7.57 7.3 13.27
1/9/2023 10:45:00 AM 4.35 39.83 0.187 7.6 7.14 13.38
1/9/2023 11:00:00 AM 4.38 39.884 0.184 7.65 7.21 13.44
1/9/2023 11:15:00 AM 4.41 39.938 0.182 7.67 7.09 13.48
1/9/2023 11:30:00 AM 4.41 39.938 0.18 7.69 7.19 13.51
1/9/2023 11:45:00 AM 4.41 39.938 0.179 7.7 7.01 13.52
1/9/2023 12:00:00 PM 4.43 39.974 0.18 7.71 6.98 13.54
1/9/2023 12:15:00 PM 4.48 40.064 0.181 7.73 6.84 13.56
1/9/2023 12:30:00 PM 4.53 40.154 0.182 7.75 6.99 13.57
1/9/2023 12:45:00 PM 4.57 40.226 0.182 7.77 6.98 13.58
1/9/2023 1:00:00 PM 4.59 40.262 0.182 7.78 7.05 13.58
1/9/2023 1:15:00 PM 4.63 40.334 0.181 7.79 6.99 13.58
1/9/2023 1:30:00 PM 4.7 40.46 0.181 7.81 7.18 13.58
1/9/2023 1:45:00 PM 4.78 40.604 0.181 7.82 7.1 13.57
1/9/2023 2:00:00 PM 4.85 40.73 0.181 7.84 7.25 13.56
1/9/2023 2:15:00 PM 4.9 40.82 0.18 7.84 7.1 13.53
1/9/2023 2:30:00 PM 4.92 40.856 0.179 7.84 7.08 13.5
1/9/2023 2:45:00 PM 4.93 40.874 0.179 7.84 7.18 13.47
1/9/2023 3:00:00 PM 4.92 40.856 0.18 7.82 7.29 13.43
1/9/2023 3:15:00 PM 4.92 40.856 0.181 7.81 7.04 13.39
1/9/2023 3:30:00 PM 4.9 40.82 0.181 7.79 7.08 13.35
1/9/2023 3:45:00 PM 4.86 40.748 0.18 7.77 7.01 13.31
1/9/2023 4:00:00 PM 4.81 40.658 0.18 7.75 7.08 13.25
1/9/2023 4:15:00 PM 4.76 40.568 0.179 7.72 7.21 13.2
1/9/2023 4:30:00 PM 4.71 40.478 0.179 7.68 7.32 13.14
1/9/2023 4:45:00 PM 4.66 40.388 0.178 7.64 7.44 13.07
1/9/2023 5:00:00 PM 4.62 40.316 0.177 7.62 7.49 12.99
1/9/2023 5:15:00 PM 4.58 40.244 0.177 7.59 7.68 12.92
1/9/2023 5:30:00 PM 4.56 40.208 0.178 7.56 7.72 12.85
1/9/2023 5:45:00 PM 4.54 40.172 0.18 7.54 7.77 12.79
1/9/2023 6:00:00 PM 4.53 40.154 0.182 7.52 8.01 12.73
1/9/2023 6:15:00 PM 4.52 40.136 0.182 7.51 8.09 12.68
1/9/2023 6:30:00 PM 4.5 40.1 0.182 7.49 8.48 12.64
1/9/2023 6:45:00 PM 4.47 40.046 0.182 7.47 8.86 12.61
1/9/2023 7:00:00 PM 4.46 40.028 0.181 7.46 9.86 12.59
1/9/2023 7:15:00 PM 4.44 39.992 0.18 7.45 10.17 12.57
1/9/2023 7:30:00 PM 4.41 39.938 0.179 7.44 10.04 12.55
1/9/2023 7:45:00 PM 4.37 39.866 0.178 7.43 9.68 12.55
1/9/2023 8:00:00 PM 4.35 39.83 0.178 7.43 9.33 12.54
1/9/2023 8:15:00 PM 4.33 39.794 0.179 7.42 8.95 12.54
1/9/2023 8:30:00 PM 4.3 39.74 0.181 7.41 8.66 12.54
1/9/2023 8:45:00 PM 4.28 39.704 0.182 7.42 8.26 12.52
1/9/2023 9:00:00 PM 4.25 39.65 0.182 7.41 8.13 12.53
1/9/2023 9:15:00 PM 4.22 39.596 0.181 7.41 8.12 12.53
1/9/2023 9:30:00 PM 4.18 39.524 0.181 7.4 7.84 12.54
1/9/2023 9:45:00 PM 4.14 39.452 0.18 7.4 7.94 12.55
1/9/2023 10:00:00 PM 4.1 39.38 0.179 7.4 7.78 12.56
1/9/2023 10:15:00 PM 4.05 39.29 0.178 7.4 7.78 12.58
1/9/2023 10:30:00 PM 4.02 39.236 0.178 7.39 7.73 12.58
1/9/2023 10:45:00 PM 3.99 39.182 0.179 7.38 7.68 12.59
1/9/2023 11:00:00 PM 3.96 39.128 0.181 7.38 7.48 12.6
1/9/2023 11:15:00 PM 3.94 39.092 0.182 7.4 7.55 12.6
1/9/2023 11:30:00 PM 3.91 39.038 0.183 7.39 7.53 12.61
1/9/2023 11:45:00 PM 3.89 39.002 0.183 7.39 7.41 12.62
1/10/2023 12:00:00 AM 3.86 38.948 0.183 7.39 7.28 12.62
1/10/2023 12:15:00 AM 3.84 38.912 0.184 7.38 7.42 12.63
1/10/2023 12:30:00 AM 3.81 38.858 0.185 7.38 7.29 12.64
1/10/2023 12:45:00 AM 3.79 38.822 0.187 7.39 7.54 12.65
1/10/2023 1:00:00 AM 3.78 38.804 0.189 7.38 7.38 12.65
1/10/2023 1:15:00 AM 3.76 38.768 0.191 7.39 7.2 12.65
1/10/2023 1:30:00 AM 3.74 38.732 0.193 7.38 7.2 12.65
1/10/2023 1:45:00 AM 3.73 38.714 0.196 7.39 7.17 12.65
1/10/2023 2:00:00 AM 3.72 38.696 0.199 7.39 7.15 12.65
1/10/2023 2:15:00 AM 3.71 38.678 0.199 7.38 7.07 12.65
1/10/2023 2:30:00 AM 3.7 38.66 0.198 7.39 7.14 12.65
1/10/2023 2:45:00 AM 3.69 38.642 0.197 7.39 7.28 12.66
1/10/2023 3:00:00 AM 3.66 38.588 0.195 7.38 7.28 12.67
1/10/2023 3:15:00 AM 3.65 38.57 0.193 7.38 7.17 12.68
1/10/2023 3:30:00 AM 3.63 38.534 0.19 7.38 7.29 12.69
1/10/2023 3:45:00 AM 3.61 38.498 0.189 7.38 7.11 12.7
1/10/2023 4:00:00 AM 3.59 38.462 0.188 7.38 7.06 12.7
1/10/2023 4:15:00 AM 3.58 38.444 0.188 7.38 7.03 12.7
1/10/2023 4:30:00 AM 3.57 38.426 0.189 7.38 6.95 12.71
1/10/2023 4:45:00 AM 3.58 38.444 0.19 7.39 7.04 12.7
1/10/2023 5:00:00 AM 3.58 38.444 0.191 7.38 6.97 12.69
1/10/2023 5:15:00 AM 3.58 38.444 0.191 7.38 6.89 12.7
1/10/2023 5:30:00 AM 3.57 38.426 0.19 7.39 6.7 12.7
1/10/2023 5:45:00 AM 3.57 38.426 0.19 7.39 7.03 12.7
1/10/2023 6:00:00 AM 3.56 38.408 0.188 7.38 6.96 12.71
1/10/2023 6:15:00 AM 3.56 38.408 0.187 7.38 6.84 12.71
1/10/2023 6:30:00 AM 3.56 38.408 0.187 7.38 6.85 12.71
1/10/2023 6:45:00 AM 3.56 38.408 0.186 7.39 6.84 12.71
1/10/2023 7:00:00 AM 3.56 38.408 0.187 7.39 6.93 12.71
1/10/2023 7:15:00 AM 3.57 38.426 0.188 7.38 6.81 12.7
1/10/2023 7:30:00 AM 3.58 38.444 0.19 7.39 6.82 12.69
1/10/2023 7:45:00 AM 3.59 38.462 0.19 7.39 6.67 12.7
1/10/2023 8:00:00 AM 3.59 38.462 0.19 7.4 6.62 12.73
1/10/2023 8:15:00 AM 3.61 38.498 0.189 7.41 6.63 12.77
1/10/2023 8:30:00 AM 3.62 38.516 0.188 7.42 6.55 12.84
1/10/2023 8:45:00 AM 3.63 38.534 0.187 7.44 6.5 12.91
1/10/2023 9:00:00 AM 3.65 38.57 0.186 7.46 6.47 12.98
1/10/2023 9:15:00 AM 3.67 38.606 0.185 7.48 6.5 13.05
1/10/2023 9:30:00 AM 3.69 38.642 0.185 7.49 6.29 13.12
1/10/2023 9:45:00 AM 3.72 38.696 0.185 7.52 6.21 13.2
1/10/2023 10:00:00 AM 3.26 37.868 0.204 7.12 586.69 12.32
1/10/2023 10:15:00 AM 3.77 38.786 0.191 7.65 7 13.16
1/10/2023 10:30:00 AM 3.81 38.858 0.157 7.66 5.27 13.23
1/10/2023 10:45:00 AM 3.84 38.912 0.191 7.65 5.43 13.28
1/10/2023 11:00:00 AM 3.88 38.984 0.19 7.68 6.28 13.33
1/10/2023 11:15:00 AM 3.92 39.056 0.189 7.72 7.13 13.4
1/10/2023 11:30:00 AM 3.97 39.146 0.188 7.76 4558.73 13.47
1/10/2023 11:45:00 AM 4.02 39.236 0.187 7.8 5.58 13.54
1/10/2023 12:00:00 PM 4.07 39.326 0.186 7.84 7.58 13.59
1/10/2023 12:15:00 PM 4.13 39.434 0.186 7.86 6.5 13.65
1/10/2023 12:30:00 PM 4.21 39.578 0.186 7.89 7.36 13.68
1/10/2023 12:45:00 PM 4.3 39.74 0.187 7.94 8.75 13.72
1/10/2023 1:00:00 PM 4.39 39.902 0.188 7.95 5.45 13.75
1/10/2023 1:15:00 PM 4.46 40.028 0.188 8 12.34 13.76
1/10/2023 1:30:00 PM 4.54 40.172 0.188 8.04 5.52 13.76
1/10/2023 1:45:00 PM 4.62 40.316 0.188 8.08 5.81 13.76
1/10/2023 2:00:00 PM 4.71 40.478 0.187 8.11 5.45 13.76
1/10/2023 2:15:00 PM 4.79 40.622 0.186 8.14 5.34 13.77
1/10/2023 2:30:00 PM 4.88 40.784 0.185 8.16 5.32 13.75
1/10/2023 2:45:00 PM 4.94 40.892 0.185 8.17 5.23 13.72
1/10/2023 3:00:00 PM 5 41 0.185 8.17 5.18 13.7
1/10/2023 3:15:00 PM 5.08 41.144 0.187 8.18 5.48 13.68
1/10/2023 3:30:00 PM 5.16 41.288 0.189 8.19 5.25 13.64
1/10/2023 3:45:00 PM 5.2 41.36 0.19 8.18 5.48 13.58
1/10/2023 4:00:00 PM 5.23 41.414 0.191 8.15 5.54 13.47
1/10/2023 4:15:00 PM 5.25 41.45 0.191 8.1 5.67 13.35
1/10/2023 4:30:00 PM 5.27 41.486 0.19 8.05 5.73 13.21
1/10/2023 4:45:00 PM 5.29 41.522 0.19 7.99 5.66 13.07
1/10/2023 5:00:00 PM 5.29 41.522 0.19 7.92 5.54 12.92
1/10/2023 5:15:00 PM 5.29 41.522 0.19 7.86 5.7 12.78
1/10/2023 5:30:00 PM 5.28 41.504 0.19 7.82 5.83 12.66
1/10/2023 5:45:00 PM 5.29 41.522 0.191 7.78 5.99 12.56
1/10/2023 6:00:00 PM 5.29 41.522 0.193 7.75 6.06 12.47
1/10/2023 6:15:00 PM 5.31 41.558 0.195 7.72 5.81 12.39
1/10/2023 6:30:00 PM 5.32 41.576 0.196 7.7 6.08 12.31
1/10/2023 6:45:00 PM 5.33 41.594 0.196 7.68 6.04 12.25
1/10/2023 7:00:00 PM 5.34 41.612 0.196 7.66 6.56 12.2
1/10/2023 7:15:00 PM 5.34 41.612 0.196 7.65 6.87 12.15
1/10/2023 7:30:00 PM 5.34 41.612 0.195 7.63 7.24 12.11
1/10/2023 7:45:00 PM 5.32 41.576 0.194 7.62 7.39 12.08
1/10/2023 8:00:00 PM 5.3 41.54 0.193 7.61 7.3 12.05
1/10/2023 8:15:00 PM 5.28 41.504 0.193 7.6 7.34 12.03
1/10/2023 8:30:00 PM 5.25 41.45 0.194 7.59 7.12 12.02
1/10/2023 8:45:00 PM 5.23 41.414 0.196 7.58 7.3 12
1/10/2023 9:00:00 PM 5.22 41.396 0.198 7.58 7.29 11.99
1/10/2023 9:15:00 PM 5.19 41.342 0.199 7.57 7.33 11.99
1/10/2023 9:30:00 PM 5.16 41.288 0.199 7.56 6.93 11.98
1/10/2023 9:45:00 PM 5.13 41.234 0.198 7.57 7.13 11.98
1/10/2023 10:00:00 PM 5.08 41.144 0.198 7.56 7.19 11.99
1/10/2023 10:15:00 PM 5.04 41.072 0.197 7.56 7.27 12
1/10/2023 10:30:00 PM 4.99 40.982 0.196 7.55 6.93 12
1/10/2023 10:45:00 PM 4.94 40.892 0.195 7.54 7.04 12.02
1/10/2023 11:00:00 PM 4.89 40.802 0.195 7.54 7.72 12.02
1/10/2023 11:15:00 PM 4.84 40.712 0.196 7.54 7.99 12.03
1/10/2023 11:30:00 PM 4.79 40.622 0.198 7.54 8.11 12.03
1/10/2023 11:45:00 PM 4.74 40.532 0.2 7.54 7.73 12.03
1/11/2023 12:00:00 AM 4.7 40.46 0.2 7.53 7.94 12.04
1/11/2023 12:15:00 AM 4.64 40.352 0.2 7.53 7.53 12.05
1/11/2023 12:30:00 AM 4.59 40.262 0.2 7.53 7.25 12.07
1/11/2023 12:45:00 AM 4.53 40.154 0.195 7.52 7.39 12.09
1/11/2023 1:00:00 AM 4.48 40.064 0.198 7.52 7.01 12.11
1/11/2023 1:15:00 AM 4.42 39.956 0.197 7.52 7.14 12.13
1/11/2023 1:30:00 AM 4.36 39.848 0.196 7.51 6.92 12.15
1/11/2023 1:45:00 AM 4.31 39.758 0.196 7.52 7.07 12.16
1/11/2023 2:00:00 AM 4.25 39.65 0.197 7.51 6.97 12.18
1/11/2023 2:15:00 AM 4.21 39.578 0.199 7.51 7.14 12.2
1/11/2023 2:30:00 AM 4.15 39.47 0.2 7.51 6.8 12.21
1/11/2023 2:45:00 AM 4.1 39.38 0.201 7.51 7.13 12.21
1/11/2023 3:00:00 AM 4.06 39.308 0.201 7.51 6.84 12.23
1/11/2023 3:15:00 AM 4 39.2 0.2 7.51 7.05 12.24
1/11/2023 3:30:00 AM 3.95 39.11 0.199 7.51 7.15 12.26
1/11/2023 3:45:00 AM 3.89 39.002 0.199 7.51 6.91 12.29
1/11/2023 4:00:00 AM 3.83 38.894 0.198 7.5 7.03 12.31
1/11/2023 4:15:00 AM 3.77 38.786 0.197 7.49 6.92 12.34
1/11/2023 4:30:00 AM 3.72 38.696 0.197 7.48 6.69 12.35
1/11/2023 4:45:00 AM 3.67 38.606 0.198 7.49 6.69 12.37
1/11/2023 5:00:00 AM 3.63 38.534 0.2 7.49 6.78 12.38
1/11/2023 5:15:00 AM 3.58 38.444 0.201 7.49 6.69 12.4
1/11/2023 5:30:00 AM 3.54 38.372 0.202 7.49 6.65 12.41
1/11/2023 5:45:00 AM 3.49 38.282 0.202 7.49 6.56 12.42
1/11/2023 6:00:00 AM 3.45 38.21 0.202 7.49 6.48 12.44
1/11/2023 6:15:00 AM 3.4 38.12 0.201 7.48 6.66 12.46
1/11/2023 6:30:00 AM 3.35 38.03 0.2 7.48 6.62 12.47
1/11/2023 6:45:00 AM 3.3 37.94 0.199 7.48 6.57 12.5
1/11/2023 7:00:00 AM 3.25 37.85 0.198 7.48 6.65 12.52
1/11/2023 7:15:00 AM 3.2 37.76 0.198 7.48 6.66 12.54
1/11/2023 7:30:00 AM 3.16 37.688 0.199 7.47 6.58 12.56
1/11/2023 7:45:00 AM 3.13 37.634 0.2 7.49 6.72 12.58
1/11/2023 8:00:00 AM 3.1 37.58 0.202 7.49 6.57 12.63
1/11/2023 8:15:00 AM 3.09 37.562 0.202 7.51 6.5 12.7
1/11/2023 8:30:00 AM 3.08 37.544 0.202 7.52 6.49 12.79
1/11/2023 8:45:00 AM 3.06 37.508 0.201 7.54 6.36 12.91
1/11/2023 9:00:00 AM 3.06 37.508 0.2 7.57 6.83 13.03
1/11/2023 9:15:00 AM 3.07 37.526 0.198 7.6 7.06 13.16
1/11/2023 9:30:00 AM 3.08 37.544 0.197 7.62 6.25 13.3
1/11/2023 9:45:00 AM 3.09 37.562 0.196 7.66 6.38 13.42
1/11/2023 10:00:00 AM 3.12 37.616 0.196 7.69 6.04 13.53
1/11/2023 10:15:00 AM 3.16 37.688 0.196 7.73 10.62 13.63
1/11/2023 10:30:00 AM 3.21 37.778 0.197 7.77 6.02 13.73
1/11/2023 10:45:00 AM 3.26 37.868 0.198 7.81 5.9 13.8
1/11/2023 11:00:00 AM 3.32 37.976 0.198 7.86 21.27 13.86
1/11/2023 11:15:00 AM 3.37 38.066 0.197 7.89 5.72 13.92
1/11/2023 11:30:00 AM 3.42 38.156 0.196 7.92 5.67 13.97
1/11/2023 11:45:00 AM 3.48 38.264 0.195 7.95 5.89 14.03
1/11/2023 12:00:00 PM 3.55 38.39 0.194 7.99 9.95 14.07
1/11/2023 12:15:00 PM 3.6 38.48 0.193 8.02 5.72 14.09
1/11/2023 12:30:00 PM 3.65 38.57 0.192 8.04 5.73 14.08
1/11/2023 12:45:00 PM 3.7 38.66 0.192 8.06 5.81 14.07
1/11/2023 1:00:00 PM 3.75 38.75 0.193 8.08 5.61 14.06
1/11/2023 1:15:00 PM 3.81 38.858 0.194 8.1 5.64 14.05
1/11/2023 1:30:00 PM 3.88 38.984 0.195 8.12 5.56 14.04
1/11/2023 1:45:00 PM 3.93 39.074 0.196 8.13 5.91 14
1/11/2023 2:00:00 PM 3.97 39.146 0.195 8.14 5.6 13.97
1/11/2023 2:15:00 PM 4.04 39.272 0.194 8.16 5.78 13.99
1/11/2023 2:30:00 PM 4.1 39.38 0.193 8.17 5.45 13.99
1/11/2023 2:45:00 PM 4.14 39.452 0.193 8.18 5.7 13.96
1/11/2023 3:00:00 PM 4.17 39.506 0.192 8.18 5.76 13.92
1/11/2023 3:15:00 PM 4.19 39.542 0.192 8.18 5.81 13.87
1/11/2023 3:30:00 PM 4.22 39.596 0.193 8.16 5.89 13.82
1/11/2023 3:45:00 PM 4.26 39.668 0.194 8.15 5.97 13.75
1/11/2023 4:00:00 PM 4.3 39.74 0.196 8.12 5.84 13.68
1/11/2023 4:15:00 PM 4.34 39.812 0.197 8.09 6.29 13.58
1/11/2023 4:30:00 PM 4.37 39.866 0.197 8.06 6 13.5
1/11/2023 4:45:00 PM 4.38 39.884 0.197 8.01 5.69 13.36
1/11/2023 5:00:00 PM 4.38 39.884 0.197 7.96 5.69 13.23
1/11/2023 5:15:00 PM 4.39 39.902 0.196 7.91 5.8 13.09
1/11/2023 5:30:00 PM 4.4 39.92 0.196 7.86 5.98 12.96
1/11/2023 5:45:00 PM 4.4 39.92 0.196 7.82 5.93 12.85
1/11/2023 6:00:00 PM 4.41 39.938 0.196 7.79 6.08 12.78
1/11/2023 6:15:00 PM 4.43 39.974 0.197 7.77 5.71 12.69
1/11/2023 6:30:00 PM 4.45 40.01 0.199 7.75 5.86 12.62
1/11/2023 6:45:00 PM 4.46 40.028 0.202 7.73 6.34 12.55
1/11/2023 7:00:00 PM 4.49 40.082 0.203 7.71 6.11 12.49
1/11/2023 7:15:00 PM 4.51 40.118 0.203 7.69 6.56 12.43
1/11/2023 7:30:00 PM 4.53 40.154 0.203 7.68 6.94 12.39
1/11/2023 7:45:00 PM 4.54 40.172 0.203 7.67 7.78 12.35
1/11/2023 8:00:00 PM 4.56 40.208 0.202 7.66 8.28 12.32
1/11/2023 8:15:00 PM 4.58 40.244 0.201 7.65 9.09 12.29
1/11/2023 8:30:00 PM 4.58 40.244 0.201 7.64 10.13 12.26
1/11/2023 8:45:00 PM 4.6 40.28 0.201 7.63 9.92 12.24
1/11/2023 9:00:00 PM 4.59 40.262 0.202 7.62 9.35 12.22
1/11/2023 9:15:00 PM 4.6 40.28 0.204 7.62 9.34 12.2
1/11/2023 9:30:00 PM 4.6 40.28 0.205 7.62 8.54 12.18
1/11/2023 9:45:00 PM 4.6 40.28 0.206 7.61 7.7 12.17
1/11/2023 10:00:00 PM 4.61 40.298 0.206 7.61 7.4 12.16
1/11/2023 10:15:00 PM 4.61 40.298 0.206 7.61 7.49 12.15
1/11/2023 10:30:00 PM 4.62 40.316 0.205 7.6 7.31 12.14
1/11/2023 10:45:00 PM 4.62 40.316 0.204 7.6 7.03 12.14
1/11/2023 11:00:00 PM 4.62 40.316 0.203 7.6 6.93 12.14
1/11/2023 11:15:00 PM 4.62 40.316 0.202 7.6 7.45 12.14
1/11/2023 11:30:00 PM 4.62 40.316 0.203 7.59 6.97 12.13
1/11/2023 11:45:00 PM 4.62 40.316 0.204 7.59 6.87 12.12
1/12/2023 12:00:00 AM 4.63 40.334 0.206 7.58 7.02 12.11
1/12/2023 12:15:00 AM 4.64 40.352 0.207 7.58 7.01 12.1
1/12/2023 12:30:00 AM 4.64 40.352 0.208 7.58 6.95 12.09
1/12/2023 12:45:00 AM 4.64 40.352 0.208 7.58 6.6 12.08
1/12/2023 1:00:00 AM 4.64 40.352 0.206 7.58 6.76 12.08
1/12/2023 1:15:00 AM 4.64 40.352 0.205 7.58 6.69 12.08
1/12/2023 1:30:00 AM 4.64 40.352 0.204 7.57 6.81 12.08
1/12/2023 1:45:00 AM 4.63 40.334 0.203 7.57 6.87 12.08
1/12/2023 2:00:00 AM 4.63 40.334 0.203 7.57 6.79 12.08
1/12/2023 2:15:00 AM 4.62 40.316 0.203 7.56 6.7 12.08
1/12/2023 2:30:00 AM 4.62 40.316 0.205 7.57 6.82 12.07
1/12/2023 2:45:00 AM 4.63 40.334 0.207 7.57 7.04 12.06
1/12/2023 3:00:00 AM 4.63 40.334 0.208 7.56 7.04 12.06
1/12/2023 3:15:00 AM 4.63 40.334 0.208 7.56 7.15 12.05
1/12/2023 3:30:00 AM 4.63 40.334 0.208 7.56 7.01 12.05
1/12/2023 3:45:00 AM 4.63 40.334 0.207 7.56 7.07 12.05
1/12/2023 4:00:00 AM 4.63 40.334 0.207 7.56 7.01 12.06
1/12/2023 4:15:00 AM 4.62 40.316 0.206 7.56 7.36 12.06
1/12/2023 4:30:00 AM 4.62 40.316 0.207 7.56 7.22 12.06
1/12/2023 4:45:00 AM 4.62 40.316 0.208 7.55 7.19 12.05
1/12/2023 5:00:00 AM 4.63 40.334 0.211 7.55 7.06 12.05
1/12/2023 5:15:00 AM 4.63 40.334 0.214 7.55 7.01 12.04
1/12/2023 5:30:00 AM 4.64 40.352 0.216 7.55 7.38 12.03
1/12/2023 5:45:00 AM 4.65 40.37 0.217 7.55 7.27 12.03
1/12/2023 6:00:00 AM 4.67 40.406 0.216 7.55 7.49 12.02
1/12/2023 6:15:00 AM 4.67 40.406 0.214 7.55 7.6 12.02
1/12/2023 6:30:00 AM 4.68 40.424 0.212 7.55 7.12 12.02
1/12/2023 6:45:00 AM 4.68 40.424 0.21 7.54 7.75 12.03
1/12/2023 7:00:00 AM 4.67 40.406 0.208 7.55 7.84 12.03
1/12/2023 7:15:00 AM 4.68 40.424 0.208 7.54 7.55 12.02
1/12/2023 7:30:00 AM 4.68 40.424 0.209 7.54 7.66 12.02
1/12/2023 7:45:00 AM 4.69 40.442 0.211 7.55 7.92 12.01
1/12/2023 8:00:00 AM 4.71 40.478 0.214 7.55 8.22 12.01
1/12/2023 8:15:00 AM 4.73 40.514 0.216 7.56 8.41 12.01
1/12/2023 8:30:00 AM 4.74 40.532 0.217 7.56 8.4 12.04
1/12/2023 8:45:00 AM 4.75 40.55 0.216 7.57 10.16 12.06
1/12/2023 9:00:00 AM 4.76 40.568 0.215 7.57 8.97 12.09
1/12/2023 9:15:00 AM 4.77 40.586 0.214 7.58 8.05 12.11
1/12/2023 9:30:00 AM 4.79 40.622 0.214 7.59 9.01 12.16
1/12/2023 9:45:00 AM 4.8 40.64 0.214 7.6 8.1 12.22
1/12/2023 10:00:00 AM 4.82 40.676 0.216 7.62 7.83 12.31
1/12/2023 10:15:00 AM 4.85 40.73 0.219 7.64 8.48 12.39
1/12/2023 10:30:00 AM 4.89 40.802 0.221 7.67 7.3 12.48
1/12/2023 10:45:00 AM 4.93 40.874 0.223 7.7 7.43 12.58
1/12/2023 11:00:00 AM 4.96 40.928 0.224 7.72 7.41 12.63
1/12/2023 11:15:00 AM 4.99 40.982 0.225 7.74 7.13 12.66
1/12/2023 11:30:00 AM 5.02 41.036 0.225 7.75 7.16 12.68
1/12/2023 11:45:00 AM 5.04 41.072 0.225 7.76 7.19 12.69
1/12/2023 12:00:00 PM 5.07 41.126 0.224 7.78 7.09 12.73
1/12/2023 12:15:00 PM 5.1 41.18 0.223 7.8 7.3 12.75
1/12/2023 12:30:00 PM 5.12 41.216 0.223 7.8 6.83 12.71
1/12/2023 12:45:00 PM 5.14 41.252 0.223 7.79 6.99 12.67
1/12/2023 1:00:00 PM 5.17 41.306 0.224 7.8 7.1 12.65
1/12/2023 1:15:00 PM 5.18 41.324 0.224 7.78 7.2 12.56
1/12/2023 1:30:00 PM 5.18 41.324 0.223 7.76 7.13 12.48
1/12/2023 1:45:00 PM 5.17 41.306 0.221 7.74 7.5 12.42
1/12/2023 2:00:00 PM 5.15 41.27 0.219 7.73 8.14 12.37
1/12/2023 2:15:00 PM 5.09 41.162 0.216 7.7 10.87 12.37
1/12/2023 2:30:00 PM 4.88 40.784 0.208 7.65 27.26 12.35
1/12/2023 2:45:00 PM 4.57 40.226 0.182 7.52 140.56 12.35
1/12/2023 3:00:00 PM 4.44 39.992 0.181 7.49 317.91 12.38
1/12/2023 3:15:00 PM 4.43 39.974 0.175 7.46 292.42 12.37
1/12/2023 3:30:00 PM 4.48 40.064 0.184 7.46 200.18 12.31
1/12/2023 3:45:00 PM 4.55 40.19 0.201 7.48 153.49 12.25
1/12/2023 4:00:00 PM 4.58 40.244 0.209 7.49 141.89 12.21
1/12/2023 4:15:00 PM 4.63 40.334 0.216 7.49 118.9 12.17
1/12/2023 4:30:00 PM 4.7 40.46 0.217 7.5 94.15 12.14
1/12/2023 4:45:00 PM 4.8 40.64 0.22 7.51 80.41 12.1
1/12/2023 5:00:00 PM 4.9 40.82 0.221 7.52 70.57 12.08
1/12/2023 5:15:00 PM 5.04 41.072 0.225 7.53 50.58 12.03
1/12/2023 5:30:00 PM 5.12 41.216 0.226 7.5 54.43 11.97
1/12/2023 5:45:00 PM 5.14 41.252 0.235 7.5 71.41 11.95
1/12/2023 6:00:00 PM 5.13 41.234 0.24 7.5 75.27 11.93
1/12/2023 6:15:00 PM 5.14 41.252 0.244 7.5 78.36 11.88
1/12/2023 6:30:00 PM 5.15 41.27 0.251 7.48 81.98 11.84
1/12/2023 6:45:00 PM 5.15 41.27 0.26 7.47 92.2 11.82
1/12/2023 7:00:00 PM 5.13 41.234 0.264 7.47 102.43 11.82
1/12/2023 7:15:00 PM 5.08 41.144 0.259 7.47 108.13 11.83
1/12/2023 7:30:00 PM 5.01 41.018 0.249 7.47 112.41 11.84
1/12/2023 7:45:00 PM 4.96 40.928 0.238 7.46 108.3 11.85
1/12/2023 8:00:00 PM 4.92 40.856 0.226 7.46 105.38 11.85
1/12/2023 8:15:00 PM 4.9 40.82 0.216 7.44 99.23 11.86
1/12/2023 8:30:00 PM 4.88 40.784 0.209 7.43 95.95 11.85
1/12/2023 8:45:00 PM 4.89 40.802 0.204 7.43 91.54 11.84
1/12/2023 9:00:00 PM 4.9 40.82 0.201 7.42 86.43 11.83
1/12/2023 9:15:00 PM 4.92 40.856 0.201 7.42 84.11 11.82
1/12/2023 9:30:00 PM 4.95 40.91 0.201 7.41 80.43 11.82
1/12/2023 9:45:00 PM 4.95 40.91 0.201 7.41 73.35 11.81
1/12/2023 10:00:00 PM 4.95 40.91 0.202 7.41 69.43 11.81
1/12/2023 10:15:00 PM 4.96 40.928 0.207 7.41 69.56 11.8
1/12/2023 10:30:00 PM 4.99 40.982 0.214 7.41 64.82 11.78
1/12/2023 10:45:00 PM 5.01 41.018 0.219 7.41 63.62 11.76
1/12/2023 11:00:00 PM 5.05 41.09 0.224 7.4 60.75 11.72
1/12/2023 11:15:00 PM 5.09 41.162 0.229 7.4 58.05 11.7
1/12/2023 11:30:00 PM 5.12 41.216 0.232 7.4 56.36 11.67
1/12/2023 11:45:00 PM 5.13 41.234 0.23 7.41 56.38 11.67
1/13/2023 12:00:00 AM 5.12 41.216 0.226 7.41 53.49 11.68
1/13/2023 12:15:00 AM 5.1 41.18 0.221 7.42 52.18 11.7
1/13/2023 12:30:00 AM 5.08 41.144 0.217 7.41 50.03 11.72
1/13/2023 12:45:00 AM 5.08 41.144 0.216 7.42 49.37 11.71
1/13/2023 1:00:00 AM 5.09 41.162 0.217 7.41 47.4 11.69
1/13/2023 1:15:00 AM 5.1 41.18 0.217 7.42 42.55 11.67
1/13/2023 1:30:00 AM 5.11 41.198 0.215 7.42 42.76 11.66
1/13/2023 1:45:00 AM 5.1 41.18 0.211 7.41 43.32 11.68
1/13/2023 2:00:00 AM 5.08 41.144 0.207 7.42 39.51 11.7
1/13/2023 2:15:00 AM 5.07 41.126 0.205 7.42 38.17 11.71
1/13/2023 2:30:00 AM 5.06 41.108 0.205 7.42 38.05 11.71
1/13/2023 2:45:00 AM 5.07 41.126 0.208 7.42 36.59 11.72
1/13/2023 3:00:00 AM 5.09 41.162 0.211 7.42 36.76 11.7
1/13/2023 3:15:00 AM 5.11 41.198 0.214 7.42 33.48 11.7
1/13/2023 3:30:00 AM 5.13 41.234 0.217 7.43 33.38 11.69
1/13/2023 3:45:00 AM 5.16 41.288 0.221 7.43 33.2 11.66
1/13/2023 4:00:00 AM 5.2 41.36 0.223 7.42 32.95 11.64
1/13/2023 4:15:00 AM 5.22 41.396 0.224 7.43 33.24 11.63
1/13/2023 4:30:00 AM 5.22 41.396 0.222 7.43 29.65 11.64
1/13/2023 4:45:00 AM 5.21 41.378 0.221 7.43 25.04 11.66
1/13/2023 5:00:00 AM 5.19 41.342 0.219 7.44 26.96 11.67
1/13/2023 5:15:00 AM 5.18 41.324 0.219 7.44 29.95 11.68
1/13/2023 5:30:00 AM 5.17 41.306 0.219 7.44 28.94 11.69
1/13/2023 5:45:00 AM 5.16 41.288 0.218 7.45 27.31 11.7
1/13/2023 6:00:00 AM 5.16 41.288 0.219 7.45 24.85 11.69
1/13/2023 6:15:00 AM 5.14 41.252 0.219 7.44 25.79 11.71
1/13/2023 6:30:00 AM 5.14 41.252 0.22 7.45 26.87 11.71
1/13/2023 6:45:00 AM 5.13 41.234 0.22 7.45 25.93 11.72
1/13/2023 7:00:00 AM 5.11 41.198 0.221 7.45 28.6 11.73
1/13/2023 7:15:00 AM 5.1 41.18 0.221 7.45 23.43 11.74
1/13/2023 7:30:00 AM 5.09 41.162 0.222 7.46 24.65 11.74
1/13/2023 7:45:00 AM 5.07 41.126 0.222 7.46 25.77 11.74
1/13/2023 8:00:00 AM 5.09 41.162 0.225 7.46 23.39 11.74
1/13/2023 8:15:00 AM 5.1 41.18 0.227 7.46 26.04 11.75
1/13/2023 8:30:00 AM 5.11 41.198 0.227 7.47 24.05 11.79
1/13/2023 8:45:00 AM 5.11 41.198 0.225 7.48 23.2 11.87
1/13/2023 9:00:00 AM 5.12 41.216 0.223 7.5 21.27 11.98
1/13/2023 9:15:00 AM 5.11 41.198 0.223 7.52 21.91 12.06
1/13/2023 9:30:00 AM 5.12 41.216 0.223 7.53 23.87 12.13
1/13/2023 9:45:00 AM 5.11 41.198 0.222 7.55 15.33 12.16
1/13/2023 10:00:00 AM 5.11 41.198 0.222 7.55 14.48 12.17
1/13/2023 10:15:00 AM 5.1 41.18 0.223 7.55 14.26 12.2
1/13/2023 10:30:00 AM 5.11 41.198 0.224 7.56 13.48 12.21
1/13/2023 10:45:00 AM 5.13 41.234 0.227 7.56 13.14 12.19
1/13/2023 11:00:00 AM 5.13 41.234 0.227 7.57 12.44 12.2
1/13/2023 11:15:00 AM 5.13 41.234 0.226 7.57 12.26 12.2
1/13/2023 11:30:00 AM 5.11 41.198 0.225 7.56 12.09 12.19
1/13/2023 11:45:00 AM 5.08 41.144 0.222 7.57 12.13 12.19
1/13/2023 12:00:00 PM 5.07 41.126 0.222 7.57 11.63 12.2
1/13/2023 12:15:00 PM 5.04 41.072 0.221 7.57 11.58 12.21
1/13/2023 12:30:00 PM 5.01 41.018 0.221 7.57 11.54 12.23
1/13/2023 12:45:00 PM 4.99 40.982 0.221 7.57 11.85 12.23
1/13/2023 1:00:00 PM 4.98 40.964 0.221 7.57 12.1 12.24
1/13/2023 1:15:00 PM 4.98 40.964 0.222 7.58 12.34 12.26
1/13/2023 1:30:00 PM 4.97 40.946 0.223 7.58 12.93 12.27
1/13/2023 1:45:00 PM 4.97 40.946 0.225 7.59 12.91 12.27
1/13/2023 2:00:00 PM 4.98 40.964 0.227 7.59 13 12.28
1/13/2023 2:15:00 PM 4.98 40.964 0.228 7.6 13.83 12.3
1/13/2023 2:30:00 PM 4.97 40.946 0.225 7.61 12.85 12.35
1/13/2023 2:45:00 PM 4.95 40.91 0.224 7.61 12.39 12.37
1/13/2023 3:00:00 PM 4.93 40.874 0.223 7.62 12.67 12.4
1/13/2023 3:15:00 PM 4.92 40.856 0.223 7.62 11.84 12.41
1/13/2023 3:30:00 PM 4.9 40.82 0.222 7.62 11.9 12.4
1/13/2023 3:45:00 PM 4.88 40.784 0.221 7.62 11.4 12.38
1/13/2023 4:00:00 PM 4.86 40.748 0.222 7.6 11.36 12.34
1/13/2023 4:15:00 PM 4.85 40.73 0.223 7.6 11.17 12.29
1/13/2023 4:30:00 PM 4.84 40.712 0.226 7.58 11.26 12.26
1/13/2023 4:45:00 PM 4.83 40.694 0.227 7.58 11.17 12.23
1/13/2023 5:00:00 PM 4.8 40.64 0.226 7.57 11.04 12.21
1/13/2023 5:15:00 PM 4.77 40.586 0.224 7.57 10.92 12.19
1/13/2023 5:30:00 PM 4.75 40.55 0.223 7.56 10.98 12.17
1/13/2023 5:45:00 PM 4.72 40.496 0.222 7.55 11.1 12.16
1/13/2023 6:00:00 PM 4.69 40.442 0.222 7.55 11.14 12.14
1/13/2023 6:15:00 PM 4.66 40.388 0.222 7.54 11.27 12.13
1/13/2023 6:30:00 PM 4.62 40.316 0.22 7.54 11.14 12.13
1/13/2023 6:45:00 PM 4.6 40.28 0.219 7.54 10.91 12.13
1/13/2023 7:00:00 PM 4.57 40.226 0.221 7.53 10.74 12.13
1/13/2023 7:15:00 PM 4.56 40.208 0.224 7.53 10.72 12.11
1/13/2023 7:30:00 PM 4.54 40.172 0.227 7.52 10.95 12.1
1/13/2023 7:45:00 PM 4.53 40.154 0.228 7.52 11.27 12.1
1/13/2023 8:00:00 PM 4.51 40.118 0.227 7.52 11.43 12.1
1/13/2023 8:15:00 PM 4.48 40.064 0.226 7.52 11.32 12.12
1/13/2023 8:30:00 PM 4.46 40.028 0.226 7.52 11 12.12
1/13/2023 8:45:00 PM 4.43 39.974 0.226 7.52 10.88 12.14
1/13/2023 9:00:00 PM 4.4 39.92 0.226 7.51 10.82 12.15
1/13/2023 9:15:00 PM 4.37 39.866 0.225 7.51 10.57 12.15
1/13/2023 9:30:00 PM 4.34 39.812 0.224 7.51 10.42 12.16
1/13/2023 9:45:00 PM 4.32 39.776 0.225 7.51 10.14 12.15
1/13/2023 10:00:00 PM 4.3 39.74 0.227 7.51 10.07 12.15
1/13/2023 10:15:00 PM 4.29 39.722 0.214 7.51 10.03 12.15
1/13/2023 10:30:00 PM 4.27 39.686 0.229 7.51 9.96 12.15
1/13/2023 10:45:00 PM 4.24 39.632 0.227 7.5 10.24 12.16
1/13/2023 11:00:00 PM 4.21 39.578 0.226 7.5 9.74 12.18
1/13/2023 11:15:00 PM 4.18 39.524 0.224 7.5 9.77 12.18
1/13/2023 11:30:00 PM 4.15 39.47 0.223 7.51 9.56 12.19
1/13/2023 11:45:00 PM 4.12 39.416 0.222 7.5 9.65 12.2
1/14/2023 12:00:00 AM 4.09 39.362 0.221 7.5 9.64 12.2
1/14/2023 12:15:00 AM 4.06 39.308 0.22 7.5 9.59 12.21
1/14/2023 12:30:00 AM 4.03 39.254 0.22 7.5 9.37 12.21
1/14/2023 12:45:00 AM 4 39.2 0.222 7.5 9.31 12.21
1/14/2023 1:00:00 AM 3.98 39.164 0.222 7.5 9.49 12.21
1/14/2023 1:15:00 AM 3.95 39.11 0.223 7.5 9.39 12.22
1/14/2023 1:30:00 AM 3.92 39.056 0.222 7.5 9.58 12.24
1/14/2023 1:45:00 AM 3.88 38.984 0.22 7.5 9.23 12.25
1/14/2023 2:00:00 AM 3.84 38.912 0.217 7.5 9.24 12.27
1/14/2023 2:15:00 AM 3.81 38.858 0.216 7.5 9.15 12.29
1/14/2023 2:30:00 AM 3.78 38.804 0.214 7.5 9.1 12.31
1/14/2023 2:45:00 AM 3.75 38.75 0.212 7.5 9.15 12.33
1/14/2023 3:00:00 AM 3.71 38.678 0.211 7.5 9.07 12.35
1/14/2023 3:15:00 AM 3.69 38.642 0.211 7.5 8.98 12.35
1/14/2023 3:30:00 AM 3.67 38.606 0.211 7.5 8.88 12.35
1/14/2023 3:45:00 AM 3.65 38.57 0.212 7.5 8.88 12.35
1/14/2023 4:00:00 AM 3.63 38.534 0.213 7.51 9.01 12.36
1/14/2023 4:15:00 AM 3.6 38.48 0.213 7.5 9.03 12.37
1/14/2023 4:30:00 AM 3.57 38.426 0.212 7.5 8.99 12.39
1/14/2023 4:45:00 AM 3.54 38.372 0.211 7.5 8.82 12.4
1/14/2023 5:00:00 AM 3.51 38.318 0.209 7.5 9.07 12.42
1/14/2023 5:15:00 AM 3.48 38.264 0.209 7.5 8.95 12.43
1/14/2023 5:30:00 AM 3.45 38.21 0.207 7.5 8.91 12.44
1/14/2023 5:45:00 AM 3.43 38.174 0.207 7.5 8.7 12.45
1/14/2023 6:00:00 AM 3.4 38.12 0.207 7.5 8.46 12.45
1/14/2023 6:15:00 AM 3.38 38.084 0.208 7.5 8.44 12.45
1/14/2023 6:30:00 AM 3.36 38.048 0.209 7.5 8.62 12.45
1/14/2023 6:45:00 AM 3.35 38.03 0.21 7.51 8.38 12.46
1/14/2023 7:00:00 AM 3.33 37.994 0.209 7.5 8.19 12.46
1/14/2023 7:15:00 AM 3.3 37.94 0.208 7.51 8.24 12.48
1/14/2023 7:30:00 AM 3.26 37.868 0.207 7.51 8.17 12.5
1/14/2023 7:45:00 AM 3.22 37.796 0.206 7.5 8.08 12.52
1/14/2023 8:00:00 AM 3.2 37.76 0.206 7.51 7.9 12.54
1/14/2023 8:15:00 AM 3.17 37.706 0.202 7.51 7.75 12.56
1/14/2023 8:30:00 AM 3.15 37.67 0.204 7.51 7.71 12.6
1/14/2023 8:45:00 AM 3.14 37.652 0.204 7.52 7.75 12.65
1/14/2023 9:00:00 AM 3.14 37.652 0.205 7.54 7.54 12.73
1/14/2023 9:15:00 AM 3.15 37.67 0.206 7.56 7.49 12.8
1/14/2023 9:30:00 AM 3.16 37.688 0.206 7.58 7.43 12.89
1/14/2023 9:45:00 AM 3.17 37.706 0.206 7.6 7.11 12.98
1/14/2023 10:00:00 AM 3.18 37.724 0.205 7.62 7.15 13.04
1/14/2023 10:15:00 AM 3.17 37.706 0.204 7.64 7.21 13.12
1/14/2023 10:30:00 AM 3.18 37.724 0.201 7.66 7.03 13.22
1/14/2023 10:45:00 AM 3.18 37.724 0.201 7.69 7.06 13.3
1/14/2023 11:00:00 AM 3.17 37.706 0.2 7.72 7.15 13.38
1/14/2023 11:15:00 AM 3.18 37.724 0.199 7.75 6.86 13.47
1/14/2023 11:30:00 AM 3.19 37.742 0.199 7.78 6.87 13.55
1/14/2023 11:45:00 AM 3.21 37.778 0.2 7.81 6.76 13.62
1/14/2023 12:00:00 PM 3.25 37.85 0.202 7.84 6.69 13.68
1/14/2023 12:15:00 PM 3.29 37.922 0.202 7.87 6.82 13.72
1/14/2023 12:30:00 PM 3.29 37.922 0.201 7.89 6.68 13.74
1/14/2023 12:45:00 PM 3.28 37.904 0.2 7.91 6.73 13.75
1/14/2023 1:00:00 PM 3.29 37.922 0.199 7.93 6.75 13.79
1/14/2023 1:15:00 PM 3.3 37.94 0.198 7.95 6.93 13.82
1/14/2023 1:30:00 PM 3.3 37.94 0.197 7.97 6.87 13.84
1/14/2023 1:45:00 PM 3.32 37.976 0.197 7.98 6.69 13.86
1/14/2023 2:00:00 PM 3.35 38.03 0.197 8.01 6.82 13.89
1/14/2023 2:15:00 PM 3.35 38.03 0.198 8.03 6.8 13.89
1/14/2023 2:30:00 PM 3.36 38.048 0.198 8.03 6.74 13.89
1/14/2023 2:45:00 PM 3.38 38.084 0.2 8.04 6.71 13.89
1/14/2023 3:00:00 PM 3.4 38.12 0.2 8.05 6.78 13.89
1/14/2023 3:15:00 PM 3.41 38.138 0.2 8.05 6.61 13.87
1/14/2023 3:30:00 PM 3.39 38.102 0.199 8.04 6.56 13.83
1/14/2023 3:45:00 PM 3.38 38.084 0.198 8.03 6.44 13.81
1/14/2023 4:00:00 PM 3.37 38.066 0.198 8.02 6.61 13.79
1/14/2023 4:15:00 PM 3.35 38.03 0.197 8 6.56 13.74
1/14/2023 4:30:00 PM 3.31 37.958 0.197 7.96 6.68 13.67
1/14/2023 4:45:00 PM 3.28 37.904 0.198 7.93 6.54 13.59
1/14/2023 5:00:00 PM 3.24 37.832 0.199 7.87 6.73 13.46
1/14/2023 5:15:00 PM 3.21 37.778 0.2 7.82 6.56 13.35
1/14/2023 5:30:00 PM 3.18 37.724 0.202 7.79 6.7 13.27
1/14/2023 5:45:00 PM 3.15 37.67 0.202 7.75 6.72 13.19
1/14/2023 6:00:00 PM 3.11 37.598 0.202 7.72 6.88 13.14
1/14/2023 6:15:00 PM 3.07 37.526 0.201 7.7 6.81 13.1
1/14/2023 6:30:00 PM 3.02 37.436 0.201 7.69 6.99 13.06
1/14/2023 6:45:00 PM 2.96 37.328 0.2 7.67 6.94 13.03
1/14/2023 7:00:00 PM 2.92 37.256 0.2 7.65 6.73 13.01
1/14/2023 7:15:00 PM 2.88 37.184 0.2 7.64 6.85 12.99
1/14/2023 7:30:00 PM 2.84 37.112 0.2 7.62 6.9 12.97
1/14/2023 7:45:00 PM 2.81 37.058 0.202 7.61 6.93 12.94
1/14/2023 8:00:00 PM 2.78 37.004 0.204 7.6 6.99 12.92
1/14/2023 8:15:00 PM 2.75 36.95 0.206 7.59 6.91 12.91
1/14/2023 8:30:00 PM 2.72 36.896 0.206 7.59 6.88 12.9
1/14/2023 8:45:00 PM 2.68 36.824 0.205 7.58 7.04 12.91
1/14/2023 9:00:00 PM 2.64 36.752 0.204 7.57 6.96 12.92
1/14/2023 9:15:00 PM 2.59 36.662 0.202 7.57 7.08 12.93
1/14/2023 9:30:00 PM 2.55 36.59 0.202 7.56 6.86 12.94
1/14/2023 9:45:00 PM 2.51 36.518 0.201 7.56 6.8 12.96
1/14/2023 10:00:00 PM 2.47 36.446 0.201 7.55 6.77 12.96
1/14/2023 10:15:00 PM 2.44 36.392 0.201 7.54 6.82 12.97
1/14/2023 10:30:00 PM 2.41 36.338 0.203 7.54 6.69 12.97
1/14/2023 10:45:00 PM 2.39 36.302 0.204 7.54 6.77 12.96
1/14/2023 11:00:00 PM 2.37 36.266 0.205 7.54 6.81 12.97
1/14/2023 11:15:00 PM 2.33 36.194 0.205 7.54 6.62 12.97
1/14/2023 11:30:00 PM 2.3 36.14 0.204 7.53 6.6 12.99
1/14/2023 11:45:00 PM 2.27 36.086 0.203 7.53 6.73 13
1/15/2023 12:00:00 AM 2.24 36.032 0.201 7.53 6.69 13.01
1/15/2023 12:15:00 AM 2.21 35.978 0.2 7.52 6.67 13.02
1/15/2023 12:30:00 AM 2.19 35.942 0.2 7.52 6.74 13.03
1/15/2023 12:45:00 AM 2.16 35.888 0.2 7.52 6.54 13.04
1/15/2023 1:00:00 AM 2.14 35.852 0.2 7.52 6.74 13.04
1/15/2023 1:15:00 AM 2.14 35.852 0.201 7.52 6.69 13.05
1/15/2023 1:30:00 AM 2.14 35.852 0.202 7.52 6.68 13.04
1/15/2023 1:45:00 AM 2.15 35.87 0.204 7.52 6.58 13.04
1/15/2023 2:00:00 AM 2.14 35.852 0.203 7.52 6.64 13.05
1/15/2023 2:15:00 AM 2.13 35.834 0.202 7.52 6.73 13.06
1/15/2023 2:30:00 AM 2.11 35.798 0.201 7.52 6.56 13.06
1/15/2023 2:45:00 AM 2.1 35.78 0.2 7.52 6.55 13.07
1/15/2023 3:00:00 AM 2.08 35.744 0.199 7.52 6.61 13.08
1/15/2023 3:15:00 AM 2.07 35.726 0.198 7.52 6.55 13.09
1/15/2023 3:30:00 AM 2.06 35.708 0.198 7.51 6.79 13.1
1/15/2023 3:45:00 AM 2.06 35.708 0.198 7.51 6.77 13.09
1/15/2023 4:00:00 AM 2.07 35.726 0.2 7.52 6.52 13.09
1/15/2023 4:15:00 AM 2.08 35.744 0.201 7.52 6.71 13.08
1/15/2023 4:30:00 AM 2.09 35.762 0.201 7.51 6.71 13.08
1/15/2023 4:45:00 AM 2.1 35.78 0.201 7.52 6.51 13.08
1/15/2023 5:00:00 AM 2.09 35.762 0.201 7.52 6.63 13.08
1/15/2023 5:15:00 AM 2.08 35.744 0.199 7.52 6.55 13.08
1/15/2023 5:30:00 AM 2.06 35.708 0.199 7.51 6.54 13.09
1/15/2023 5:45:00 AM 2.05 35.69 0.198 7.51 6.42 13.09
1/15/2023 6:00:00 AM 2.04 35.672 0.197 7.52 6.44 13.1
1/15/2023 6:15:00 AM 2.02 35.636 0.196 7.51 6.34 13.11
1/15/2023 6:30:00 AM 2 35.6 0.197 7.51 6.28 13.11
1/15/2023 6:45:00 AM 1.98 35.564 0.198 7.52 6.33 13.11
1/15/2023 7:00:00 AM 1.97 35.546 0.199 7.52 6.38 13.11
1/15/2023 7:15:00 AM 1.96 35.528 0.199 7.51 6.13 13.12
1/15/2023 7:30:00 AM 1.94 35.492 0.2 7.52 6.33 13.13
1/15/2023 7:45:00 AM 1.91 35.438 0.199 7.52 6.32 13.16
1/15/2023 8:00:00 AM 1.87 35.366 0.198 7.52 6.13 13.22
1/15/2023 8:15:00 AM 1.85 35.33 0.196 7.53 6.16 13.28
1/15/2023 8:30:00 AM 1.82 35.276 0.195 7.54 6.12 13.35
1/15/2023 8:45:00 AM 1.81 35.258 0.194 7.56 6.02 13.42
1/15/2023 9:00:00 AM 1.8 35.24 0.194 7.57 6.19 13.52
1/15/2023 9:15:00 AM 1.82 35.276 0.194 7.6 6.19 13.62
1/15/2023 9:30:00 AM 1.84 35.312 0.196 7.63 5.94 13.72
1/15/2023 9:45:00 AM 1.9 35.42 0.197 7.65 6.07 13.81
1/15/2023 10:00:00 AM 1.96 35.528 0.196 7.68 5.91 13.9
1/15/2023 10:15:00 AM 2.02 35.636 0.196 7.71 5.86 13.98
1/15/2023 10:30:00 AM 2.06 35.708 0.195 7.74 6.18 14.05
1/15/2023 10:45:00 AM 2.11 35.798 0.194 7.77 6.67 14.13
1/15/2023 11:00:00 AM 2.16 35.888 0.192 7.8 6.64 14.19
1/15/2023 11:15:00 AM 2.21 35.978 0.191 7.82 6.79 14.24
1/15/2023 11:30:00 AM 2.27 36.086 0.19 7.85 6.59 14.29
1/15/2023 11:45:00 AM 2.33 36.194 0.191 7.87 6.06 14.31
1/15/2023 12:00:00 PM 2.41 36.338 0.191 7.89 6 14.33
1/15/2023 12:15:00 PM 2.5 36.5 0.193 7.92 5.75 14.34
1/15/2023 12:30:00 PM 2.58 36.644 0.193 7.94 5.94 14.34
1/15/2023 12:45:00 PM 2.66 36.788 0.193 7.95 5.79 14.33
1/15/2023 1:00:00 PM 2.73 36.914 0.192 7.97 5.75 14.33
1/15/2023 1:15:00 PM 2.79 37.022 0.191 8 5.72 14.34
1/15/2023 1:30:00 PM 2.85 37.13 0.19 8.01 5.88 14.33
1/15/2023 1:45:00 PM 2.91 37.238 0.189 8.02 5.78 14.32
1/15/2023 2:00:00 PM 2.95 37.31 0.188 8.03 5.63 14.3
1/15/2023 2:15:00 PM 3 37.4 0.188 8.03 5.68 14.28
1/15/2023 2:30:00 PM 3.03 37.454 0.188 8.04 5.76 14.24
1/15/2023 2:45:00 PM 3.06 37.508 0.19 8.04 5.76 14.19
1/15/2023 3:00:00 PM 3.09 37.562 0.192 8.03 5.72 14.16
1/15/2023 3:15:00 PM 3.11 37.598 0.192 8.02 5.91 14.1
1/15/2023 3:30:00 PM 3.11 37.598 0.192 8 5.85 14.05
1/15/2023 3:45:00 PM 3.11 37.598 0.192 7.99 5.78 13.99
1/15/2023 4:00:00 PM 3.1 37.58 0.191 7.97 5.85 13.93
1/15/2023 4:15:00 PM 3.09 37.562 0.19 7.94 5.88 13.85
1/15/2023 4:30:00 PM 3.07 37.526 0.19 7.91 5.86 13.78
1/15/2023 4:45:00 PM 3.05 37.49 0.189 7.88 5.87 13.69
1/15/2023 5:00:00 PM 3.03 37.454 0.189 7.84 5.78 13.6
1/15/2023 5:15:00 PM 3.03 37.454 0.191 7.81 5.88 13.5
1/15/2023 5:30:00 PM 3.02 37.436 0.193 7.78 5.84 13.4
1/15/2023 5:45:00 PM 3.02 37.436 0.194 7.75 5.94 13.31
1/15/2023 6:00:00 PM 3.01 37.418 0.195 7.72 6.48 13.24
1/15/2023 6:15:00 PM 3.01 37.418 0.195 7.7 6.19 13.18
1/15/2023 6:30:00 PM 3 37.4 0.195 7.68 6.2 13.13
1/15/2023 6:45:00 PM 2.99 37.382 0.194 7.67 6.36 13.08
1/15/2023 7:00:00 PM 2.98 37.364 0.194 7.66 6.15 13.04
1/15/2023 7:15:00 PM 2.97 37.346 0.194 7.65 6.12 13.01
1/15/2023 7:30:00 PM 2.97 37.346 0.194 7.63 6.21 12.97
1/15/2023 7:45:00 PM 2.96 37.328 0.195 7.62 6.03 12.95
1/15/2023 8:00:00 PM 2.95 37.31 0.196 7.61 6.17 12.93
1/15/2023 8:15:00 PM 2.93 37.274 0.198 7.6 6.32 12.91
1/15/2023 8:30:00 PM 2.92 37.256 0.2 7.6 6.06 12.89
1/15/2023 8:45:00 PM 2.89 37.202 0.199 7.59 6.22 12.89
1/15/2023 9:00:00 PM 2.86 37.148 0.199 7.59 6.23 12.89
1/15/2023 9:15:00 PM 2.82 37.076 0.198 7.58 6.27 12.89
1/15/2023 9:30:00 PM 2.78 37.004 0.197 7.58 6.16 12.89
1/15/2023 9:45:00 PM 2.75 36.95 0.196 7.57 6.12 12.9
1/15/2023 10:00:00 PM 2.72 36.896 0.196 7.57 6.08 12.9
1/15/2023 10:15:00 PM 2.67 36.806 0.195 7.56 6.18 12.91
1/15/2023 10:30:00 PM 2.63 36.734 0.196 7.56 6.15 12.92
1/15/2023 10:45:00 PM 2.61 36.698 0.197 7.56 6.15 12.9
1/15/2023 11:00:00 PM 2.59 36.662 0.2 7.55 6.15 12.91
1/15/2023 11:15:00 PM 2.56 36.608 0.2 7.55 6.09 12.91
1/15/2023 11:30:00 PM 2.52 36.536 0.201 7.55 5.97 12.91
1/15/2023 11:45:00 PM 2.49 36.482 0.2 7.54 6.21 12.92
1/16/2023 12:00:00 AM 2.45 36.41 0.199 7.54 6.14 12.94
1/16/2023 12:15:00 AM 2.41 36.338 0.198 7.54 6.06 12.95
1/16/2023 12:30:00 AM 2.36 36.248 0.197 7.54 6.25 12.96
1/16/2023 12:45:00 AM 2.33 36.194 0.196 7.54 6.07 12.97
1/16/2023 1:00:00 AM 2.3 36.14 0.196 7.53 6.23 12.99
1/16/2023 1:15:00 AM 2.26 36.068 0.196 7.53 6.11 12.99
1/16/2023 1:30:00 AM 2.22 35.996 0.199 7.53 6.06 13
1/16/2023 1:45:00 AM 2.19 35.942 0.2 7.53 6.12 13
1/16/2023 2:00:00 AM 2.15 35.87 0.201 7.52 6.17 13
1/16/2023 2:15:00 AM 2.11 35.798 0.2 7.52 6.15 13.02
1/16/2023 2:30:00 AM 2.07 35.726 0.2 7.52 6.15 13.03
1/16/2023 2:45:00 AM 2.02 35.636 0.199 7.52 6.21 13.05
1/16/2023 3:00:00 AM 1.97 35.546 0.197 7.52 6.06 13.07
1/16/2023 3:15:00 AM 1.93 35.474 0.196 7.51 5.97 13.1
1/16/2023 3:30:00 AM 1.9 35.42 0.196 7.51 6.07 13.11
1/16/2023 3:45:00 AM 1.86 35.348 0.195 7.51 6.07 13.13
1/16/2023 4:00:00 AM 1.82 35.276 0.196 7.5 6.11 13.14
1/16/2023 4:15:00 AM 1.79 35.222 0.197 7.5 6.08 13.14
1/16/2023 4:30:00 AM 1.78 35.204 0.199 7.5 6 13.14
1/16/2023 4:45:00 AM 1.75 35.15 0.199 7.5 6.13 13.16
1/16/2023 5:00:00 AM 1.73 35.114 0.2 7.5 5.93 13.17
1/16/2023 5:15:00 AM 1.69 35.042 0.199 7.5 6.11 13.19
1/16/2023 5:30:00 AM 1.65 34.97 0.198 7.5 6.03 13.21
1/16/2023 5:45:00 AM 1.62 34.916 0.197 7.5 5.86 13.22
1/16/2023 6:00:00 AM 1.59 34.862 0.196 7.5 5.98 13.24
1/16/2023 6:15:00 AM 1.56 34.808 0.196 7.5 6.02 13.26
1/16/2023 6:30:00 AM 1.52 34.736 0.195 7.5 5.87 13.27
1/16/2023 6:45:00 AM 1.5 34.7 0.196 7.5 5.9 13.27
1/16/2023 7:00:00 AM 1.48 34.664 0.197 7.5 5.81 13.27
1/16/2023 7:15:00 AM 1.47 34.646 0.199 7.5 5.81 13.27
1/16/2023 7:30:00 AM 1.46 34.628 0.2 7.5 5.81 13.28
1/16/2023 7:45:00 AM 1.45 34.61 0.199 7.51 5.96 13.3
1/16/2023 8:00:00 AM 1.44 34.592 0.198 7.52 5.69 13.35
1/16/2023 8:15:00 AM 1.44 34.592 0.197 7.53 5.74 13.41
1/16/2023 8:30:00 AM